<?xml version="1.0" encoding="utf-8"?>
<gpx xmlns:xsi="http://www.w3.org/2001/XMLSchema-instance" xmlns:xsd="http://www.w3.org/2001/XMLSchema" version="1.1" creator="Shapelink.com" xmlns="http://www.topografix.com/GPX/1/1" xmlns:gpxtpx="http://www.garmin.com/xmlschemas/TrackPointExtension/v1">
  <metadata>
    <name>Running 5.99 km, 2015-05-29</name>
    <desc></desc>
    <author><name>Henrik Amren</name></author> 
    <time>2015-05-29T19:09:24Z</time>
  </metadata>
  <trk>
    <name>Running 5.99 km, 2015-05-29</name>
    <trkseg>
      <trkpt lat="37.410488" lon="-122.160536">
        <ele>51</ele>
        <time>2015-05-29T19:09:24Z</time>
      </trkpt>
      <trkpt lat="37.410443" lon="-122.160558">
        <ele>51.2</ele>
        <time>2015-05-29T19:09:26Z</time>
      </trkpt>
      <trkpt lat="37.410414" lon="-122.160562">
        <ele>51.3</ele>
        <time>2015-05-29T19:09:27Z</time>
      </trkpt>
      <trkpt lat="37.410367" lon="-122.160558">
        <ele>51.5</ele>
        <time>2015-05-29T19:09:29Z</time>
      </trkpt>
      <trkpt lat="37.41032" lon="-122.16055">
        <ele>51.8</ele>
        <time>2015-05-29T19:09:31Z</time>
      </trkpt>
      <trkpt lat="37.410273" lon="-122.160549">
        <ele>52</ele>
        <time>2015-05-29T19:09:33Z</time>
      </trkpt>
      <trkpt lat="37.410223" lon="-122.160543">
        <ele>52.1</ele>
        <time>2015-05-29T19:09:35Z</time>
      </trkpt>
      <trkpt lat="37.410174" lon="-122.160539">
        <ele>52.3</ele>
        <time>2015-05-29T19:09:37Z</time>
      </trkpt>
      <trkpt lat="37.410133" lon="-122.160525">
        <ele>52.4</ele>
        <time>2015-05-29T19:09:39Z</time>
      </trkpt>
      <trkpt lat="37.410094" lon="-122.160496">
        <ele>52.6</ele>
        <time>2015-05-29T19:09:41Z</time>
      </trkpt>
      <trkpt lat="37.410064" lon="-122.16046">
        <ele>52.8</ele>
        <time>2015-05-29T19:09:43Z</time>
      </trkpt>
      <trkpt lat="37.410036" lon="-122.160423">
        <ele>52.9</ele>
        <time>2015-05-29T19:09:45Z</time>
      </trkpt>
      <trkpt lat="37.410012" lon="-122.160391">
        <ele>52.9</ele>
        <time>2015-05-29T19:09:47Z</time>
      </trkpt>
      <trkpt lat="37.409985" lon="-122.160356">
        <ele>53</ele>
        <time>2015-05-29T19:09:49Z</time>
      </trkpt>
      <trkpt lat="37.409962" lon="-122.160322">
        <ele>53.1</ele>
        <time>2015-05-29T19:09:51Z</time>
      </trkpt>
      <trkpt lat="37.409937" lon="-122.160285">
        <ele>53.2</ele>
        <time>2015-05-29T19:09:53Z</time>
      </trkpt>
      <trkpt lat="37.409908" lon="-122.160253">
        <ele>53.3</ele>
        <time>2015-05-29T19:09:55Z</time>
      </trkpt>
      <trkpt lat="37.409875" lon="-122.160215">
        <ele>53.4</ele>
        <time>2015-05-29T19:09:57Z</time>
      </trkpt>
      <trkpt lat="37.409846" lon="-122.160159">
        <ele>53.4</ele>
        <time>2015-05-29T19:09:59Z</time>
      </trkpt>
      <trkpt lat="37.40983" lon="-122.160109">
        <ele>53.4</ele>
        <time>2015-05-29T19:10:01Z</time>
      </trkpt>
      <trkpt lat="37.409807" lon="-122.160066">
        <ele>53.4</ele>
        <time>2015-05-29T19:10:03Z</time>
      </trkpt>
      <trkpt lat="37.409778" lon="-122.160027">
        <ele>53.5</ele>
        <time>2015-05-29T19:10:05Z</time>
      </trkpt>
      <trkpt lat="37.409753" lon="-122.159987">
        <ele>53.5</ele>
        <time>2015-05-29T19:10:07Z</time>
      </trkpt>
      <trkpt lat="37.409722" lon="-122.159948">
        <ele>53.6</ele>
        <time>2015-05-29T19:10:09Z</time>
      </trkpt>
      <trkpt lat="37.409688" lon="-122.159909">
        <ele>53.7</ele>
        <time>2015-05-29T19:10:11Z</time>
      </trkpt>
      <trkpt lat="37.409663" lon="-122.159881">
        <ele>53.7</ele>
        <time>2015-05-29T19:10:13Z</time>
      </trkpt>
      <trkpt lat="37.409631" lon="-122.159854">
        <ele>53.8</ele>
        <time>2015-05-29T19:10:15Z</time>
      </trkpt>
      <trkpt lat="37.409603" lon="-122.159811">
        <ele>53.8</ele>
        <time>2015-05-29T19:10:17Z</time>
      </trkpt>
      <trkpt lat="37.409578" lon="-122.159767">
        <ele>53.8</ele>
        <time>2015-05-29T19:10:19Z</time>
      </trkpt>
      <trkpt lat="37.409552" lon="-122.159725">
        <ele>53.8</ele>
        <time>2015-05-29T19:10:21Z</time>
      </trkpt>
      <trkpt lat="37.409532" lon="-122.159692">
        <ele>53.7</ele>
        <time>2015-05-29T19:10:23Z</time>
      </trkpt>
      <trkpt lat="37.40951" lon="-122.159651">
        <ele>53.7</ele>
        <time>2015-05-29T19:10:25Z</time>
      </trkpt>
      <trkpt lat="37.409484" lon="-122.15961">
        <ele>53.5</ele>
        <time>2015-05-29T19:10:27Z</time>
      </trkpt>
      <trkpt lat="37.409453" lon="-122.159566">
        <ele>53.7</ele>
        <time>2015-05-29T19:10:29Z</time>
      </trkpt>
      <trkpt lat="37.40942" lon="-122.159522">
        <ele>53.7</ele>
        <time>2015-05-29T19:10:31Z</time>
      </trkpt>
      <trkpt lat="37.409389" lon="-122.159476">
        <ele>53.6</ele>
        <time>2015-05-29T19:10:33Z</time>
      </trkpt>
      <trkpt lat="37.409356" lon="-122.159429">
        <ele>53.5</ele>
        <time>2015-05-29T19:10:35Z</time>
      </trkpt>
      <trkpt lat="37.409314" lon="-122.15939">
        <ele>53.4</ele>
        <time>2015-05-29T19:10:37Z</time>
      </trkpt>
      <trkpt lat="37.409279" lon="-122.159351">
        <ele>53.2</ele>
        <time>2015-05-29T19:10:39Z</time>
      </trkpt>
      <trkpt lat="37.409245" lon="-122.159308">
        <ele>53.1</ele>
        <time>2015-05-29T19:10:41Z</time>
      </trkpt>
      <trkpt lat="37.409229" lon="-122.15928">
        <ele>53</ele>
        <time>2015-05-29T19:10:42Z</time>
      </trkpt>
      <trkpt lat="37.409204" lon="-122.15923">
        <ele>52.9</ele>
        <time>2015-05-29T19:10:44Z</time>
      </trkpt>
      <trkpt lat="37.409175" lon="-122.159183">
        <ele>52.6</ele>
        <time>2015-05-29T19:10:46Z</time>
      </trkpt>
      <trkpt lat="37.40915" lon="-122.159147">
        <ele>52.7</ele>
        <time>2015-05-29T19:10:48Z</time>
      </trkpt>
      <trkpt lat="37.409123" lon="-122.159106">
        <ele>52.7</ele>
        <time>2015-05-29T19:10:50Z</time>
      </trkpt>
      <trkpt lat="37.409101" lon="-122.159072">
        <ele>52.8</ele>
        <time>2015-05-29T19:10:52Z</time>
      </trkpt>
      <trkpt lat="37.409078" lon="-122.159034">
        <ele>52.7</ele>
        <time>2015-05-29T19:10:54Z</time>
      </trkpt>
      <trkpt lat="37.409051" lon="-122.15899">
        <ele>52.4</ele>
        <time>2015-05-29T19:10:56Z</time>
      </trkpt>
      <trkpt lat="37.409025" lon="-122.158947">
        <ele>52.3</ele>
        <time>2015-05-29T19:10:58Z</time>
      </trkpt>
      <trkpt lat="37.409003" lon="-122.158904">
        <ele>52.1</ele>
        <time>2015-05-29T19:11:00Z</time>
      </trkpt>
      <trkpt lat="37.408975" lon="-122.158858">
        <ele>51.9</ele>
        <time>2015-05-29T19:11:02Z</time>
      </trkpt>
      <trkpt lat="37.408951" lon="-122.158813">
        <ele>51.8</ele>
        <time>2015-05-29T19:11:04Z</time>
      </trkpt>
      <trkpt lat="37.408926" lon="-122.158769">
        <ele>51.8</ele>
        <time>2015-05-29T19:11:06Z</time>
      </trkpt>
      <trkpt lat="37.408898" lon="-122.158729">
        <ele>51.8</ele>
        <time>2015-05-29T19:11:08Z</time>
      </trkpt>
      <trkpt lat="37.40887" lon="-122.158692">
        <ele>51.7</ele>
        <time>2015-05-29T19:11:10Z</time>
      </trkpt>
      <trkpt lat="37.408846" lon="-122.158652">
        <ele>51.7</ele>
        <time>2015-05-29T19:11:12Z</time>
      </trkpt>
      <trkpt lat="37.40882" lon="-122.158617">
        <ele>51.8</ele>
        <time>2015-05-29T19:11:14Z</time>
      </trkpt>
      <trkpt lat="37.40879" lon="-122.158584">
        <ele>51.9</ele>
        <time>2015-05-29T19:11:16Z</time>
      </trkpt>
      <trkpt lat="37.408757" lon="-122.158546">
        <ele>52</ele>
        <time>2015-05-29T19:11:18Z</time>
      </trkpt>
      <trkpt lat="37.40873" lon="-122.158508">
        <ele>52</ele>
        <time>2015-05-29T19:11:20Z</time>
      </trkpt>
      <trkpt lat="37.408707" lon="-122.15847">
        <ele>52.1</ele>
        <time>2015-05-29T19:11:22Z</time>
      </trkpt>
      <trkpt lat="37.408682" lon="-122.158427">
        <ele>52.2</ele>
        <time>2015-05-29T19:11:24Z</time>
      </trkpt>
      <trkpt lat="37.408652" lon="-122.158372">
        <ele>52.3</ele>
        <time>2015-05-29T19:11:26Z</time>
      </trkpt>
      <trkpt lat="37.408635" lon="-122.158338">
        <ele>52.3</ele>
        <time>2015-05-29T19:11:27Z</time>
      </trkpt>
      <trkpt lat="37.408606" lon="-122.158288">
        <ele>52.4</ele>
        <time>2015-05-29T19:11:29Z</time>
      </trkpt>
      <trkpt lat="37.408575" lon="-122.158242">
        <ele>52.4</ele>
        <time>2015-05-29T19:11:31Z</time>
      </trkpt>
      <trkpt lat="37.408547" lon="-122.158198">
        <ele>52.5</ele>
        <time>2015-05-29T19:11:33Z</time>
      </trkpt>
      <trkpt lat="37.408518" lon="-122.158155">
        <ele>52.5</ele>
        <time>2015-05-29T19:11:35Z</time>
      </trkpt>
      <trkpt lat="37.40849" lon="-122.158116">
        <ele>52.6</ele>
        <time>2015-05-29T19:11:37Z</time>
      </trkpt>
      <trkpt lat="37.408458" lon="-122.15808">
        <ele>52.8</ele>
        <time>2015-05-29T19:11:39Z</time>
      </trkpt>
      <trkpt lat="37.408428" lon="-122.158041">
        <ele>52.8</ele>
        <time>2015-05-29T19:11:41Z</time>
      </trkpt>
      <trkpt lat="37.408399" lon="-122.158004">
        <ele>52.9</ele>
        <time>2015-05-29T19:11:43Z</time>
      </trkpt>
      <trkpt lat="37.408362" lon="-122.15797">
        <ele>52.9</ele>
        <time>2015-05-29T19:11:45Z</time>
      </trkpt>
      <trkpt lat="37.408333" lon="-122.157951">
        <ele>52.9</ele>
        <time>2015-05-29T19:11:47Z</time>
      </trkpt>
      <trkpt lat="37.408302" lon="-122.157933">
        <ele>53</ele>
        <time>2015-05-29T19:11:49Z</time>
      </trkpt>
      <trkpt lat="37.40827" lon="-122.157906">
        <ele>53.4</ele>
        <time>2015-05-29T19:11:51Z</time>
      </trkpt>
      <trkpt lat="37.408247" lon="-122.15787">
        <ele>53.3</ele>
        <time>2015-05-29T19:11:53Z</time>
      </trkpt>
      <trkpt lat="37.408223" lon="-122.157829">
        <ele>53.3</ele>
        <time>2015-05-29T19:11:55Z</time>
      </trkpt>
      <trkpt lat="37.408209" lon="-122.157776">
        <ele>53</ele>
        <time>2015-05-29T19:11:57Z</time>
      </trkpt>
      <trkpt lat="37.408181" lon="-122.157724">
        <ele>53</ele>
        <time>2015-05-29T19:12:00Z</time>
      </trkpt>
      <trkpt lat="37.408161" lon="-122.157705">
        <ele>53</ele>
        <time>2015-05-29T19:12:01Z</time>
      </trkpt>
      <trkpt lat="37.408122" lon="-122.157666">
        <ele>53.1</ele>
        <time>2015-05-29T19:12:03Z</time>
      </trkpt>
      <trkpt lat="37.408088" lon="-122.157623">
        <ele>53.1</ele>
        <time>2015-05-29T19:12:05Z</time>
      </trkpt>
      <trkpt lat="37.408069" lon="-122.157595">
        <ele>53</ele>
        <time>2015-05-29T19:12:06Z</time>
      </trkpt>
      <trkpt lat="37.408042" lon="-122.157566">
        <ele>53.1</ele>
        <time>2015-05-29T19:12:08Z</time>
      </trkpt>
      <trkpt lat="37.408005" lon="-122.157543">
        <ele>53.2</ele>
        <time>2015-05-29T19:12:10Z</time>
      </trkpt>
      <trkpt lat="37.407983" lon="-122.157522">
        <ele>53.3</ele>
        <time>2015-05-29T19:12:11Z</time>
      </trkpt>
      <trkpt lat="37.407964" lon="-122.157498">
        <ele>53.2</ele>
        <time>2015-05-29T19:12:12Z</time>
      </trkpt>
      <trkpt lat="37.407945" lon="-122.157472">
        <ele>53.2</ele>
        <time>2015-05-29T19:12:13Z</time>
      </trkpt>
      <trkpt lat="37.407913" lon="-122.157422">
        <ele>53.1</ele>
        <time>2015-05-29T19:12:15Z</time>
      </trkpt>
      <trkpt lat="37.407885" lon="-122.157369">
        <ele>53.1</ele>
        <time>2015-05-29T19:12:17Z</time>
      </trkpt>
      <trkpt lat="37.407859" lon="-122.15732">
        <ele>53</ele>
        <time>2015-05-29T19:12:19Z</time>
      </trkpt>
      <trkpt lat="37.407833" lon="-122.157278">
        <ele>52.9</ele>
        <time>2015-05-29T19:12:21Z</time>
      </trkpt>
      <trkpt lat="37.407805" lon="-122.157241">
        <ele>52.8</ele>
        <time>2015-05-29T19:12:23Z</time>
      </trkpt>
      <trkpt lat="37.407775" lon="-122.157203">
        <ele>52.8</ele>
        <time>2015-05-29T19:12:25Z</time>
      </trkpt>
      <trkpt lat="37.40774" lon="-122.157162">
        <ele>52.7</ele>
        <time>2015-05-29T19:12:27Z</time>
      </trkpt>
      <trkpt lat="37.407721" lon="-122.157137">
        <ele>52.6</ele>
        <time>2015-05-29T19:12:28Z</time>
      </trkpt>
      <trkpt lat="37.407703" lon="-122.15711">
        <ele>52.6</ele>
        <time>2015-05-29T19:12:29Z</time>
      </trkpt>
      <trkpt lat="37.407672" lon="-122.15706">
        <ele>52.5</ele>
        <time>2015-05-29T19:12:31Z</time>
      </trkpt>
      <trkpt lat="37.407642" lon="-122.157007">
        <ele>52.4</ele>
        <time>2015-05-29T19:12:33Z</time>
      </trkpt>
      <trkpt lat="37.407615" lon="-122.156959">
        <ele>52.3</ele>
        <time>2015-05-29T19:12:35Z</time>
      </trkpt>
      <trkpt lat="37.407584" lon="-122.156909">
        <ele>52.1</ele>
        <time>2015-05-29T19:12:37Z</time>
      </trkpt>
      <trkpt lat="37.407551" lon="-122.156864">
        <ele>52</ele>
        <time>2015-05-29T19:12:39Z</time>
      </trkpt>
      <trkpt lat="37.407522" lon="-122.156826">
        <ele>51.9</ele>
        <time>2015-05-29T19:12:41Z</time>
      </trkpt>
      <trkpt lat="37.407492" lon="-122.156785">
        <ele>51.8</ele>
        <time>2015-05-29T19:12:43Z</time>
      </trkpt>
      <trkpt lat="37.407466" lon="-122.156749">
        <ele>51.7</ele>
        <time>2015-05-29T19:12:45Z</time>
      </trkpt>
      <trkpt lat="37.407438" lon="-122.156714">
        <ele>51.6</ele>
        <time>2015-05-29T19:12:47Z</time>
      </trkpt>
      <trkpt lat="37.407413" lon="-122.156675">
        <ele>51.5</ele>
        <time>2015-05-29T19:12:49Z</time>
      </trkpt>
      <trkpt lat="37.40739" lon="-122.156635">
        <ele>51.3</ele>
        <time>2015-05-29T19:12:51Z</time>
      </trkpt>
      <trkpt lat="37.407368" lon="-122.1566">
        <ele>51.2</ele>
        <time>2015-05-29T19:12:53Z</time>
      </trkpt>
      <trkpt lat="37.407339" lon="-122.156559">
        <ele>51.1</ele>
        <time>2015-05-29T19:12:55Z</time>
      </trkpt>
      <trkpt lat="37.407313" lon="-122.156514">
        <ele>50.9</ele>
        <time>2015-05-29T19:12:57Z</time>
      </trkpt>
      <trkpt lat="37.407294" lon="-122.156466">
        <ele>50.8</ele>
        <time>2015-05-29T19:12:59Z</time>
      </trkpt>
      <trkpt lat="37.407279" lon="-122.156407">
        <ele>50.7</ele>
        <time>2015-05-29T19:13:01Z</time>
      </trkpt>
      <trkpt lat="37.407267" lon="-122.156348">
        <ele>50.7</ele>
        <time>2015-05-29T19:13:03Z</time>
      </trkpt>
      <trkpt lat="37.40725" lon="-122.156295">
        <ele>50.7</ele>
        <time>2015-05-29T19:13:05Z</time>
      </trkpt>
      <trkpt lat="37.40722" lon="-122.156249">
        <ele>50.5</ele>
        <time>2015-05-29T19:13:07Z</time>
      </trkpt>
      <trkpt lat="37.407202" lon="-122.156223">
        <ele>50.3</ele>
        <time>2015-05-29T19:13:08Z</time>
      </trkpt>
      <trkpt lat="37.407169" lon="-122.156185">
        <ele>50.1</ele>
        <time>2015-05-29T19:13:10Z</time>
      </trkpt>
      <trkpt lat="37.407142" lon="-122.156141">
        <ele>50.1</ele>
        <time>2015-05-29T19:13:12Z</time>
      </trkpt>
      <trkpt lat="37.407119" lon="-122.156089">
        <ele>50.1</ele>
        <time>2015-05-29T19:13:14Z</time>
      </trkpt>
      <trkpt lat="37.407099" lon="-122.156036">
        <ele>50.2</ele>
        <time>2015-05-29T19:13:16Z</time>
      </trkpt>
      <trkpt lat="37.407089" lon="-122.155989">
        <ele>50.2</ele>
        <time>2015-05-29T19:13:18Z</time>
      </trkpt>
      <trkpt lat="37.407084" lon="-122.15594">
        <ele>50</ele>
        <time>2015-05-29T19:13:20Z</time>
      </trkpt>
      <trkpt lat="37.407081" lon="-122.155881">
        <ele>49.9</ele>
        <time>2015-05-29T19:13:22Z</time>
      </trkpt>
      <trkpt lat="37.40709" lon="-122.155829">
        <ele>49.9</ele>
        <time>2015-05-29T19:13:24Z</time>
      </trkpt>
      <trkpt lat="37.407102" lon="-122.155778">
        <ele>49.9</ele>
        <time>2015-05-29T19:13:26Z</time>
      </trkpt>
      <trkpt lat="37.407099" lon="-122.155736">
        <ele>49.9</ele>
        <time>2015-05-29T19:13:28Z</time>
      </trkpt>
      <trkpt lat="37.407108" lon="-122.155697">
        <ele>49.9</ele>
        <time>2015-05-29T19:13:30Z</time>
      </trkpt>
      <trkpt lat="37.407141" lon="-122.155666">
        <ele>49.9</ele>
        <time>2015-05-29T19:13:32Z</time>
      </trkpt>
      <trkpt lat="37.407177" lon="-122.15563">
        <ele>49.9</ele>
        <time>2015-05-29T19:13:34Z</time>
      </trkpt>
      <trkpt lat="37.40721" lon="-122.155599">
        <ele>49.8</ele>
        <time>2015-05-29T19:13:36Z</time>
      </trkpt>
      <trkpt lat="37.407247" lon="-122.15557">
        <ele>49.9</ele>
        <time>2015-05-29T19:13:38Z</time>
      </trkpt>
      <trkpt lat="37.407284" lon="-122.15555">
        <ele>50.1</ele>
        <time>2015-05-29T19:13:40Z</time>
      </trkpt>
      <trkpt lat="37.407314" lon="-122.155537">
        <ele>50.5</ele>
        <time>2015-05-29T19:13:42Z</time>
      </trkpt>
      <trkpt lat="37.407339" lon="-122.155506">
        <ele>50.7</ele>
        <time>2015-05-29T19:13:44Z</time>
      </trkpt>
      <trkpt lat="37.407368" lon="-122.155463">
        <ele>50.7</ele>
        <time>2015-05-29T19:13:46Z</time>
      </trkpt>
      <trkpt lat="37.407408" lon="-122.155417">
        <ele>50.7</ele>
        <time>2015-05-29T19:13:48Z</time>
      </trkpt>
      <trkpt lat="37.407425" lon="-122.155389">
        <ele>50.4</ele>
        <time>2015-05-29T19:13:49Z</time>
      </trkpt>
      <trkpt lat="37.407455" lon="-122.155354">
        <ele>50.3</ele>
        <time>2015-05-29T19:13:51Z</time>
      </trkpt>
      <trkpt lat="37.407466" lon="-122.15532">
        <ele>50.4</ele>
        <time>2015-05-29T19:13:53Z</time>
      </trkpt>
      <trkpt lat="37.407492" lon="-122.15528">
        <ele>50.7</ele>
        <time>2015-05-29T19:13:55Z</time>
      </trkpt>
      <trkpt lat="37.407529" lon="-122.155251">
        <ele>51</ele>
        <time>2015-05-29T19:13:57Z</time>
      </trkpt>
      <trkpt lat="37.407568" lon="-122.155229">
        <ele>51.1</ele>
        <time>2015-05-29T19:13:59Z</time>
      </trkpt>
      <trkpt lat="37.40761" lon="-122.155217">
        <ele>51.3</ele>
        <time>2015-05-29T19:14:01Z</time>
      </trkpt>
      <trkpt lat="37.407653" lon="-122.155204">
        <ele>51.3</ele>
        <time>2015-05-29T19:14:03Z</time>
      </trkpt>
      <trkpt lat="37.40769" lon="-122.15518">
        <ele>51.2</ele>
        <time>2015-05-29T19:14:05Z</time>
      </trkpt>
      <trkpt lat="37.407728" lon="-122.155152">
        <ele>51.1</ele>
        <time>2015-05-29T19:14:07Z</time>
      </trkpt>
      <trkpt lat="37.407768" lon="-122.155124">
        <ele>51.1</ele>
        <time>2015-05-29T19:14:09Z</time>
      </trkpt>
      <trkpt lat="37.407811" lon="-122.155092">
        <ele>51.1</ele>
        <time>2015-05-29T19:14:11Z</time>
      </trkpt>
      <trkpt lat="37.407856" lon="-122.15507">
        <ele>51.1</ele>
        <time>2015-05-29T19:14:13Z</time>
      </trkpt>
      <trkpt lat="37.4079" lon="-122.155043">
        <ele>51</ele>
        <time>2015-05-29T19:14:15Z</time>
      </trkpt>
      <trkpt lat="37.407937" lon="-122.155009">
        <ele>50.9</ele>
        <time>2015-05-29T19:14:17Z</time>
      </trkpt>
      <trkpt lat="37.407972" lon="-122.154993">
        <ele>50.9</ele>
        <time>2015-05-29T19:14:19Z</time>
      </trkpt>
      <trkpt lat="37.408008" lon="-122.15498">
        <ele>50.9</ele>
        <time>2015-05-29T19:14:21Z</time>
      </trkpt>
      <trkpt lat="37.408047" lon="-122.154956">
        <ele>51</ele>
        <time>2015-05-29T19:14:23Z</time>
      </trkpt>
      <trkpt lat="37.408086" lon="-122.154933">
        <ele>50.9</ele>
        <time>2015-05-29T19:14:25Z</time>
      </trkpt>
      <trkpt lat="37.40813" lon="-122.154906">
        <ele>50.9</ele>
        <time>2015-05-29T19:14:27Z</time>
      </trkpt>
      <trkpt lat="37.408167" lon="-122.15489">
        <ele>50.8</ele>
        <time>2015-05-29T19:14:29Z</time>
      </trkpt>
      <trkpt lat="37.408205" lon="-122.154876">
        <ele>50.8</ele>
        <time>2015-05-29T19:14:31Z</time>
      </trkpt>
      <trkpt lat="37.408245" lon="-122.15485">
        <ele>50.9</ele>
        <time>2015-05-29T19:14:33Z</time>
      </trkpt>
      <trkpt lat="37.408279" lon="-122.15483">
        <ele>51</ele>
        <time>2015-05-29T19:14:35Z</time>
      </trkpt>
      <trkpt lat="37.408312" lon="-122.154805">
        <ele>51.1</ele>
        <time>2015-05-29T19:14:37Z</time>
      </trkpt>
      <trkpt lat="37.408346" lon="-122.154774">
        <ele>51.2</ele>
        <time>2015-05-29T19:14:39Z</time>
      </trkpt>
      <trkpt lat="37.408374" lon="-122.154744">
        <ele>51.3</ele>
        <time>2015-05-29T19:14:41Z</time>
      </trkpt>
      <trkpt lat="37.408405" lon="-122.154726">
        <ele>51.4</ele>
        <time>2015-05-29T19:14:43Z</time>
      </trkpt>
      <trkpt lat="37.408446" lon="-122.154706">
        <ele>51.7</ele>
        <time>2015-05-29T19:14:45Z</time>
      </trkpt>
      <trkpt lat="37.408482" lon="-122.154686">
        <ele>51.8</ele>
        <time>2015-05-29T19:14:47Z</time>
      </trkpt>
      <trkpt lat="37.40852" lon="-122.154657">
        <ele>52</ele>
        <time>2015-05-29T19:14:49Z</time>
      </trkpt>
      <trkpt lat="37.408554" lon="-122.154627">
        <ele>52.1</ele>
        <time>2015-05-29T19:14:51Z</time>
      </trkpt>
      <trkpt lat="37.408585" lon="-122.154595">
        <ele>52.2</ele>
        <time>2015-05-29T19:14:53Z</time>
      </trkpt>
      <trkpt lat="37.408618" lon="-122.15456">
        <ele>52.2</ele>
        <time>2015-05-29T19:14:55Z</time>
      </trkpt>
      <trkpt lat="37.408648" lon="-122.15452">
        <ele>52.2</ele>
        <time>2015-05-29T19:14:57Z</time>
      </trkpt>
      <trkpt lat="37.408684" lon="-122.154471">
        <ele>52.1</ele>
        <time>2015-05-29T19:14:59Z</time>
      </trkpt>
      <trkpt lat="37.408707" lon="-122.154445">
        <ele>52</ele>
        <time>2015-05-29T19:15:00Z</time>
      </trkpt>
      <trkpt lat="37.408736" lon="-122.154406">
        <ele>51.9</ele>
        <time>2015-05-29T19:15:02Z</time>
      </trkpt>
      <trkpt lat="37.408756" lon="-122.154366">
        <ele>51.8</ele>
        <time>2015-05-29T19:15:04Z</time>
      </trkpt>
      <trkpt lat="37.408774" lon="-122.15432">
        <ele>51.6</ele>
        <time>2015-05-29T19:15:06Z</time>
      </trkpt>
      <trkpt lat="37.408798" lon="-122.154288">
        <ele>51.4</ele>
        <time>2015-05-29T19:15:08Z</time>
      </trkpt>
      <trkpt lat="37.408831" lon="-122.154259">
        <ele>51.2</ele>
        <time>2015-05-29T19:15:10Z</time>
      </trkpt>
      <trkpt lat="37.408861" lon="-122.154225">
        <ele>51</ele>
        <time>2015-05-29T19:15:12Z</time>
      </trkpt>
      <trkpt lat="37.408895" lon="-122.154184">
        <ele>50.8</ele>
        <time>2015-05-29T19:15:14Z</time>
      </trkpt>
      <trkpt lat="37.408926" lon="-122.154149">
        <ele>50.6</ele>
        <time>2015-05-29T19:15:16Z</time>
      </trkpt>
      <trkpt lat="37.408956" lon="-122.154116">
        <ele>50.4</ele>
        <time>2015-05-29T19:15:18Z</time>
      </trkpt>
      <trkpt lat="37.40899" lon="-122.154086">
        <ele>50.2</ele>
        <time>2015-05-29T19:15:20Z</time>
      </trkpt>
      <trkpt lat="37.409022" lon="-122.154062">
        <ele>49.9</ele>
        <time>2015-05-29T19:15:22Z</time>
      </trkpt>
      <trkpt lat="37.409055" lon="-122.154037">
        <ele>49.7</ele>
        <time>2015-05-29T19:15:25Z</time>
      </trkpt>
      <trkpt lat="37.409085" lon="-122.154024">
        <ele>49.5</ele>
        <time>2015-05-29T19:15:26Z</time>
      </trkpt>
      <trkpt lat="37.409115" lon="-122.154006">
        <ele>49.5</ele>
        <time>2015-05-29T19:15:28Z</time>
      </trkpt>
      <trkpt lat="37.409153" lon="-122.153968">
        <ele>49.3</ele>
        <time>2015-05-29T19:15:30Z</time>
      </trkpt>
      <trkpt lat="37.409185" lon="-122.153941">
        <ele>49</ele>
        <time>2015-05-29T19:15:32Z</time>
      </trkpt>
      <trkpt lat="37.409217" lon="-122.153922">
        <ele>48.9</ele>
        <time>2015-05-29T19:15:34Z</time>
      </trkpt>
      <trkpt lat="37.409257" lon="-122.153899">
        <ele>48.6</ele>
        <time>2015-05-29T19:15:36Z</time>
      </trkpt>
      <trkpt lat="37.409288" lon="-122.153878">
        <ele>48.3</ele>
        <time>2015-05-29T19:15:39Z</time>
      </trkpt>
      <trkpt lat="37.409324" lon="-122.153857">
        <ele>48</ele>
        <time>2015-05-29T19:15:40Z</time>
      </trkpt>
      <trkpt lat="37.409357" lon="-122.153842">
        <ele>47.6</ele>
        <time>2015-05-29T19:15:42Z</time>
      </trkpt>
      <trkpt lat="37.409392" lon="-122.153822">
        <ele>47.4</ele>
        <time>2015-05-29T19:15:44Z</time>
      </trkpt>
      <trkpt lat="37.409418" lon="-122.1538">
        <ele>47.3</ele>
        <time>2015-05-29T19:15:46Z</time>
      </trkpt>
      <trkpt lat="37.409441" lon="-122.153759">
        <ele>47.1</ele>
        <time>2015-05-29T19:15:48Z</time>
      </trkpt>
      <trkpt lat="37.409463" lon="-122.153729">
        <ele>47</ele>
        <time>2015-05-29T19:15:50Z</time>
      </trkpt>
      <trkpt lat="37.409494" lon="-122.153706">
        <ele>46.8</ele>
        <time>2015-05-29T19:15:52Z</time>
      </trkpt>
      <trkpt lat="37.409523" lon="-122.153682">
        <ele>46.4</ele>
        <time>2015-05-29T19:15:54Z</time>
      </trkpt>
      <trkpt lat="37.409554" lon="-122.153645">
        <ele>46.1</ele>
        <time>2015-05-29T19:15:56Z</time>
      </trkpt>
      <trkpt lat="37.409585" lon="-122.153619">
        <ele>46.2</ele>
        <time>2015-05-29T19:15:58Z</time>
      </trkpt>
      <trkpt lat="37.409617" lon="-122.15359">
        <ele>46.1</ele>
        <time>2015-05-29T19:16:00Z</time>
      </trkpt>
      <trkpt lat="37.40965" lon="-122.153561">
        <ele>45.8</ele>
        <time>2015-05-29T19:16:02Z</time>
      </trkpt>
      <trkpt lat="37.409688" lon="-122.153536">
        <ele>45.4</ele>
        <time>2015-05-29T19:16:04Z</time>
      </trkpt>
      <trkpt lat="37.409729" lon="-122.15351">
        <ele>45.1</ele>
        <time>2015-05-29T19:16:06Z</time>
      </trkpt>
      <trkpt lat="37.409765" lon="-122.153472">
        <ele>44.9</ele>
        <time>2015-05-29T19:16:08Z</time>
      </trkpt>
      <trkpt lat="37.409783" lon="-122.153445">
        <ele>44.6</ele>
        <time>2015-05-29T19:16:09Z</time>
      </trkpt>
      <trkpt lat="37.409814" lon="-122.153402">
        <ele>44.3</ele>
        <time>2015-05-29T19:16:11Z</time>
      </trkpt>
      <trkpt lat="37.409845" lon="-122.153368">
        <ele>44</ele>
        <time>2015-05-29T19:16:13Z</time>
      </trkpt>
      <trkpt lat="37.409879" lon="-122.153332">
        <ele>43.8</ele>
        <time>2015-05-29T19:16:15Z</time>
      </trkpt>
      <trkpt lat="37.409916" lon="-122.153295">
        <ele>43.3</ele>
        <time>2015-05-29T19:16:17Z</time>
      </trkpt>
      <trkpt lat="37.409955" lon="-122.153264">
        <ele>43.1</ele>
        <time>2015-05-29T19:16:19Z</time>
      </trkpt>
      <trkpt lat="37.409994" lon="-122.153254">
        <ele>42.9</ele>
        <time>2015-05-29T19:16:21Z</time>
      </trkpt>
      <trkpt lat="37.410026" lon="-122.153258">
        <ele>42.7</ele>
        <time>2015-05-29T19:16:23Z</time>
      </trkpt>
      <trkpt lat="37.410066" lon="-122.153239">
        <ele>42.4</ele>
        <time>2015-05-29T19:16:25Z</time>
      </trkpt>
      <trkpt lat="37.410097" lon="-122.153221">
        <ele>42.3</ele>
        <time>2015-05-29T19:16:27Z</time>
      </trkpt>
      <trkpt lat="37.410132" lon="-122.153198">
        <ele>41.9</ele>
        <time>2015-05-29T19:16:29Z</time>
      </trkpt>
      <trkpt lat="37.41016" lon="-122.15318">
        <ele>41.7</ele>
        <time>2015-05-29T19:16:31Z</time>
      </trkpt>
      <trkpt lat="37.410201" lon="-122.153175">
        <ele>41.5</ele>
        <time>2015-05-29T19:16:33Z</time>
      </trkpt>
      <trkpt lat="37.410243" lon="-122.153174">
        <ele>41.4</ele>
        <time>2015-05-29T19:16:35Z</time>
      </trkpt>
      <trkpt lat="37.410287" lon="-122.153155">
        <ele>41.1</ele>
        <time>2015-05-29T19:16:37Z</time>
      </trkpt>
      <trkpt lat="37.410313" lon="-122.153144">
        <ele>40.9</ele>
        <time>2015-05-29T19:16:38Z</time>
      </trkpt>
      <trkpt lat="37.410339" lon="-122.153135">
        <ele>40.9</ele>
        <time>2015-05-29T19:16:39Z</time>
      </trkpt>
      <trkpt lat="37.410383" lon="-122.153117">
        <ele>40.6</ele>
        <time>2015-05-29T19:16:41Z</time>
      </trkpt>
      <trkpt lat="37.410424" lon="-122.153097">
        <ele>40.5</ele>
        <time>2015-05-29T19:16:43Z</time>
      </trkpt>
      <trkpt lat="37.410464" lon="-122.153067">
        <ele>40.2</ele>
        <time>2015-05-29T19:16:45Z</time>
      </trkpt>
      <trkpt lat="37.410498" lon="-122.153038">
        <ele>40</ele>
        <time>2015-05-29T19:16:47Z</time>
      </trkpt>
      <trkpt lat="37.410527" lon="-122.153008">
        <ele>39.8</ele>
        <time>2015-05-29T19:16:49Z</time>
      </trkpt>
      <trkpt lat="37.410557" lon="-122.152979">
        <ele>39.7</ele>
        <time>2015-05-29T19:16:51Z</time>
      </trkpt>
      <trkpt lat="37.410588" lon="-122.152953">
        <ele>39.6</ele>
        <time>2015-05-29T19:16:53Z</time>
      </trkpt>
      <trkpt lat="37.410618" lon="-122.152928">
        <ele>39.4</ele>
        <time>2015-05-29T19:16:55Z</time>
      </trkpt>
      <trkpt lat="37.41065" lon="-122.152902">
        <ele>39.3</ele>
        <time>2015-05-29T19:16:57Z</time>
      </trkpt>
      <trkpt lat="37.410682" lon="-122.152865">
        <ele>39.2</ele>
        <time>2015-05-29T19:16:59Z</time>
      </trkpt>
      <trkpt lat="37.410708" lon="-122.152827">
        <ele>39.1</ele>
        <time>2015-05-29T19:17:01Z</time>
      </trkpt>
      <trkpt lat="37.410737" lon="-122.152783">
        <ele>39.2</ele>
        <time>2015-05-29T19:17:03Z</time>
      </trkpt>
      <trkpt lat="37.410755" lon="-122.152743">
        <ele>39.3</ele>
        <time>2015-05-29T19:17:05Z</time>
      </trkpt>
      <trkpt lat="37.410776" lon="-122.1527">
        <ele>39.5</ele>
        <time>2015-05-29T19:17:07Z</time>
      </trkpt>
      <trkpt lat="37.410798" lon="-122.152652">
        <ele>39.6</ele>
        <time>2015-05-29T19:17:09Z</time>
      </trkpt>
      <trkpt lat="37.41081" lon="-122.152607">
        <ele>39.8</ele>
        <time>2015-05-29T19:17:11Z</time>
      </trkpt>
      <trkpt lat="37.410835" lon="-122.152562">
        <ele>40.1</ele>
        <time>2015-05-29T19:17:13Z</time>
      </trkpt>
      <trkpt lat="37.410869" lon="-122.152525">
        <ele>40.3</ele>
        <time>2015-05-29T19:17:15Z</time>
      </trkpt>
      <trkpt lat="37.410901" lon="-122.152491">
        <ele>40.4</ele>
        <time>2015-05-29T19:17:17Z</time>
      </trkpt>
      <trkpt lat="37.410942" lon="-122.152459">
        <ele>40.6</ele>
        <time>2015-05-29T19:17:19Z</time>
      </trkpt>
      <trkpt lat="37.410985" lon="-122.152428">
        <ele>40.6</ele>
        <time>2015-05-29T19:17:21Z</time>
      </trkpt>
      <trkpt lat="37.411032" lon="-122.152396">
        <ele>40.7</ele>
        <time>2015-05-29T19:17:23Z</time>
      </trkpt>
      <trkpt lat="37.411075" lon="-122.152368">
        <ele>40.5</ele>
        <time>2015-05-29T19:17:25Z</time>
      </trkpt>
      <trkpt lat="37.411116" lon="-122.152338">
        <ele>40.3</ele>
        <time>2015-05-29T19:17:27Z</time>
      </trkpt>
      <trkpt lat="37.411137" lon="-122.152315">
        <ele>40.3</ele>
        <time>2015-05-29T19:17:28Z</time>
      </trkpt>
      <trkpt lat="37.411166" lon="-122.152271">
        <ele>40.5</ele>
        <time>2015-05-29T19:17:30Z</time>
      </trkpt>
      <trkpt lat="37.411185" lon="-122.152217">
        <ele>40.4</ele>
        <time>2015-05-29T19:17:32Z</time>
      </trkpt>
      <trkpt lat="37.411213" lon="-122.152165">
        <ele>40</ele>
        <time>2015-05-29T19:17:34Z</time>
      </trkpt>
      <trkpt lat="37.411251" lon="-122.152131">
        <ele>40</ele>
        <time>2015-05-29T19:17:36Z</time>
      </trkpt>
      <trkpt lat="37.411289" lon="-122.152108">
        <ele>40.1</ele>
        <time>2015-05-29T19:17:38Z</time>
      </trkpt>
      <trkpt lat="37.411335" lon="-122.152073">
        <ele>40.1</ele>
        <time>2015-05-29T19:17:40Z</time>
      </trkpt>
      <trkpt lat="37.411378" lon="-122.152035">
        <ele>40</ele>
        <time>2015-05-29T19:17:42Z</time>
      </trkpt>
      <trkpt lat="37.411415" lon="-122.152003">
        <ele>40</ele>
        <time>2015-05-29T19:17:44Z</time>
      </trkpt>
      <trkpt lat="37.411452" lon="-122.151964">
        <ele>39.8</ele>
        <time>2015-05-29T19:17:46Z</time>
      </trkpt>
      <trkpt lat="37.41149" lon="-122.151923">
        <ele>39.8</ele>
        <time>2015-05-29T19:17:48Z</time>
      </trkpt>
      <trkpt lat="37.411527" lon="-122.15189">
        <ele>39.7</ele>
        <time>2015-05-29T19:17:50Z</time>
      </trkpt>
      <trkpt lat="37.411562" lon="-122.151864">
        <ele>39.6</ele>
        <time>2015-05-29T19:17:52Z</time>
      </trkpt>
      <trkpt lat="37.4116" lon="-122.151846">
        <ele>39.9</ele>
        <time>2015-05-29T19:17:54Z</time>
      </trkpt>
      <trkpt lat="37.411645" lon="-122.151829">
        <ele>40.1</ele>
        <time>2015-05-29T19:17:56Z</time>
      </trkpt>
      <trkpt lat="37.411689" lon="-122.151801">
        <ele>40.2</ele>
        <time>2015-05-29T19:17:58Z</time>
      </trkpt>
      <trkpt lat="37.411733" lon="-122.151766">
        <ele>40.3</ele>
        <time>2015-05-29T19:18:00Z</time>
      </trkpt>
      <trkpt lat="37.411777" lon="-122.151741">
        <ele>40.3</ele>
        <time>2015-05-29T19:18:02Z</time>
      </trkpt>
      <trkpt lat="37.411822" lon="-122.151739">
        <ele>40.4</ele>
        <time>2015-05-29T19:18:04Z</time>
      </trkpt>
      <trkpt lat="37.411853" lon="-122.151737">
        <ele>40.3</ele>
        <time>2015-05-29T19:18:05Z</time>
      </trkpt>
      <trkpt lat="37.411901" lon="-122.151734">
        <ele>40.1</ele>
        <time>2015-05-29T19:18:07Z</time>
      </trkpt>
      <trkpt lat="37.411946" lon="-122.151753">
        <ele>39.9</ele>
        <time>2015-05-29T19:18:09Z</time>
      </trkpt>
      <trkpt lat="37.411982" lon="-122.151782">
        <ele>39.9</ele>
        <time>2015-05-29T19:18:11Z</time>
      </trkpt>
      <trkpt lat="37.412024" lon="-122.151813">
        <ele>39.8</ele>
        <time>2015-05-29T19:18:13Z</time>
      </trkpt>
      <trkpt lat="37.412065" lon="-122.151835">
        <ele>39.5</ele>
        <time>2015-05-29T19:18:15Z</time>
      </trkpt>
      <trkpt lat="37.412106" lon="-122.151851">
        <ele>39.4</ele>
        <time>2015-05-29T19:18:17Z</time>
      </trkpt>
      <trkpt lat="37.412134" lon="-122.151857">
        <ele>39.2</ele>
        <time>2015-05-29T19:18:18Z</time>
      </trkpt>
      <trkpt lat="37.412182" lon="-122.151875">
        <ele>39.1</ele>
        <time>2015-05-29T19:18:20Z</time>
      </trkpt>
      <trkpt lat="37.412223" lon="-122.151908">
        <ele>38.9</ele>
        <time>2015-05-29T19:18:22Z</time>
      </trkpt>
      <trkpt lat="37.412241" lon="-122.151947">
        <ele>39</ele>
        <time>2015-05-29T19:18:24Z</time>
      </trkpt>
      <trkpt lat="37.412256" lon="-122.151989">
        <ele>39</ele>
        <time>2015-05-29T19:18:26Z</time>
      </trkpt>
      <trkpt lat="37.412279" lon="-122.152044">
        <ele>39</ele>
        <time>2015-05-29T19:18:28Z</time>
      </trkpt>
      <trkpt lat="37.412288" lon="-122.152095">
        <ele>39.1</ele>
        <time>2015-05-29T19:18:30Z</time>
      </trkpt>
      <trkpt lat="37.412293" lon="-122.152146">
        <ele>39.1</ele>
        <time>2015-05-29T19:18:33Z</time>
      </trkpt>
      <trkpt lat="37.412307" lon="-122.15218">
        <ele>39.3</ele>
        <time>2015-05-29T19:18:35Z</time>
      </trkpt>
      <trkpt lat="37.412318" lon="-122.152211">
        <ele>39.1</ele>
        <time>2015-05-29T19:18:37Z</time>
      </trkpt>
      <trkpt lat="37.41234" lon="-122.152256">
        <ele>39.2</ele>
        <time>2015-05-29T19:18:39Z</time>
      </trkpt>
      <trkpt lat="37.412366" lon="-122.152299">
        <ele>39.2</ele>
        <time>2015-05-29T19:18:41Z</time>
      </trkpt>
      <trkpt lat="37.412392" lon="-122.152342">
        <ele>39.2</ele>
        <time>2015-05-29T19:18:43Z</time>
      </trkpt>
      <trkpt lat="37.412416" lon="-122.152382">
        <ele>39.2</ele>
        <time>2015-05-29T19:18:45Z</time>
      </trkpt>
      <trkpt lat="37.412442" lon="-122.152424">
        <ele>39.2</ele>
        <time>2015-05-29T19:18:47Z</time>
      </trkpt>
      <trkpt lat="37.41247" lon="-122.152462">
        <ele>39.4</ele>
        <time>2015-05-29T19:18:49Z</time>
      </trkpt>
      <trkpt lat="37.412494" lon="-122.152501">
        <ele>39.5</ele>
        <time>2015-05-29T19:18:51Z</time>
      </trkpt>
      <trkpt lat="37.412513" lon="-122.15253">
        <ele>39.5</ele>
        <time>2015-05-29T19:18:53Z</time>
      </trkpt>
      <trkpt lat="37.412549" lon="-122.152578">
        <ele>39.4</ele>
        <time>2015-05-29T19:18:55Z</time>
      </trkpt>
      <trkpt lat="37.412579" lon="-122.152611">
        <ele>39.5</ele>
        <time>2015-05-29T19:18:57Z</time>
      </trkpt>
      <trkpt lat="37.412608" lon="-122.152647">
        <ele>39.5</ele>
        <time>2015-05-29T19:18:59Z</time>
      </trkpt>
      <trkpt lat="37.412633" lon="-122.15268">
        <ele>39.7</ele>
        <time>2015-05-29T19:19:01Z</time>
      </trkpt>
      <trkpt lat="37.412647" lon="-122.152714">
        <ele>39.7</ele>
        <time>2015-05-29T19:19:03Z</time>
      </trkpt>
      <trkpt lat="37.412648" lon="-122.152752">
        <ele>39.8</ele>
        <time>2015-05-29T19:19:05Z</time>
      </trkpt>
      <trkpt lat="37.412678" lon="-122.152805">
        <ele>39.9</ele>
        <time>2015-05-29T19:19:07Z</time>
      </trkpt>
      <trkpt lat="37.412701" lon="-122.152829">
        <ele>39.9</ele>
        <time>2015-05-29T19:19:08Z</time>
      </trkpt>
      <trkpt lat="37.412725" lon="-122.15285">
        <ele>40</ele>
        <time>2015-05-29T19:19:09Z</time>
      </trkpt>
      <trkpt lat="37.412746" lon="-122.152872">
        <ele>40</ele>
        <time>2015-05-29T19:19:10Z</time>
      </trkpt>
      <trkpt lat="37.412768" lon="-122.152894">
        <ele>39.9</ele>
        <time>2015-05-29T19:19:11Z</time>
      </trkpt>
      <trkpt lat="37.412812" lon="-122.152933">
        <ele>40</ele>
        <time>2015-05-29T19:19:13Z</time>
      </trkpt>
      <trkpt lat="37.412845" lon="-122.152965">
        <ele>40</ele>
        <time>2015-05-29T19:19:15Z</time>
      </trkpt>
      <trkpt lat="37.412877" lon="-122.152997">
        <ele>40</ele>
        <time>2015-05-29T19:19:17Z</time>
      </trkpt>
      <trkpt lat="37.412904" lon="-122.153037">
        <ele>40.1</ele>
        <time>2015-05-29T19:19:19Z</time>
      </trkpt>
      <trkpt lat="37.412933" lon="-122.153072">
        <ele>40.1</ele>
        <time>2015-05-29T19:19:21Z</time>
      </trkpt>
      <trkpt lat="37.412967" lon="-122.153115">
        <ele>40.2</ele>
        <time>2015-05-29T19:19:23Z</time>
      </trkpt>
      <trkpt lat="37.41299" lon="-122.153156">
        <ele>40.3</ele>
        <time>2015-05-29T19:19:25Z</time>
      </trkpt>
      <trkpt lat="37.413019" lon="-122.153207">
        <ele>40.4</ele>
        <time>2015-05-29T19:19:27Z</time>
      </trkpt>
      <trkpt lat="37.413053" lon="-122.153245">
        <ele>40.5</ele>
        <time>2015-05-29T19:19:29Z</time>
      </trkpt>
      <trkpt lat="37.413085" lon="-122.153274">
        <ele>40.6</ele>
        <time>2015-05-29T19:19:31Z</time>
      </trkpt>
      <trkpt lat="37.413106" lon="-122.153301">
        <ele>40.6</ele>
        <time>2015-05-29T19:19:33Z</time>
      </trkpt>
      <trkpt lat="37.413124" lon="-122.153328">
        <ele>40.7</ele>
        <time>2015-05-29T19:19:35Z</time>
      </trkpt>
      <trkpt lat="37.413147" lon="-122.15336">
        <ele>40.8</ele>
        <time>2015-05-29T19:19:37Z</time>
      </trkpt>
      <trkpt lat="37.413177" lon="-122.153394">
        <ele>40.9</ele>
        <time>2015-05-29T19:19:39Z</time>
      </trkpt>
      <trkpt lat="37.4132" lon="-122.153414">
        <ele>40.8</ele>
        <time>2015-05-29T19:19:40Z</time>
      </trkpt>
      <trkpt lat="37.413224" lon="-122.153435">
        <ele>40.9</ele>
        <time>2015-05-29T19:19:41Z</time>
      </trkpt>
      <trkpt lat="37.413259" lon="-122.153466">
        <ele>40.9</ele>
        <time>2015-05-29T19:19:43Z</time>
      </trkpt>
      <trkpt lat="37.41328" lon="-122.153489">
        <ele>40.8</ele>
        <time>2015-05-29T19:19:45Z</time>
      </trkpt>
      <trkpt lat="37.413315" lon="-122.153521">
        <ele>40.6</ele>
        <time>2015-05-29T19:19:47Z</time>
      </trkpt>
      <trkpt lat="37.413358" lon="-122.153556">
        <ele>40.7</ele>
        <time>2015-05-29T19:19:49Z</time>
      </trkpt>
      <trkpt lat="37.413399" lon="-122.153586">
        <ele>40.8</ele>
        <time>2015-05-29T19:19:51Z</time>
      </trkpt>
      <trkpt lat="37.413439" lon="-122.153621">
        <ele>40.7</ele>
        <time>2015-05-29T19:19:53Z</time>
      </trkpt>
      <trkpt lat="37.413476" lon="-122.153657">
        <ele>40.4</ele>
        <time>2015-05-29T19:19:55Z</time>
      </trkpt>
      <trkpt lat="37.413515" lon="-122.15368">
        <ele>40.6</ele>
        <time>2015-05-29T19:19:57Z</time>
      </trkpt>
      <trkpt lat="37.41356" lon="-122.153672">
        <ele>40.8</ele>
        <time>2015-05-29T19:19:59Z</time>
      </trkpt>
      <trkpt lat="37.413602" lon="-122.153648">
        <ele>40.9</ele>
        <time>2015-05-29T19:20:01Z</time>
      </trkpt>
      <trkpt lat="37.413646" lon="-122.153626">
        <ele>40.9</ele>
        <time>2015-05-29T19:20:03Z</time>
      </trkpt>
      <trkpt lat="37.41369" lon="-122.153619">
        <ele>41.1</ele>
        <time>2015-05-29T19:20:05Z</time>
      </trkpt>
      <trkpt lat="37.41373" lon="-122.153624">
        <ele>41</ele>
        <time>2015-05-29T19:20:07Z</time>
      </trkpt>
      <trkpt lat="37.413773" lon="-122.15364">
        <ele>41.1</ele>
        <time>2015-05-29T19:20:09Z</time>
      </trkpt>
      <trkpt lat="37.41381" lon="-122.153663">
        <ele>41.1</ele>
        <time>2015-05-29T19:20:11Z</time>
      </trkpt>
      <trkpt lat="37.413855" lon="-122.153691">
        <ele>41</ele>
        <time>2015-05-29T19:20:13Z</time>
      </trkpt>
      <trkpt lat="37.413895" lon="-122.153711">
        <ele>41</ele>
        <time>2015-05-29T19:20:15Z</time>
      </trkpt>
      <trkpt lat="37.413933" lon="-122.153722">
        <ele>41</ele>
        <time>2015-05-29T19:20:17Z</time>
      </trkpt>
      <trkpt lat="37.413968" lon="-122.15373">
        <ele>40.9</ele>
        <time>2015-05-29T19:20:19Z</time>
      </trkpt>
      <trkpt lat="37.414003" lon="-122.153744">
        <ele>40.9</ele>
        <time>2015-05-29T19:20:21Z</time>
      </trkpt>
      <trkpt lat="37.414043" lon="-122.153766">
        <ele>40.9</ele>
        <time>2015-05-29T19:20:23Z</time>
      </trkpt>
      <trkpt lat="37.414078" lon="-122.153779">
        <ele>40.9</ele>
        <time>2015-05-29T19:20:25Z</time>
      </trkpt>
      <trkpt lat="37.41411" lon="-122.153792">
        <ele>40.8</ele>
        <time>2015-05-29T19:20:27Z</time>
      </trkpt>
      <trkpt lat="37.41415" lon="-122.153812">
        <ele>40.8</ele>
        <time>2015-05-29T19:20:29Z</time>
      </trkpt>
      <trkpt lat="37.414196" lon="-122.153818">
        <ele>40.7</ele>
        <time>2015-05-29T19:20:31Z</time>
      </trkpt>
      <trkpt lat="37.414224" lon="-122.15381">
        <ele>40.7</ele>
        <time>2015-05-29T19:20:32Z</time>
      </trkpt>
      <trkpt lat="37.414249" lon="-122.153797">
        <ele>40.6</ele>
        <time>2015-05-29T19:20:33Z</time>
      </trkpt>
      <trkpt lat="37.414269" lon="-122.153754">
        <ele>40.6</ele>
        <time>2015-05-29T19:20:35Z</time>
      </trkpt>
      <trkpt lat="37.414277" lon="-122.153704">
        <ele>41.5</ele>
        <time>2015-05-29T19:20:37Z</time>
      </trkpt>
      <trkpt lat="37.414298" lon="-122.153669">
        <ele>41.9</ele>
        <time>2015-05-29T19:20:39Z</time>
      </trkpt>
      <trkpt lat="37.414327" lon="-122.15363">
        <ele>42.4</ele>
        <time>2015-05-29T19:20:41Z</time>
      </trkpt>
      <trkpt lat="37.414356" lon="-122.153587">
        <ele>42.9</ele>
        <time>2015-05-29T19:20:43Z</time>
      </trkpt>
      <trkpt lat="37.414387" lon="-122.153548">
        <ele>43.3</ele>
        <time>2015-05-29T19:20:45Z</time>
      </trkpt>
      <trkpt lat="37.414422" lon="-122.153514">
        <ele>43.8</ele>
        <time>2015-05-29T19:20:47Z</time>
      </trkpt>
      <trkpt lat="37.414465" lon="-122.153478">
        <ele>44.6</ele>
        <time>2015-05-29T19:20:49Z</time>
      </trkpt>
      <trkpt lat="37.414508" lon="-122.15346">
        <ele>44.4</ele>
        <time>2015-05-29T19:20:51Z</time>
      </trkpt>
      <trkpt lat="37.414554" lon="-122.153471">
        <ele>44.3</ele>
        <time>2015-05-29T19:20:53Z</time>
      </trkpt>
      <trkpt lat="37.414593" lon="-122.1535">
        <ele>44</ele>
        <time>2015-05-29T19:20:55Z</time>
      </trkpt>
      <trkpt lat="37.414634" lon="-122.153535">
        <ele>43.7</ele>
        <time>2015-05-29T19:20:57Z</time>
      </trkpt>
      <trkpt lat="37.414676" lon="-122.153558">
        <ele>43.5</ele>
        <time>2015-05-29T19:20:59Z</time>
      </trkpt>
      <trkpt lat="37.414715" lon="-122.153574">
        <ele>43.3</ele>
        <time>2015-05-29T19:21:01Z</time>
      </trkpt>
      <trkpt lat="37.414755" lon="-122.153585">
        <ele>43</ele>
        <time>2015-05-29T19:21:03Z</time>
      </trkpt>
      <trkpt lat="37.414798" lon="-122.153585">
        <ele>43</ele>
        <time>2015-05-29T19:21:05Z</time>
      </trkpt>
      <trkpt lat="37.414835" lon="-122.153584">
        <ele>42.9</ele>
        <time>2015-05-29T19:21:07Z</time>
      </trkpt>
      <trkpt lat="37.414865" lon="-122.153587">
        <ele>42.7</ele>
        <time>2015-05-29T19:21:10Z</time>
      </trkpt>
      <trkpt lat="37.414906" lon="-122.153579">
        <ele>42.5</ele>
        <time>2015-05-29T19:21:12Z</time>
      </trkpt>
      <trkpt lat="37.414955" lon="-122.153567">
        <ele>42.3</ele>
        <time>2015-05-29T19:21:13Z</time>
      </trkpt>
      <trkpt lat="37.415007" lon="-122.153557">
        <ele>42.3</ele>
        <time>2015-05-29T19:21:16Z</time>
      </trkpt>
      <trkpt lat="37.415048" lon="-122.153561">
        <ele>42.1</ele>
        <time>2015-05-29T19:21:17Z</time>
      </trkpt>
      <trkpt lat="37.415086" lon="-122.153566">
        <ele>41.9</ele>
        <time>2015-05-29T19:21:19Z</time>
      </trkpt>
      <trkpt lat="37.415148" lon="-122.153572">
        <ele>41.6</ele>
        <time>2015-05-29T19:21:22Z</time>
      </trkpt>
      <trkpt lat="37.415168" lon="-122.153576">
        <ele>41.4</ele>
        <time>2015-05-29T19:21:23Z</time>
      </trkpt>
      <trkpt lat="37.41522" lon="-122.153581">
        <ele>41.1</ele>
        <time>2015-05-29T19:21:25Z</time>
      </trkpt>
      <trkpt lat="37.415266" lon="-122.153591">
        <ele>40.8</ele>
        <time>2015-05-29T19:21:27Z</time>
      </trkpt>
      <trkpt lat="37.415318" lon="-122.153599">
        <ele>40.8</ele>
        <time>2015-05-29T19:21:29Z</time>
      </trkpt>
      <trkpt lat="37.41537" lon="-122.153613">
        <ele>40.9</ele>
        <time>2015-05-29T19:21:31Z</time>
      </trkpt>
      <trkpt lat="37.415396" lon="-122.153626">
        <ele>40.8</ele>
        <time>2015-05-29T19:21:33Z</time>
      </trkpt>
      <trkpt lat="37.415439" lon="-122.153647">
        <ele>40.5</ele>
        <time>2015-05-29T19:21:34Z</time>
      </trkpt>
      <trkpt lat="37.415483" lon="-122.153663">
        <ele>40.3</ele>
        <time>2015-05-29T19:21:36Z</time>
      </trkpt>
      <trkpt lat="37.415529" lon="-122.153688">
        <ele>39.7</ele>
        <time>2015-05-29T19:21:38Z</time>
      </trkpt>
      <trkpt lat="37.415567" lon="-122.153687">
        <ele>39.5</ele>
        <time>2015-05-29T19:21:40Z</time>
      </trkpt>
      <trkpt lat="37.415615" lon="-122.153681">
        <ele>39.8</ele>
        <time>2015-05-29T19:21:43Z</time>
      </trkpt>
      <trkpt lat="37.41565" lon="-122.153683">
        <ele>40</ele>
        <time>2015-05-29T19:21:45Z</time>
      </trkpt>
      <trkpt lat="37.415687" lon="-122.153692">
        <ele>40.1</ele>
        <time>2015-05-29T19:21:47Z</time>
      </trkpt>
      <trkpt lat="37.415723" lon="-122.153697">
        <ele>40.2</ele>
        <time>2015-05-29T19:21:49Z</time>
      </trkpt>
      <trkpt lat="37.415767" lon="-122.15371">
        <ele>40.3</ele>
        <time>2015-05-29T19:21:52Z</time>
      </trkpt>
      <trkpt lat="37.415798" lon="-122.153728">
        <ele>40</ele>
        <time>2015-05-29T19:21:54Z</time>
      </trkpt>
      <trkpt lat="37.415833" lon="-122.153744">
        <ele>39.9</ele>
        <time>2015-05-29T19:21:56Z</time>
      </trkpt>
      <trkpt lat="37.415868" lon="-122.153752">
        <ele>40</ele>
        <time>2015-05-29T19:21:58Z</time>
      </trkpt>
      <trkpt lat="37.415912" lon="-122.153752">
        <ele>40</ele>
        <time>2015-05-29T19:22:00Z</time>
      </trkpt>
      <trkpt lat="37.415959" lon="-122.153761">
        <ele>39.5</ele>
        <time>2015-05-29T19:22:03Z</time>
      </trkpt>
      <trkpt lat="37.416001" lon="-122.153786">
        <ele>39</ele>
        <time>2015-05-29T19:22:04Z</time>
      </trkpt>
      <trkpt lat="37.416041" lon="-122.153811">
        <ele>38.7</ele>
        <time>2015-05-29T19:22:06Z</time>
      </trkpt>
      <trkpt lat="37.416081" lon="-122.153836">
        <ele>38.4</ele>
        <time>2015-05-29T19:22:08Z</time>
      </trkpt>
      <trkpt lat="37.416118" lon="-122.153859">
        <ele>38</ele>
        <time>2015-05-29T19:22:10Z</time>
      </trkpt>
      <trkpt lat="37.416153" lon="-122.153891">
        <ele>38</ele>
        <time>2015-05-29T19:22:12Z</time>
      </trkpt>
      <trkpt lat="37.416184" lon="-122.153932">
        <ele>37.9</ele>
        <time>2015-05-29T19:22:14Z</time>
      </trkpt>
      <trkpt lat="37.416212" lon="-122.153973">
        <ele>37.8</ele>
        <time>2015-05-29T19:22:16Z</time>
      </trkpt>
      <trkpt lat="37.416239" lon="-122.154017">
        <ele>37.7</ele>
        <time>2015-05-29T19:22:18Z</time>
      </trkpt>
      <trkpt lat="37.41626" lon="-122.154063">
        <ele>37.7</ele>
        <time>2015-05-29T19:22:20Z</time>
      </trkpt>
      <trkpt lat="37.416283" lon="-122.154105">
        <ele>37.6</ele>
        <time>2015-05-29T19:22:22Z</time>
      </trkpt>
      <trkpt lat="37.416309" lon="-122.154145">
        <ele>37.5</ele>
        <time>2015-05-29T19:22:24Z</time>
      </trkpt>
      <trkpt lat="37.416331" lon="-122.154175">
        <ele>37.3</ele>
        <time>2015-05-29T19:22:26Z</time>
      </trkpt>
      <trkpt lat="37.416354" lon="-122.154209">
        <ele>37.1</ele>
        <time>2015-05-29T19:22:28Z</time>
      </trkpt>
      <trkpt lat="37.416389" lon="-122.154242">
        <ele>36.7</ele>
        <time>2015-05-29T19:22:31Z</time>
      </trkpt>
      <trkpt lat="37.416409" lon="-122.154266">
        <ele>36.4</ele>
        <time>2015-05-29T19:22:32Z</time>
      </trkpt>
      <trkpt lat="37.416432" lon="-122.154312">
        <ele>36.2</ele>
        <time>2015-05-29T19:22:34Z</time>
      </trkpt>
      <trkpt lat="37.416453" lon="-122.154342">
        <ele>35.8</ele>
        <time>2015-05-29T19:22:36Z</time>
      </trkpt>
      <trkpt lat="37.416473" lon="-122.154385">
        <ele>35.8</ele>
        <time>2015-05-29T19:22:38Z</time>
      </trkpt>
      <trkpt lat="37.416489" lon="-122.154425">
        <ele>35.9</ele>
        <time>2015-05-29T19:22:40Z</time>
      </trkpt>
      <trkpt lat="37.416518" lon="-122.154479">
        <ele>35.6</ele>
        <time>2015-05-29T19:22:42Z</time>
      </trkpt>
      <trkpt lat="37.416544" lon="-122.154529">
        <ele>35.3</ele>
        <time>2015-05-29T19:22:44Z</time>
      </trkpt>
      <trkpt lat="37.416559" lon="-122.154571">
        <ele>35.5</ele>
        <time>2015-05-29T19:22:46Z</time>
      </trkpt>
      <trkpt lat="37.416571" lon="-122.154615">
        <ele>35.3</ele>
        <time>2015-05-29T19:22:48Z</time>
      </trkpt>
      <trkpt lat="37.4166" lon="-122.154668">
        <ele>35.1</ele>
        <time>2015-05-29T19:22:50Z</time>
      </trkpt>
      <trkpt lat="37.41662" lon="-122.154705">
        <ele>34.9</ele>
        <time>2015-05-29T19:22:52Z</time>
      </trkpt>
      <trkpt lat="37.416627" lon="-122.154743">
        <ele>34.8</ele>
        <time>2015-05-29T19:22:54Z</time>
      </trkpt>
      <trkpt lat="37.416628" lon="-122.154784">
        <ele>34.3</ele>
        <time>2015-05-29T19:22:56Z</time>
      </trkpt>
      <trkpt lat="37.416626" lon="-122.154831">
        <ele>33.7</ele>
        <time>2015-05-29T19:22:59Z</time>
      </trkpt>
      <trkpt lat="37.416645" lon="-122.154881">
        <ele>33.4</ele>
        <time>2015-05-29T19:23:02Z</time>
      </trkpt>
      <trkpt lat="37.416682" lon="-122.154923">
        <ele>33.1</ele>
        <time>2015-05-29T19:23:04Z</time>
      </trkpt>
      <trkpt lat="37.416706" lon="-122.154949">
        <ele>33.3</ele>
        <time>2015-05-29T19:23:05Z</time>
      </trkpt>
      <trkpt lat="37.416732" lon="-122.154992">
        <ele>33</ele>
        <time>2015-05-29T19:23:07Z</time>
      </trkpt>
      <trkpt lat="37.416753" lon="-122.155043">
        <ele>32.6</ele>
        <time>2015-05-29T19:23:09Z</time>
      </trkpt>
      <trkpt lat="37.416775" lon="-122.155093">
        <ele>32.3</ele>
        <time>2015-05-29T19:23:11Z</time>
      </trkpt>
      <trkpt lat="37.416797" lon="-122.155138">
        <ele>32</ele>
        <time>2015-05-29T19:23:13Z</time>
      </trkpt>
      <trkpt lat="37.416808" lon="-122.15517">
        <ele>31.9</ele>
        <time>2015-05-29T19:23:15Z</time>
      </trkpt>
      <trkpt lat="37.416812" lon="-122.155209">
        <ele>31.4</ele>
        <time>2015-05-29T19:23:17Z</time>
      </trkpt>
      <trkpt lat="37.416823" lon="-122.155253">
        <ele>31</ele>
        <time>2015-05-29T19:23:19Z</time>
      </trkpt>
      <trkpt lat="37.416846" lon="-122.155305">
        <ele>30.8</ele>
        <time>2015-05-29T19:23:21Z</time>
      </trkpt>
      <trkpt lat="37.416873" lon="-122.155351">
        <ele>30.6</ele>
        <time>2015-05-29T19:23:23Z</time>
      </trkpt>
      <trkpt lat="37.416903" lon="-122.155408">
        <ele>30.3</ele>
        <time>2015-05-29T19:23:25Z</time>
      </trkpt>
      <trkpt lat="37.416918" lon="-122.15544">
        <ele>30.2</ele>
        <time>2015-05-29T19:23:26Z</time>
      </trkpt>
      <trkpt lat="37.416927" lon="-122.155491">
        <ele>29.8</ele>
        <time>2015-05-29T19:23:28Z</time>
      </trkpt>
      <trkpt lat="37.416935" lon="-122.155538">
        <ele>29.5</ele>
        <time>2015-05-29T19:23:30Z</time>
      </trkpt>
      <trkpt lat="37.416947" lon="-122.155583">
        <ele>29.3</ele>
        <time>2015-05-29T19:23:33Z</time>
      </trkpt>
      <trkpt lat="37.41697" lon="-122.155636">
        <ele>29.2</ele>
        <time>2015-05-29T19:23:35Z</time>
      </trkpt>
      <trkpt lat="37.416989" lon="-122.155681">
        <ele>28.9</ele>
        <time>2015-05-29T19:23:37Z</time>
      </trkpt>
      <trkpt lat="37.417003" lon="-122.155724">
        <ele>28.9</ele>
        <time>2015-05-29T19:23:39Z</time>
      </trkpt>
      <trkpt lat="37.417026" lon="-122.155782">
        <ele>28.8</ele>
        <time>2015-05-29T19:23:41Z</time>
      </trkpt>
      <trkpt lat="37.417041" lon="-122.15581">
        <ele>28.9</ele>
        <time>2015-05-29T19:23:42Z</time>
      </trkpt>
      <trkpt lat="37.41706" lon="-122.155854">
        <ele>28.9</ele>
        <time>2015-05-29T19:23:44Z</time>
      </trkpt>
      <trkpt lat="37.417079" lon="-122.155902">
        <ele>29.1</ele>
        <time>2015-05-29T19:23:46Z</time>
      </trkpt>
      <trkpt lat="37.417095" lon="-122.155942">
        <ele>29</ele>
        <time>2015-05-29T19:23:48Z</time>
      </trkpt>
      <trkpt lat="37.417112" lon="-122.155994">
        <ele>29.2</ele>
        <time>2015-05-29T19:23:50Z</time>
      </trkpt>
      <trkpt lat="37.41714" lon="-122.156043">
        <ele>29.2</ele>
        <time>2015-05-29T19:23:52Z</time>
      </trkpt>
      <trkpt lat="37.417157" lon="-122.156081">
        <ele>29.1</ele>
        <time>2015-05-29T19:23:54Z</time>
      </trkpt>
      <trkpt lat="37.417155" lon="-122.156125">
        <ele>28.9</ele>
        <time>2015-05-29T19:23:56Z</time>
      </trkpt>
      <trkpt lat="37.417147" lon="-122.156177">
        <ele>28.3</ele>
        <time>2015-05-29T19:23:58Z</time>
      </trkpt>
      <trkpt lat="37.417148" lon="-122.156237">
        <ele>28.2</ele>
        <time>2015-05-29T19:24:00Z</time>
      </trkpt>
      <trkpt lat="37.417167" lon="-122.156292">
        <ele>28.2</ele>
        <time>2015-05-29T19:24:02Z</time>
      </trkpt>
      <trkpt lat="37.417175" lon="-122.156329">
        <ele>28</ele>
        <time>2015-05-29T19:24:04Z</time>
      </trkpt>
      <trkpt lat="37.417179" lon="-122.156373">
        <ele>28</ele>
        <time>2015-05-29T19:24:06Z</time>
      </trkpt>
      <trkpt lat="37.417187" lon="-122.156408">
        <ele>28.1</ele>
        <time>2015-05-29T19:24:08Z</time>
      </trkpt>
      <trkpt lat="37.417217" lon="-122.156456">
        <ele>28.2</ele>
        <time>2015-05-29T19:24:10Z</time>
      </trkpt>
      <trkpt lat="37.417243" lon="-122.156508">
        <ele>28.3</ele>
        <time>2015-05-29T19:24:12Z</time>
      </trkpt>
      <trkpt lat="37.417251" lon="-122.156566">
        <ele>28.3</ele>
        <time>2015-05-29T19:24:14Z</time>
      </trkpt>
      <trkpt lat="37.417247" lon="-122.156625">
        <ele>28.1</ele>
        <time>2015-05-29T19:24:16Z</time>
      </trkpt>
      <trkpt lat="37.41723" lon="-122.156681">
        <ele>27.8</ele>
        <time>2015-05-29T19:24:18Z</time>
      </trkpt>
      <trkpt lat="37.417217" lon="-122.15674">
        <ele>27.8</ele>
        <time>2015-05-29T19:24:20Z</time>
      </trkpt>
      <trkpt lat="37.417202" lon="-122.156795">
        <ele>27.9</ele>
        <time>2015-05-29T19:24:22Z</time>
      </trkpt>
      <trkpt lat="37.417179" lon="-122.156838">
        <ele>27.9</ele>
        <time>2015-05-29T19:24:24Z</time>
      </trkpt>
      <trkpt lat="37.417176" lon="-122.156886">
        <ele>27.9</ele>
        <time>2015-05-29T19:24:26Z</time>
      </trkpt>
      <trkpt lat="37.417184" lon="-122.15694">
        <ele>27.9</ele>
        <time>2015-05-29T19:24:28Z</time>
      </trkpt>
      <trkpt lat="37.417195" lon="-122.156991">
        <ele>27.9</ele>
        <time>2015-05-29T19:24:30Z</time>
      </trkpt>
      <trkpt lat="37.417218" lon="-122.157046">
        <ele>27.9</ele>
        <time>2015-05-29T19:24:32Z</time>
      </trkpt>
      <trkpt lat="37.417244" lon="-122.157103">
        <ele>27.9</ele>
        <time>2015-05-29T19:24:34Z</time>
      </trkpt>
      <trkpt lat="37.417256" lon="-122.157133">
        <ele>27.9</ele>
        <time>2015-05-29T19:24:36Z</time>
      </trkpt>
      <trkpt lat="37.417277" lon="-122.157189">
        <ele>27.8</ele>
        <time>2015-05-29T19:24:37Z</time>
      </trkpt>
      <trkpt lat="37.417296" lon="-122.157248">
        <ele>27.8</ele>
        <time>2015-05-29T19:24:39Z</time>
      </trkpt>
      <trkpt lat="37.417318" lon="-122.157303">
        <ele>27.8</ele>
        <time>2015-05-29T19:24:41Z</time>
      </trkpt>
      <trkpt lat="37.417341" lon="-122.15736">
        <ele>27.8</ele>
        <time>2015-05-29T19:24:43Z</time>
      </trkpt>
      <trkpt lat="37.417362" lon="-122.157409">
        <ele>27.8</ele>
        <time>2015-05-29T19:24:45Z</time>
      </trkpt>
      <trkpt lat="37.417379" lon="-122.157455">
        <ele>27.8</ele>
        <time>2015-05-29T19:24:47Z</time>
      </trkpt>
      <trkpt lat="37.4174" lon="-122.157489">
        <ele>27.8</ele>
        <time>2015-05-29T19:24:49Z</time>
      </trkpt>
      <trkpt lat="37.417437" lon="-122.157494">
        <ele>27.7</ele>
        <time>2015-05-29T19:24:51Z</time>
      </trkpt>
      <trkpt lat="37.417479" lon="-122.157465">
        <ele>27.5</ele>
        <time>2015-05-29T19:24:53Z</time>
      </trkpt>
      <trkpt lat="37.417508" lon="-122.157418">
        <ele>27.3</ele>
        <time>2015-05-29T19:24:55Z</time>
      </trkpt>
      <trkpt lat="37.417541" lon="-122.157379">
        <ele>27.4</ele>
        <time>2015-05-29T19:24:57Z</time>
      </trkpt>
      <trkpt lat="37.417581" lon="-122.157356">
        <ele>27.3</ele>
        <time>2015-05-29T19:24:59Z</time>
      </trkpt>
      <trkpt lat="37.417618" lon="-122.157341">
        <ele>27.2</ele>
        <time>2015-05-29T19:25:01Z</time>
      </trkpt>
      <trkpt lat="37.417652" lon="-122.157331">
        <ele>27.1</ele>
        <time>2015-05-29T19:25:03Z</time>
      </trkpt>
      <trkpt lat="37.417691" lon="-122.157315">
        <ele>27</ele>
        <time>2015-05-29T19:25:05Z</time>
      </trkpt>
      <trkpt lat="37.417732" lon="-122.157297">
        <ele>26.9</ele>
        <time>2015-05-29T19:25:07Z</time>
      </trkpt>
      <trkpt lat="37.417775" lon="-122.157286">
        <ele>26.7</ele>
        <time>2015-05-29T19:25:09Z</time>
      </trkpt>
      <trkpt lat="37.41782" lon="-122.157273">
        <ele>26.6</ele>
        <time>2015-05-29T19:25:11Z</time>
      </trkpt>
      <trkpt lat="37.417865" lon="-122.157264">
        <ele>26.4</ele>
        <time>2015-05-29T19:25:13Z</time>
      </trkpt>
      <trkpt lat="37.417904" lon="-122.157267">
        <ele>26.3</ele>
        <time>2015-05-29T19:25:15Z</time>
      </trkpt>
      <trkpt lat="37.417942" lon="-122.157289">
        <ele>26.2</ele>
        <time>2015-05-29T19:25:17Z</time>
      </trkpt>
      <trkpt lat="37.41797" lon="-122.157312">
        <ele>26.3</ele>
        <time>2015-05-29T19:25:19Z</time>
      </trkpt>
      <trkpt lat="37.417996" lon="-122.157331">
        <ele>26.3</ele>
        <time>2015-05-29T19:25:21Z</time>
      </trkpt>
      <trkpt lat="37.418036" lon="-122.157336">
        <ele>26.2</ele>
        <time>2015-05-29T19:25:23Z</time>
      </trkpt>
      <trkpt lat="37.418074" lon="-122.157337">
        <ele>26.1</ele>
        <time>2015-05-29T19:25:25Z</time>
      </trkpt>
      <trkpt lat="37.418111" lon="-122.157346">
        <ele>26</ele>
        <time>2015-05-29T19:25:27Z</time>
      </trkpt>
      <trkpt lat="37.418155" lon="-122.157365">
        <ele>26.2</ele>
        <time>2015-05-29T19:25:29Z</time>
      </trkpt>
      <trkpt lat="37.418182" lon="-122.157373">
        <ele>26.2</ele>
        <time>2015-05-29T19:25:31Z</time>
      </trkpt>
      <trkpt lat="37.418236" lon="-122.157378">
        <ele>26.4</ele>
        <time>2015-05-29T19:25:32Z</time>
      </trkpt>
      <trkpt lat="37.418262" lon="-122.15737">
        <ele>26.5</ele>
        <time>2015-05-29T19:25:33Z</time>
      </trkpt>
      <trkpt lat="37.418288" lon="-122.157355">
        <ele>26.5</ele>
        <time>2015-05-29T19:25:34Z</time>
      </trkpt>
      <trkpt lat="37.418311" lon="-122.157337">
        <ele>26.4</ele>
        <time>2015-05-29T19:25:35Z</time>
      </trkpt>
      <trkpt lat="37.418336" lon="-122.157316">
        <ele>26.3</ele>
        <time>2015-05-29T19:25:36Z</time>
      </trkpt>
      <trkpt lat="37.418358" lon="-122.157294">
        <ele>26.2</ele>
        <time>2015-05-29T19:25:37Z</time>
      </trkpt>
      <trkpt lat="37.418391" lon="-122.157257">
        <ele>25.9</ele>
        <time>2015-05-29T19:25:39Z</time>
      </trkpt>
      <trkpt lat="37.418421" lon="-122.157222">
        <ele>25.8</ele>
        <time>2015-05-29T19:25:41Z</time>
      </trkpt>
      <trkpt lat="37.418455" lon="-122.15718">
        <ele>25.6</ele>
        <time>2015-05-29T19:25:43Z</time>
      </trkpt>
      <trkpt lat="37.418483" lon="-122.157147">
        <ele>25.5</ele>
        <time>2015-05-29T19:25:45Z</time>
      </trkpt>
      <trkpt lat="37.41852" lon="-122.157105">
        <ele>25.4</ele>
        <time>2015-05-29T19:25:47Z</time>
      </trkpt>
      <trkpt lat="37.418555" lon="-122.157062">
        <ele>25.2</ele>
        <time>2015-05-29T19:25:49Z</time>
      </trkpt>
      <trkpt lat="37.418582" lon="-122.157018">
        <ele>25</ele>
        <time>2015-05-29T19:25:51Z</time>
      </trkpt>
      <trkpt lat="37.418614" lon="-122.156987">
        <ele>24.9</ele>
        <time>2015-05-29T19:25:53Z</time>
      </trkpt>
      <trkpt lat="37.418653" lon="-122.156972">
        <ele>24.9</ele>
        <time>2015-05-29T19:25:55Z</time>
      </trkpt>
      <trkpt lat="37.418691" lon="-122.156956">
        <ele>24.8</ele>
        <time>2015-05-29T19:25:57Z</time>
      </trkpt>
      <trkpt lat="37.418731" lon="-122.156936">
        <ele>24.7</ele>
        <time>2015-05-29T19:25:59Z</time>
      </trkpt>
      <trkpt lat="37.41877" lon="-122.156919">
        <ele>24.7</ele>
        <time>2015-05-29T19:26:01Z</time>
      </trkpt>
      <trkpt lat="37.418808" lon="-122.156901">
        <ele>24.5</ele>
        <time>2015-05-29T19:26:03Z</time>
      </trkpt>
      <trkpt lat="37.418854" lon="-122.15687">
        <ele>24.4</ele>
        <time>2015-05-29T19:26:05Z</time>
      </trkpt>
      <trkpt lat="37.418895" lon="-122.156837">
        <ele>24.3</ele>
        <time>2015-05-29T19:26:07Z</time>
      </trkpt>
      <trkpt lat="37.41893" lon="-122.156797">
        <ele>24.2</ele>
        <time>2015-05-29T19:26:09Z</time>
      </trkpt>
      <trkpt lat="37.418955" lon="-122.156757">
        <ele>24.1</ele>
        <time>2015-05-29T19:26:11Z</time>
      </trkpt>
      <trkpt lat="37.418985" lon="-122.156721">
        <ele>24</ele>
        <time>2015-05-29T19:26:13Z</time>
      </trkpt>
      <trkpt lat="37.419003" lon="-122.156696">
        <ele>23.9</ele>
        <time>2015-05-29T19:26:15Z</time>
      </trkpt>
      <trkpt lat="37.419021" lon="-122.156666">
        <ele>23.8</ele>
        <time>2015-05-29T19:26:17Z</time>
      </trkpt>
      <trkpt lat="37.419049" lon="-122.156622">
        <ele>23.6</ele>
        <time>2015-05-29T19:26:19Z</time>
      </trkpt>
      <trkpt lat="37.419079" lon="-122.156577">
        <ele>23.5</ele>
        <time>2015-05-29T19:26:21Z</time>
      </trkpt>
      <trkpt lat="37.419123" lon="-122.15657">
        <ele>23.2</ele>
        <time>2015-05-29T19:26:23Z</time>
      </trkpt>
      <trkpt lat="37.419148" lon="-122.156587">
        <ele>23.1</ele>
        <time>2015-05-29T19:26:24Z</time>
      </trkpt>
      <trkpt lat="37.419172" lon="-122.15661">
        <ele>23.1</ele>
        <time>2015-05-29T19:26:25Z</time>
      </trkpt>
      <trkpt lat="37.419194" lon="-122.156636">
        <ele>23</ele>
        <time>2015-05-29T19:26:26Z</time>
      </trkpt>
      <trkpt lat="37.419212" lon="-122.156663">
        <ele>23</ele>
        <time>2015-05-29T19:26:27Z</time>
      </trkpt>
      <trkpt lat="37.41924" lon="-122.156715">
        <ele>23</ele>
        <time>2015-05-29T19:26:29Z</time>
      </trkpt>
      <trkpt lat="37.419268" lon="-122.156765">
        <ele>23</ele>
        <time>2015-05-29T19:26:31Z</time>
      </trkpt>
      <trkpt lat="37.419316" lon="-122.15683">
        <ele>23</ele>
        <time>2015-05-29T19:26:34Z</time>
      </trkpt>
      <trkpt lat="37.419327" lon="-122.156848">
        <ele>23</ele>
        <time>2015-05-29T19:26:35Z</time>
      </trkpt>
      <trkpt lat="37.41935" lon="-122.156892">
        <ele>23</ele>
        <time>2015-05-29T19:26:37Z</time>
      </trkpt>
      <trkpt lat="37.419376" lon="-122.156944">
        <ele>23</ele>
        <time>2015-05-29T19:26:39Z</time>
      </trkpt>
      <trkpt lat="37.419398" lon="-122.156991">
        <ele>23</ele>
        <time>2015-05-29T19:26:41Z</time>
      </trkpt>
      <trkpt lat="37.419415" lon="-122.157042">
        <ele>23</ele>
        <time>2015-05-29T19:26:43Z</time>
      </trkpt>
      <trkpt lat="37.419431" lon="-122.157089">
        <ele>23.1</ele>
        <time>2015-05-29T19:26:45Z</time>
      </trkpt>
      <trkpt lat="37.419448" lon="-122.157139">
        <ele>23.1</ele>
        <time>2015-05-29T19:26:47Z</time>
      </trkpt>
      <trkpt lat="37.419462" lon="-122.157185">
        <ele>23.1</ele>
        <time>2015-05-29T19:26:49Z</time>
      </trkpt>
      <trkpt lat="37.419473" lon="-122.157217">
        <ele>23.1</ele>
        <time>2015-05-29T19:26:50Z</time>
      </trkpt>
      <trkpt lat="37.419491" lon="-122.157268">
        <ele>23.1</ele>
        <time>2015-05-29T19:26:52Z</time>
      </trkpt>
      <trkpt lat="37.419526" lon="-122.157324">
        <ele>23.2</ele>
        <time>2015-05-29T19:26:55Z</time>
      </trkpt>
      <trkpt lat="37.419538" lon="-122.157345">
        <ele>23.2</ele>
        <time>2015-05-29T19:26:56Z</time>
      </trkpt>
      <trkpt lat="37.419553" lon="-122.157379">
        <ele>23.2</ele>
        <time>2015-05-29T19:26:58Z</time>
      </trkpt>
      <trkpt lat="37.419578" lon="-122.157425">
        <ele>23.3</ele>
        <time>2015-05-29T19:27:01Z</time>
      </trkpt>
      <trkpt lat="37.419597" lon="-122.157472">
        <ele>23.2</ele>
        <time>2015-05-29T19:27:03Z</time>
      </trkpt>
      <trkpt lat="37.419609" lon="-122.157522">
        <ele>23.4</ele>
        <time>2015-05-29T19:27:05Z</time>
      </trkpt>
      <trkpt lat="37.419632" lon="-122.157567">
        <ele>23.4</ele>
        <time>2015-05-29T19:27:07Z</time>
      </trkpt>
      <trkpt lat="37.419665" lon="-122.157607">
        <ele>23.3</ele>
        <time>2015-05-29T19:27:09Z</time>
      </trkpt>
      <trkpt lat="37.419688" lon="-122.157649">
        <ele>23.3</ele>
        <time>2015-05-29T19:27:11Z</time>
      </trkpt>
      <trkpt lat="37.419708" lon="-122.157695">
        <ele>23.4</ele>
        <time>2015-05-29T19:27:13Z</time>
      </trkpt>
      <trkpt lat="37.419731" lon="-122.157743">
        <ele>23.4</ele>
        <time>2015-05-29T19:27:15Z</time>
      </trkpt>
      <trkpt lat="37.419755" lon="-122.157795">
        <ele>23.4</ele>
        <time>2015-05-29T19:27:17Z</time>
      </trkpt>
      <trkpt lat="37.419773" lon="-122.15782">
        <ele>23.4</ele>
        <time>2015-05-29T19:27:18Z</time>
      </trkpt>
      <trkpt lat="37.419805" lon="-122.15786">
        <ele>23.4</ele>
        <time>2015-05-29T19:27:20Z</time>
      </trkpt>
      <trkpt lat="37.419824" lon="-122.157901">
        <ele>23.5</ele>
        <time>2015-05-29T19:27:22Z</time>
      </trkpt>
      <trkpt lat="37.419839" lon="-122.157945">
        <ele>23.7</ele>
        <time>2015-05-29T19:27:24Z</time>
      </trkpt>
      <trkpt lat="37.419851" lon="-122.157989">
        <ele>23.9</ele>
        <time>2015-05-29T19:27:26Z</time>
      </trkpt>
      <trkpt lat="37.419866" lon="-122.158031">
        <ele>23.9</ele>
        <time>2015-05-29T19:27:28Z</time>
      </trkpt>
      <trkpt lat="37.419883" lon="-122.158059">
        <ele>23.9</ele>
        <time>2015-05-29T19:27:29Z</time>
      </trkpt>
      <trkpt lat="37.419905" lon="-122.158088">
        <ele>23.9</ele>
        <time>2015-05-29T19:27:30Z</time>
      </trkpt>
      <trkpt lat="37.419926" lon="-122.158118">
        <ele>23.9</ele>
        <time>2015-05-29T19:27:31Z</time>
      </trkpt>
      <trkpt lat="37.419944" lon="-122.158144">
        <ele>24</ele>
        <time>2015-05-29T19:27:32Z</time>
      </trkpt>
      <trkpt lat="37.419962" lon="-122.158174">
        <ele>24</ele>
        <time>2015-05-29T19:27:33Z</time>
      </trkpt>
      <trkpt lat="37.419977" lon="-122.158202">
        <ele>24</ele>
        <time>2015-05-29T19:27:34Z</time>
      </trkpt>
      <trkpt lat="37.420004" lon="-122.158254">
        <ele>24</ele>
        <time>2015-05-29T19:27:36Z</time>
      </trkpt>
      <trkpt lat="37.420026" lon="-122.158282">
        <ele>24.1</ele>
        <time>2015-05-29T19:27:37Z</time>
      </trkpt>
      <trkpt lat="37.420048" lon="-122.158313">
        <ele>24.1</ele>
        <time>2015-05-29T19:27:38Z</time>
      </trkpt>
      <trkpt lat="37.420067" lon="-122.158356">
        <ele>24.1</ele>
        <time>2015-05-29T19:27:40Z</time>
      </trkpt>
      <trkpt lat="37.420064" lon="-122.158396">
        <ele>24.4</ele>
        <time>2015-05-29T19:27:42Z</time>
      </trkpt>
      <trkpt lat="37.420064" lon="-122.158437">
        <ele>24.5</ele>
        <time>2015-05-29T19:27:44Z</time>
      </trkpt>
      <trkpt lat="37.420077" lon="-122.158487">
        <ele>24.6</ele>
        <time>2015-05-29T19:27:46Z</time>
      </trkpt>
      <trkpt lat="37.420095" lon="-122.15852">
        <ele>24.6</ele>
        <time>2015-05-29T19:27:48Z</time>
      </trkpt>
      <trkpt lat="37.420115" lon="-122.158556">
        <ele>24.6</ele>
        <time>2015-05-29T19:27:50Z</time>
      </trkpt>
      <trkpt lat="37.420145" lon="-122.158608">
        <ele>24.7</ele>
        <time>2015-05-29T19:27:52Z</time>
      </trkpt>
      <trkpt lat="37.420161" lon="-122.158637">
        <ele>24.7</ele>
        <time>2015-05-29T19:27:54Z</time>
      </trkpt>
      <trkpt lat="37.420178" lon="-122.15867">
        <ele>24.7</ele>
        <time>2015-05-29T19:27:56Z</time>
      </trkpt>
      <trkpt lat="37.420194" lon="-122.158714">
        <ele>24.7</ele>
        <time>2015-05-29T19:27:58Z</time>
      </trkpt>
      <trkpt lat="37.420201" lon="-122.158753">
        <ele>24.9</ele>
        <time>2015-05-29T19:28:00Z</time>
      </trkpt>
      <trkpt lat="37.420205" lon="-122.158791">
        <ele>25</ele>
        <time>2015-05-29T19:28:02Z</time>
      </trkpt>
      <trkpt lat="37.420232" lon="-122.158846">
        <ele>25.1</ele>
        <time>2015-05-29T19:28:04Z</time>
      </trkpt>
      <trkpt lat="37.420274" lon="-122.158882">
        <ele>25</ele>
        <time>2015-05-29T19:28:06Z</time>
      </trkpt>
      <trkpt lat="37.420307" lon="-122.158905">
        <ele>25</ele>
        <time>2015-05-29T19:28:08Z</time>
      </trkpt>
      <trkpt lat="37.420352" lon="-122.158939">
        <ele>25.1</ele>
        <time>2015-05-29T19:28:10Z</time>
      </trkpt>
      <trkpt lat="37.420395" lon="-122.158969">
        <ele>25</ele>
        <time>2015-05-29T19:28:12Z</time>
      </trkpt>
      <trkpt lat="37.420432" lon="-122.158996">
        <ele>25</ele>
        <time>2015-05-29T19:28:14Z</time>
      </trkpt>
      <trkpt lat="37.420459" lon="-122.159021">
        <ele>25</ele>
        <time>2015-05-29T19:28:16Z</time>
      </trkpt>
      <trkpt lat="37.420491" lon="-122.15906">
        <ele>25.1</ele>
        <time>2015-05-29T19:28:18Z</time>
      </trkpt>
      <trkpt lat="37.420503" lon="-122.159092">
        <ele>25.2</ele>
        <time>2015-05-29T19:28:20Z</time>
      </trkpt>
      <trkpt lat="37.420517" lon="-122.159142">
        <ele>25.2</ele>
        <time>2015-05-29T19:28:22Z</time>
      </trkpt>
      <trkpt lat="37.420537" lon="-122.159186">
        <ele>25.3</ele>
        <time>2015-05-29T19:28:24Z</time>
      </trkpt>
      <trkpt lat="37.420564" lon="-122.159225">
        <ele>25.4</ele>
        <time>2015-05-29T19:28:26Z</time>
      </trkpt>
      <trkpt lat="37.420599" lon="-122.159267">
        <ele>25.4</ele>
        <time>2015-05-29T19:28:28Z</time>
      </trkpt>
      <trkpt lat="37.42064" lon="-122.15931">
        <ele>25.5</ele>
        <time>2015-05-29T19:28:30Z</time>
      </trkpt>
      <trkpt lat="37.420668" lon="-122.159346">
        <ele>25.5</ele>
        <time>2015-05-29T19:28:32Z</time>
      </trkpt>
      <trkpt lat="37.420685" lon="-122.159375">
        <ele>25.5</ele>
        <time>2015-05-29T19:28:34Z</time>
      </trkpt>
      <trkpt lat="37.420706" lon="-122.15941">
        <ele>25.6</ele>
        <time>2015-05-29T19:28:36Z</time>
      </trkpt>
      <trkpt lat="37.420727" lon="-122.159444">
        <ele>25.6</ele>
        <time>2015-05-29T19:28:38Z</time>
      </trkpt>
      <trkpt lat="37.420755" lon="-122.159487">
        <ele>25.7</ele>
        <time>2015-05-29T19:28:40Z</time>
      </trkpt>
      <trkpt lat="37.420781" lon="-122.15953">
        <ele>25.7</ele>
        <time>2015-05-29T19:28:42Z</time>
      </trkpt>
      <trkpt lat="37.420809" lon="-122.159572">
        <ele>25.8</ele>
        <time>2015-05-29T19:28:44Z</time>
      </trkpt>
      <trkpt lat="37.42084" lon="-122.159617">
        <ele>25.9</ele>
        <time>2015-05-29T19:28:46Z</time>
      </trkpt>
      <trkpt lat="37.420866" lon="-122.159658">
        <ele>25.9</ele>
        <time>2015-05-29T19:28:48Z</time>
      </trkpt>
      <trkpt lat="37.420898" lon="-122.159701">
        <ele>25.9</ele>
        <time>2015-05-29T19:28:50Z</time>
      </trkpt>
      <trkpt lat="37.42093" lon="-122.159729">
        <ele>25.9</ele>
        <time>2015-05-29T19:28:52Z</time>
      </trkpt>
      <trkpt lat="37.420957" lon="-122.159752">
        <ele>25.9</ele>
        <time>2015-05-29T19:28:54Z</time>
      </trkpt>
      <trkpt lat="37.420994" lon="-122.159793">
        <ele>25.9</ele>
        <time>2015-05-29T19:28:56Z</time>
      </trkpt>
      <trkpt lat="37.421027" lon="-122.159824">
        <ele>25.9</ele>
        <time>2015-05-29T19:28:58Z</time>
      </trkpt>
      <trkpt lat="37.42106" lon="-122.159857">
        <ele>25.9</ele>
        <time>2015-05-29T19:29:00Z</time>
      </trkpt>
      <trkpt lat="37.421099" lon="-122.159905">
        <ele>25.9</ele>
        <time>2015-05-29T19:29:02Z</time>
      </trkpt>
      <trkpt lat="37.421138" lon="-122.159941">
        <ele>25.9</ele>
        <time>2015-05-29T19:29:04Z</time>
      </trkpt>
      <trkpt lat="37.421172" lon="-122.159974">
        <ele>25.9</ele>
        <time>2015-05-29T19:29:06Z</time>
      </trkpt>
      <trkpt lat="37.421202" lon="-122.160008">
        <ele>25.9</ele>
        <time>2015-05-29T19:29:08Z</time>
      </trkpt>
      <trkpt lat="37.421232" lon="-122.160044">
        <ele>25.9</ele>
        <time>2015-05-29T19:29:10Z</time>
      </trkpt>
      <trkpt lat="37.421257" lon="-122.160083">
        <ele>25.9</ele>
        <time>2015-05-29T19:29:12Z</time>
      </trkpt>
      <trkpt lat="37.421278" lon="-122.160122">
        <ele>26</ele>
        <time>2015-05-29T19:29:14Z</time>
      </trkpt>
      <trkpt lat="37.421308" lon="-122.160169">
        <ele>26.1</ele>
        <time>2015-05-29T19:29:16Z</time>
      </trkpt>
      <trkpt lat="37.42133" lon="-122.160202">
        <ele>26.1</ele>
        <time>2015-05-29T19:29:18Z</time>
      </trkpt>
      <trkpt lat="37.42136" lon="-122.16025">
        <ele>26.1</ele>
        <time>2015-05-29T19:29:20Z</time>
      </trkpt>
      <trkpt lat="37.421395" lon="-122.160288">
        <ele>26.1</ele>
        <time>2015-05-29T19:29:22Z</time>
      </trkpt>
      <trkpt lat="37.421419" lon="-122.160317">
        <ele>26.1</ele>
        <time>2015-05-29T19:29:24Z</time>
      </trkpt>
      <trkpt lat="37.421453" lon="-122.160355">
        <ele>26.1</ele>
        <time>2015-05-29T19:29:26Z</time>
      </trkpt>
      <trkpt lat="37.421482" lon="-122.160389">
        <ele>26.1</ele>
        <time>2015-05-29T19:29:28Z</time>
      </trkpt>
      <trkpt lat="37.4215" lon="-122.160424">
        <ele>26.2</ele>
        <time>2015-05-29T19:29:30Z</time>
      </trkpt>
      <trkpt lat="37.421523" lon="-122.160464">
        <ele>26.2</ele>
        <time>2015-05-29T19:29:32Z</time>
      </trkpt>
      <trkpt lat="37.42155" lon="-122.160494">
        <ele>26.2</ele>
        <time>2015-05-29T19:29:34Z</time>
      </trkpt>
      <trkpt lat="37.421568" lon="-122.160523">
        <ele>26.2</ele>
        <time>2015-05-29T19:29:36Z</time>
      </trkpt>
      <trkpt lat="37.42159" lon="-122.160568">
        <ele>26.3</ele>
        <time>2015-05-29T19:29:38Z</time>
      </trkpt>
      <trkpt lat="37.421606" lon="-122.160597">
        <ele>26.3</ele>
        <time>2015-05-29T19:29:39Z</time>
      </trkpt>
      <trkpt lat="37.421641" lon="-122.160647">
        <ele>26.2</ele>
        <time>2015-05-29T19:29:41Z</time>
      </trkpt>
      <trkpt lat="37.421666" lon="-122.160674">
        <ele>26.2</ele>
        <time>2015-05-29T19:29:42Z</time>
      </trkpt>
      <trkpt lat="37.421689" lon="-122.160698">
        <ele>26.3</ele>
        <time>2015-05-29T19:29:43Z</time>
      </trkpt>
      <trkpt lat="37.421729" lon="-122.160736">
        <ele>26.4</ele>
        <time>2015-05-29T19:29:45Z</time>
      </trkpt>
      <trkpt lat="37.421774" lon="-122.160771">
        <ele>26.4</ele>
        <time>2015-05-29T19:29:47Z</time>
      </trkpt>
      <trkpt lat="37.421816" lon="-122.160797">
        <ele>26.3</ele>
        <time>2015-05-29T19:29:49Z</time>
      </trkpt>
      <trkpt lat="37.421846" lon="-122.160822">
        <ele>26.3</ele>
        <time>2015-05-29T19:29:51Z</time>
      </trkpt>
      <trkpt lat="37.421878" lon="-122.160853">
        <ele>26.4</ele>
        <time>2015-05-29T19:29:53Z</time>
      </trkpt>
      <trkpt lat="37.421911" lon="-122.160886">
        <ele>26.4</ele>
        <time>2015-05-29T19:29:56Z</time>
      </trkpt>
      <trkpt lat="37.421937" lon="-122.160917">
        <ele>26.4</ele>
        <time>2015-05-29T19:29:57Z</time>
      </trkpt>
      <trkpt lat="37.421963" lon="-122.160949">
        <ele>26.4</ele>
        <time>2015-05-29T19:29:59Z</time>
      </trkpt>
      <trkpt lat="37.421989" lon="-122.160983">
        <ele>26.4</ele>
        <time>2015-05-29T19:30:01Z</time>
      </trkpt>
      <trkpt lat="37.422011" lon="-122.161025">
        <ele>26.5</ele>
        <time>2015-05-29T19:30:03Z</time>
      </trkpt>
      <trkpt lat="37.422043" lon="-122.161062">
        <ele>26.5</ele>
        <time>2015-05-29T19:30:05Z</time>
      </trkpt>
      <trkpt lat="37.422083" lon="-122.161098">
        <ele>26.4</ele>
        <time>2015-05-29T19:30:08Z</time>
      </trkpt>
      <trkpt lat="37.422105" lon="-122.161124">
        <ele>26.4</ele>
        <time>2015-05-29T19:30:11Z</time>
      </trkpt>
      <trkpt lat="37.422133" lon="-122.161167">
        <ele>26.5</ele>
        <time>2015-05-29T19:30:12Z</time>
      </trkpt>
      <trkpt lat="37.422154" lon="-122.161189">
        <ele>26.5</ele>
        <time>2015-05-29T19:30:13Z</time>
      </trkpt>
      <trkpt lat="37.422182" lon="-122.161215">
        <ele>26.4</ele>
        <time>2015-05-29T19:30:14Z</time>
      </trkpt>
      <trkpt lat="37.422222" lon="-122.161249">
        <ele>26.4</ele>
        <time>2015-05-29T19:30:16Z</time>
      </trkpt>
      <trkpt lat="37.422258" lon="-122.161285">
        <ele>26.3</ele>
        <time>2015-05-29T19:30:18Z</time>
      </trkpt>
      <trkpt lat="37.422296" lon="-122.161346">
        <ele>26.4</ele>
        <time>2015-05-29T19:30:21Z</time>
      </trkpt>
      <trkpt lat="37.422312" lon="-122.161369">
        <ele>26.4</ele>
        <time>2015-05-29T19:30:22Z</time>
      </trkpt>
      <trkpt lat="37.422347" lon="-122.161398">
        <ele>26.4</ele>
        <time>2015-05-29T19:30:25Z</time>
      </trkpt>
      <trkpt lat="37.422375" lon="-122.161429">
        <ele>26.4</ele>
        <time>2015-05-29T19:30:27Z</time>
      </trkpt>
      <trkpt lat="37.422399" lon="-122.161457">
        <ele>26.4</ele>
        <time>2015-05-29T19:30:29Z</time>
      </trkpt>
      <trkpt lat="37.422408" lon="-122.161507">
        <ele>26.4</ele>
        <time>2015-05-29T19:30:31Z</time>
      </trkpt>
      <trkpt lat="37.422395" lon="-122.161561">
        <ele>26.6</ele>
        <time>2015-05-29T19:30:33Z</time>
      </trkpt>
      <trkpt lat="37.422366" lon="-122.161603">
        <ele>26.7</ele>
        <time>2015-05-29T19:30:35Z</time>
      </trkpt>
      <trkpt lat="37.42234" lon="-122.161646">
        <ele>26.8</ele>
        <time>2015-05-29T19:30:37Z</time>
      </trkpt>
      <trkpt lat="37.422324" lon="-122.161686">
        <ele>26.8</ele>
        <time>2015-05-29T19:30:39Z</time>
      </trkpt>
      <trkpt lat="37.422306" lon="-122.161732">
        <ele>26.9</ele>
        <time>2015-05-29T19:30:41Z</time>
      </trkpt>
      <trkpt lat="37.422296" lon="-122.161778">
        <ele>26.9</ele>
        <time>2015-05-29T19:30:43Z</time>
      </trkpt>
      <trkpt lat="37.422265" lon="-122.161822">
        <ele>27</ele>
        <time>2015-05-29T19:30:45Z</time>
      </trkpt>
      <trkpt lat="37.422239" lon="-122.161855">
        <ele>27.1</ele>
        <time>2015-05-29T19:30:47Z</time>
      </trkpt>
      <trkpt lat="37.422237" lon="-122.161902">
        <ele>27.1</ele>
        <time>2015-05-29T19:30:49Z</time>
      </trkpt>
      <trkpt lat="37.42222" lon="-122.161941">
        <ele>27.1</ele>
        <time>2015-05-29T19:30:51Z</time>
      </trkpt>
      <trkpt lat="37.422214" lon="-122.161999">
        <ele>27.3</ele>
        <time>2015-05-29T19:30:53Z</time>
      </trkpt>
      <trkpt lat="37.422225" lon="-122.162063">
        <ele>27.3</ele>
        <time>2015-05-29T19:30:55Z</time>
      </trkpt>
      <trkpt lat="37.422235" lon="-122.162119">
        <ele>27.4</ele>
        <time>2015-05-29T19:30:57Z</time>
      </trkpt>
      <trkpt lat="37.422245" lon="-122.162174">
        <ele>27.4</ele>
        <time>2015-05-29T19:30:59Z</time>
      </trkpt>
      <trkpt lat="37.422249" lon="-122.162227">
        <ele>27.5</ele>
        <time>2015-05-29T19:31:01Z</time>
      </trkpt>
      <trkpt lat="37.422249" lon="-122.162278">
        <ele>27.5</ele>
        <time>2015-05-29T19:31:03Z</time>
      </trkpt>
      <trkpt lat="37.422236" lon="-122.162315">
        <ele>27.6</ele>
        <time>2015-05-29T19:31:05Z</time>
      </trkpt>
      <trkpt lat="37.422212" lon="-122.162354">
        <ele>27.7</ele>
        <time>2015-05-29T19:31:07Z</time>
      </trkpt>
      <trkpt lat="37.422214" lon="-122.162422">
        <ele>27.8</ele>
        <time>2015-05-29T19:31:09Z</time>
      </trkpt>
      <trkpt lat="37.422218" lon="-122.162458">
        <ele>27.8</ele>
        <time>2015-05-29T19:31:10Z</time>
      </trkpt>
      <trkpt lat="37.422218" lon="-122.162521">
        <ele>27.9</ele>
        <time>2015-05-29T19:31:12Z</time>
      </trkpt>
      <trkpt lat="37.422214" lon="-122.162578">
        <ele>27.9</ele>
        <time>2015-05-29T19:31:14Z</time>
      </trkpt>
      <trkpt lat="37.422214" lon="-122.162643">
        <ele>28</ele>
        <time>2015-05-29T19:31:16Z</time>
      </trkpt>
      <trkpt lat="37.422216" lon="-122.162706">
        <ele>28.1</ele>
        <time>2015-05-29T19:31:18Z</time>
      </trkpt>
      <trkpt lat="37.422212" lon="-122.162766">
        <ele>28.1</ele>
        <time>2015-05-29T19:31:20Z</time>
      </trkpt>
      <trkpt lat="37.422204" lon="-122.162825">
        <ele>28.3</ele>
        <time>2015-05-29T19:31:22Z</time>
      </trkpt>
      <trkpt lat="37.422198" lon="-122.162879">
        <ele>28.4</ele>
        <time>2015-05-29T19:31:24Z</time>
      </trkpt>
      <trkpt lat="37.422197" lon="-122.162926">
        <ele>28.4</ele>
        <time>2015-05-29T19:31:26Z</time>
      </trkpt>
      <trkpt lat="37.422199" lon="-122.162979">
        <ele>28.5</ele>
        <time>2015-05-29T19:31:28Z</time>
      </trkpt>
      <trkpt lat="37.422214" lon="-122.163034">
        <ele>28.6</ele>
        <time>2015-05-29T19:31:31Z</time>
      </trkpt>
      <trkpt lat="37.422235" lon="-122.163079">
        <ele>28.6</ele>
        <time>2015-05-29T19:31:32Z</time>
      </trkpt>
      <trkpt lat="37.422261" lon="-122.163144">
        <ele>28.7</ele>
        <time>2015-05-29T19:31:35Z</time>
      </trkpt>
      <trkpt lat="37.422266" lon="-122.163163">
        <ele>28.7</ele>
        <time>2015-05-29T19:31:36Z</time>
      </trkpt>
      <trkpt lat="37.42227" lon="-122.163226">
        <ele>28.8</ele>
        <time>2015-05-29T19:31:38Z</time>
      </trkpt>
      <trkpt lat="37.422262" lon="-122.163269">
        <ele>28.9</ele>
        <time>2015-05-29T19:31:40Z</time>
      </trkpt>
      <trkpt lat="37.422248" lon="-122.163311">
        <ele>29</ele>
        <time>2015-05-29T19:31:42Z</time>
      </trkpt>
      <trkpt lat="37.422231" lon="-122.163349">
        <ele>29</ele>
        <time>2015-05-29T19:31:44Z</time>
      </trkpt>
      <trkpt lat="37.422227" lon="-122.163398">
        <ele>29.1</ele>
        <time>2015-05-29T19:31:46Z</time>
      </trkpt>
      <trkpt lat="37.422241" lon="-122.163455">
        <ele>29.2</ele>
        <time>2015-05-29T19:31:48Z</time>
      </trkpt>
      <trkpt lat="37.422249" lon="-122.16351">
        <ele>29.2</ele>
        <time>2015-05-29T19:31:50Z</time>
      </trkpt>
      <trkpt lat="37.422249" lon="-122.16356">
        <ele>29.4</ele>
        <time>2015-05-29T19:31:52Z</time>
      </trkpt>
      <trkpt lat="37.42226" lon="-122.163617">
        <ele>29.4</ele>
        <time>2015-05-29T19:31:54Z</time>
      </trkpt>
      <trkpt lat="37.422279" lon="-122.163653">
        <ele>29.4</ele>
        <time>2015-05-29T19:31:55Z</time>
      </trkpt>
      <trkpt lat="37.422296" lon="-122.16369">
        <ele>29.4</ele>
        <time>2015-05-29T19:31:56Z</time>
      </trkpt>
      <trkpt lat="37.422308" lon="-122.163742">
        <ele>29.4</ele>
        <time>2015-05-29T19:31:58Z</time>
      </trkpt>
      <trkpt lat="37.422314" lon="-122.1638">
        <ele>29.3</ele>
        <time>2015-05-29T19:32:00Z</time>
      </trkpt>
      <trkpt lat="37.422323" lon="-122.163837">
        <ele>29.3</ele>
        <time>2015-05-29T19:32:01Z</time>
      </trkpt>
      <trkpt lat="37.422352" lon="-122.163904">
        <ele>29.2</ele>
        <time>2015-05-29T19:32:03Z</time>
      </trkpt>
      <trkpt lat="37.422376" lon="-122.163942">
        <ele>29.3</ele>
        <time>2015-05-29T19:32:04Z</time>
      </trkpt>
      <trkpt lat="37.422392" lon="-122.16397">
        <ele>29.5</ele>
        <time>2015-05-29T19:32:05Z</time>
      </trkpt>
      <trkpt lat="37.422413" lon="-122.164023">
        <ele>29.6</ele>
        <time>2015-05-29T19:32:07Z</time>
      </trkpt>
      <trkpt lat="37.422426" lon="-122.164076">
        <ele>29.6</ele>
        <time>2015-05-29T19:32:09Z</time>
      </trkpt>
      <trkpt lat="37.422422" lon="-122.164131">
        <ele>29.6</ele>
        <time>2015-05-29T19:32:11Z</time>
      </trkpt>
      <trkpt lat="37.422421" lon="-122.164201">
        <ele>29.7</ele>
        <time>2015-05-29T19:32:14Z</time>
      </trkpt>
      <trkpt lat="37.422433" lon="-122.164222">
        <ele>29.7</ele>
        <time>2015-05-29T19:32:15Z</time>
      </trkpt>
      <trkpt lat="37.422474" lon="-122.16425">
        <ele>29.6</ele>
        <time>2015-05-29T19:32:17Z</time>
      </trkpt>
      <trkpt lat="37.422489" lon="-122.164315">
        <ele>29.6</ele>
        <time>2015-05-29T19:32:20Z</time>
      </trkpt>
      <trkpt lat="37.422482" lon="-122.164335">
        <ele>29.6</ele>
        <time>2015-05-29T19:32:22Z</time>
      </trkpt>
      <trkpt lat="37.422481" lon="-122.16437">
        <ele>29.6</ele>
        <time>2015-05-29T19:32:23Z</time>
      </trkpt>
      <trkpt lat="37.422495" lon="-122.164416">
        <ele>29.6</ele>
        <time>2015-05-29T19:32:24Z</time>
      </trkpt>
      <trkpt lat="37.422504" lon="-122.16445">
        <ele>29.7</ele>
        <time>2015-05-29T19:32:26Z</time>
      </trkpt>
      <trkpt lat="37.422514" lon="-122.164518">
        <ele>29.7</ele>
        <time>2015-05-29T19:32:28Z</time>
      </trkpt>
      <trkpt lat="37.422537" lon="-122.164572">
        <ele>29.8</ele>
        <time>2015-05-29T19:32:30Z</time>
      </trkpt>
      <trkpt lat="37.422549" lon="-122.164604">
        <ele>29.8</ele>
        <time>2015-05-29T19:32:33Z</time>
      </trkpt>
      <trkpt lat="37.422555" lon="-122.164668">
        <ele>29.8</ele>
        <time>2015-05-29T19:32:35Z</time>
      </trkpt>
      <trkpt lat="37.422567" lon="-122.164701">
        <ele>29.8</ele>
        <time>2015-05-29T19:32:36Z</time>
      </trkpt>
      <trkpt lat="37.42258" lon="-122.164735">
        <ele>29.8</ele>
        <time>2015-05-29T19:32:37Z</time>
      </trkpt>
      <trkpt lat="37.422592" lon="-122.164767">
        <ele>29.8</ele>
        <time>2015-05-29T19:32:38Z</time>
      </trkpt>
      <trkpt lat="37.422609" lon="-122.164801">
        <ele>29.9</ele>
        <time>2015-05-29T19:32:39Z</time>
      </trkpt>
      <trkpt lat="37.422623" lon="-122.164836">
        <ele>29.9</ele>
        <time>2015-05-29T19:32:40Z</time>
      </trkpt>
      <trkpt lat="37.422629" lon="-122.164873">
        <ele>29.9</ele>
        <time>2015-05-29T19:32:42Z</time>
      </trkpt>
      <trkpt lat="37.422634" lon="-122.164919">
        <ele>29.9</ele>
        <time>2015-05-29T19:32:45Z</time>
      </trkpt>
      <trkpt lat="37.422659" lon="-122.164954">
        <ele>29.9</ele>
        <time>2015-05-29T19:32:47Z</time>
      </trkpt>
      <trkpt lat="37.422704" lon="-122.164991">
        <ele>29.9</ele>
        <time>2015-05-29T19:32:49Z</time>
      </trkpt>
      <trkpt lat="37.422727" lon="-122.165014">
        <ele>29.9</ele>
        <time>2015-05-29T19:32:50Z</time>
      </trkpt>
      <trkpt lat="37.422751" lon="-122.165038">
        <ele>29.9</ele>
        <time>2015-05-29T19:32:51Z</time>
      </trkpt>
      <trkpt lat="37.422778" lon="-122.165067">
        <ele>29.9</ele>
        <time>2015-05-29T19:32:52Z</time>
      </trkpt>
      <trkpt lat="37.422805" lon="-122.165095">
        <ele>29.9</ele>
        <time>2015-05-29T19:32:53Z</time>
      </trkpt>
      <trkpt lat="37.422826" lon="-122.16512">
        <ele>29.9</ele>
        <time>2015-05-29T19:32:54Z</time>
      </trkpt>
      <trkpt lat="37.422851" lon="-122.165173">
        <ele>30.1</ele>
        <time>2015-05-29T19:32:56Z</time>
      </trkpt>
      <trkpt lat="37.422864" lon="-122.165227">
        <ele>30.3</ele>
        <time>2015-05-29T19:32:59Z</time>
      </trkpt>
      <trkpt lat="37.422861" lon="-122.165272">
        <ele>30.3</ele>
        <time>2015-05-29T19:33:00Z</time>
      </trkpt>
      <trkpt lat="37.422851" lon="-122.165316">
        <ele>30.4</ele>
        <time>2015-05-29T19:33:02Z</time>
      </trkpt>
      <trkpt lat="37.422857" lon="-122.165407">
        <ele>30.6</ele>
        <time>2015-05-29T19:33:05Z</time>
      </trkpt>
      <trkpt lat="37.422864" lon="-122.165439">
        <ele>30.6</ele>
        <time>2015-05-29T19:33:06Z</time>
      </trkpt>
      <trkpt lat="37.422875" lon="-122.165501">
        <ele>30.6</ele>
        <time>2015-05-29T19:33:09Z</time>
      </trkpt>
      <trkpt lat="37.422884" lon="-122.165547">
        <ele>30.7</ele>
        <time>2015-05-29T19:33:10Z</time>
      </trkpt>
      <trkpt lat="37.422881" lon="-122.165583">
        <ele>30.8</ele>
        <time>2015-05-29T19:33:11Z</time>
      </trkpt>
      <trkpt lat="37.422875" lon="-122.165619">
        <ele>30.9</ele>
        <time>2015-05-29T19:33:13Z</time>
      </trkpt>
      <trkpt lat="37.422846" lon="-122.165714">
        <ele>31.1</ele>
        <time>2015-05-29T19:33:15Z</time>
      </trkpt>
      <trkpt lat="37.422834" lon="-122.165749">
        <ele>31.1</ele>
        <time>2015-05-29T19:33:16Z</time>
      </trkpt>
      <trkpt lat="37.422822" lon="-122.16578">
        <ele>31.1</ele>
        <time>2015-05-29T19:33:17Z</time>
      </trkpt>
      <trkpt lat="37.422796" lon="-122.165834">
        <ele>31.1</ele>
        <time>2015-05-29T19:33:19Z</time>
      </trkpt>
      <trkpt lat="37.422773" lon="-122.165881">
        <ele>31.2</ele>
        <time>2015-05-29T19:33:21Z</time>
      </trkpt>
      <trkpt lat="37.422744" lon="-122.165922">
        <ele>31.4</ele>
        <time>2015-05-29T19:33:23Z</time>
      </trkpt>
      <trkpt lat="37.422707" lon="-122.165953">
        <ele>31.5</ele>
        <time>2015-05-29T19:33:25Z</time>
      </trkpt>
      <trkpt lat="37.422679" lon="-122.165989">
        <ele>31.6</ele>
        <time>2015-05-29T19:33:27Z</time>
      </trkpt>
      <trkpt lat="37.422657" lon="-122.166018">
        <ele>31.7</ele>
        <time>2015-05-29T19:33:29Z</time>
      </trkpt>
      <trkpt lat="37.422639" lon="-122.166048">
        <ele>31.8</ele>
        <time>2015-05-29T19:33:31Z</time>
      </trkpt>
      <trkpt lat="37.42261" lon="-122.166093">
        <ele>31.9</ele>
        <time>2015-05-29T19:33:33Z</time>
      </trkpt>
      <trkpt lat="37.422578" lon="-122.166138">
        <ele>31.9</ele>
        <time>2015-05-29T19:33:35Z</time>
      </trkpt>
      <trkpt lat="37.422548" lon="-122.166182">
        <ele>31.9</ele>
        <time>2015-05-29T19:33:37Z</time>
      </trkpt>
      <trkpt lat="37.422531" lon="-122.166229">
        <ele>32</ele>
        <time>2015-05-29T19:33:39Z</time>
      </trkpt>
      <trkpt lat="37.422513" lon="-122.166273">
        <ele>32.1</ele>
        <time>2015-05-29T19:33:41Z</time>
      </trkpt>
      <trkpt lat="37.42248" lon="-122.166306">
        <ele>32.1</ele>
        <time>2015-05-29T19:33:44Z</time>
      </trkpt>
      <trkpt lat="37.422457" lon="-122.166343">
        <ele>32.1</ele>
        <time>2015-05-29T19:33:46Z</time>
      </trkpt>
      <trkpt lat="37.422421" lon="-122.166394">
        <ele>32.3</ele>
        <time>2015-05-29T19:33:47Z</time>
      </trkpt>
      <trkpt lat="37.42241" lon="-122.16642">
        <ele>32.4</ele>
        <time>2015-05-29T19:33:49Z</time>
      </trkpt>
      <trkpt lat="37.422398" lon="-122.166502">
        <ele>32.5</ele>
        <time>2015-05-29T19:33:51Z</time>
      </trkpt>
      <trkpt lat="37.422397" lon="-122.166526">
        <ele>32.6</ele>
        <time>2015-05-29T19:33:52Z</time>
      </trkpt>
      <trkpt lat="37.422393" lon="-122.166571">
        <ele>32.7</ele>
        <time>2015-05-29T19:33:54Z</time>
      </trkpt>
      <trkpt lat="37.422365" lon="-122.166628">
        <ele>32.7</ele>
        <time>2015-05-29T19:33:56Z</time>
      </trkpt>
      <trkpt lat="37.422343" lon="-122.166652">
        <ele>32.8</ele>
        <time>2015-05-29T19:33:57Z</time>
      </trkpt>
      <trkpt lat="37.422319" lon="-122.166673">
        <ele>32.8</ele>
        <time>2015-05-29T19:33:58Z</time>
      </trkpt>
      <trkpt lat="37.422285" lon="-122.166712">
        <ele>32.9</ele>
        <time>2015-05-29T19:34:00Z</time>
      </trkpt>
      <trkpt lat="37.422251" lon="-122.16675">
        <ele>33</ele>
        <time>2015-05-29T19:34:02Z</time>
      </trkpt>
      <trkpt lat="37.422224" lon="-122.166799">
        <ele>33</ele>
        <time>2015-05-29T19:34:04Z</time>
      </trkpt>
      <trkpt lat="37.422197" lon="-122.166844">
        <ele>33.1</ele>
        <time>2015-05-29T19:34:06Z</time>
      </trkpt>
      <trkpt lat="37.422162" lon="-122.166877">
        <ele>33.3</ele>
        <time>2015-05-29T19:34:08Z</time>
      </trkpt>
      <trkpt lat="37.422133" lon="-122.166915">
        <ele>33.3</ele>
        <time>2015-05-29T19:34:10Z</time>
      </trkpt>
      <trkpt lat="37.422123" lon="-122.166967">
        <ele>33.3</ele>
        <time>2015-05-29T19:34:12Z</time>
      </trkpt>
      <trkpt lat="37.422137" lon="-122.167016">
        <ele>33.3</ele>
        <time>2015-05-29T19:34:14Z</time>
      </trkpt>
      <trkpt lat="37.42214" lon="-122.167067">
        <ele>33.4</ele>
        <time>2015-05-29T19:34:16Z</time>
      </trkpt>
      <trkpt lat="37.422123" lon="-122.167118">
        <ele>33.5</ele>
        <time>2015-05-29T19:34:18Z</time>
      </trkpt>
      <trkpt lat="37.422098" lon="-122.16716">
        <ele>33.6</ele>
        <time>2015-05-29T19:34:20Z</time>
      </trkpt>
      <trkpt lat="37.422081" lon="-122.167201">
        <ele>33.7</ele>
        <time>2015-05-29T19:34:22Z</time>
      </trkpt>
      <trkpt lat="37.422069" lon="-122.167248">
        <ele>33.8</ele>
        <time>2015-05-29T19:34:24Z</time>
      </trkpt>
      <trkpt lat="37.422067" lon="-122.167299">
        <ele>33.9</ele>
        <time>2015-05-29T19:34:26Z</time>
      </trkpt>
      <trkpt lat="37.422051" lon="-122.167348">
        <ele>33.9</ele>
        <time>2015-05-29T19:34:28Z</time>
      </trkpt>
      <trkpt lat="37.422033" lon="-122.167392">
        <ele>34</ele>
        <time>2015-05-29T19:34:30Z</time>
      </trkpt>
      <trkpt lat="37.42203" lon="-122.167452">
        <ele>34.2</ele>
        <time>2015-05-29T19:34:32Z</time>
      </trkpt>
      <trkpt lat="37.422031" lon="-122.167514">
        <ele>34.3</ele>
        <time>2015-05-29T19:34:34Z</time>
      </trkpt>
      <trkpt lat="37.422024" lon="-122.167569">
        <ele>34.4</ele>
        <time>2015-05-29T19:34:36Z</time>
      </trkpt>
      <trkpt lat="37.422009" lon="-122.167616">
        <ele>34.6</ele>
        <time>2015-05-29T19:34:38Z</time>
      </trkpt>
      <trkpt lat="37.421981" lon="-122.167666">
        <ele>34.6</ele>
        <time>2015-05-29T19:34:40Z</time>
      </trkpt>
      <trkpt lat="37.421955" lon="-122.167709">
        <ele>34.7</ele>
        <time>2015-05-29T19:34:42Z</time>
      </trkpt>
      <trkpt lat="37.421921" lon="-122.167743">
        <ele>34.7</ele>
        <time>2015-05-29T19:34:44Z</time>
      </trkpt>
      <trkpt lat="37.421889" lon="-122.167783">
        <ele>34.8</ele>
        <time>2015-05-29T19:34:46Z</time>
      </trkpt>
      <trkpt lat="37.421843" lon="-122.167811">
        <ele>34.9</ele>
        <time>2015-05-29T19:34:49Z</time>
      </trkpt>
      <trkpt lat="37.421787" lon="-122.167828">
        <ele>34.9</ele>
        <time>2015-05-29T19:34:50Z</time>
      </trkpt>
      <trkpt lat="37.421766" lon="-122.167833">
        <ele>35</ele>
        <time>2015-05-29T19:34:51Z</time>
      </trkpt>
      <trkpt lat="37.421726" lon="-122.167855">
        <ele>35.1</ele>
        <time>2015-05-29T19:34:53Z</time>
      </trkpt>
      <trkpt lat="37.421696" lon="-122.167877">
        <ele>35.2</ele>
        <time>2015-05-29T19:34:55Z</time>
      </trkpt>
      <trkpt lat="37.42167" lon="-122.167916">
        <ele>35.3</ele>
        <time>2015-05-29T19:34:57Z</time>
      </trkpt>
      <trkpt lat="37.421652" lon="-122.167954">
        <ele>35.4</ele>
        <time>2015-05-29T19:34:59Z</time>
      </trkpt>
      <trkpt lat="37.421638" lon="-122.167986">
        <ele>35.5</ele>
        <time>2015-05-29T19:35:01Z</time>
      </trkpt>
      <trkpt lat="37.421603" lon="-122.168023">
        <ele>35.6</ele>
        <time>2015-05-29T19:35:03Z</time>
      </trkpt>
      <trkpt lat="37.421568" lon="-122.168059">
        <ele>35.8</ele>
        <time>2015-05-29T19:35:05Z</time>
      </trkpt>
      <trkpt lat="37.421547" lon="-122.168093">
        <ele>35.9</ele>
        <time>2015-05-29T19:35:07Z</time>
      </trkpt>
      <trkpt lat="37.421522" lon="-122.168129">
        <ele>36</ele>
        <time>2015-05-29T19:35:09Z</time>
      </trkpt>
      <trkpt lat="37.421502" lon="-122.168181">
        <ele>36</ele>
        <time>2015-05-29T19:35:11Z</time>
      </trkpt>
      <trkpt lat="37.421473" lon="-122.168228">
        <ele>36.1</ele>
        <time>2015-05-29T19:35:13Z</time>
      </trkpt>
      <trkpt lat="37.421432" lon="-122.16825">
        <ele>36.2</ele>
        <time>2015-05-29T19:35:15Z</time>
      </trkpt>
      <trkpt lat="37.421388" lon="-122.168281">
        <ele>36.2</ele>
        <time>2015-05-29T19:35:17Z</time>
      </trkpt>
      <trkpt lat="37.421348" lon="-122.168324">
        <ele>36.4</ele>
        <time>2015-05-29T19:35:19Z</time>
      </trkpt>
      <trkpt lat="37.42132" lon="-122.168373">
        <ele>36.4</ele>
        <time>2015-05-29T19:35:21Z</time>
      </trkpt>
      <trkpt lat="37.421304" lon="-122.168424">
        <ele>36.4</ele>
        <time>2015-05-29T19:35:23Z</time>
      </trkpt>
      <trkpt lat="37.421287" lon="-122.168477">
        <ele>36.5</ele>
        <time>2015-05-29T19:35:25Z</time>
      </trkpt>
      <trkpt lat="37.421271" lon="-122.168526">
        <ele>36.7</ele>
        <time>2015-05-29T19:35:27Z</time>
      </trkpt>
      <trkpt lat="37.42125" lon="-122.16856">
        <ele>36.8</ele>
        <time>2015-05-29T19:35:29Z</time>
      </trkpt>
      <trkpt lat="37.421214" lon="-122.16859">
        <ele>36.9</ele>
        <time>2015-05-29T19:35:31Z</time>
      </trkpt>
      <trkpt lat="37.421176" lon="-122.168631">
        <ele>37.1</ele>
        <time>2015-05-29T19:35:33Z</time>
      </trkpt>
      <trkpt lat="37.421131" lon="-122.168662">
        <ele>37.2</ele>
        <time>2015-05-29T19:35:35Z</time>
      </trkpt>
      <trkpt lat="37.421082" lon="-122.168678">
        <ele>37.4</ele>
        <time>2015-05-29T19:35:37Z</time>
      </trkpt>
      <trkpt lat="37.421053" lon="-122.168684">
        <ele>37.5</ele>
        <time>2015-05-29T19:35:38Z</time>
      </trkpt>
      <trkpt lat="37.421025" lon="-122.168693">
        <ele>37.7</ele>
        <time>2015-05-29T19:35:39Z</time>
      </trkpt>
      <trkpt lat="37.421" lon="-122.168719">
        <ele>37.7</ele>
        <time>2015-05-29T19:35:41Z</time>
      </trkpt>
      <trkpt lat="37.420994" lon="-122.168757">
        <ele>37.7</ele>
        <time>2015-05-29T19:35:43Z</time>
      </trkpt>
      <trkpt lat="37.420982" lon="-122.168798">
        <ele>37.8</ele>
        <time>2015-05-29T19:35:45Z</time>
      </trkpt>
      <trkpt lat="37.42096" lon="-122.168834">
        <ele>37.8</ele>
        <time>2015-05-29T19:35:47Z</time>
      </trkpt>
      <trkpt lat="37.42093" lon="-122.168866">
        <ele>37.9</ele>
        <time>2015-05-29T19:35:49Z</time>
      </trkpt>
      <trkpt lat="37.420901" lon="-122.168901">
        <ele>37.9</ele>
        <time>2015-05-29T19:35:52Z</time>
      </trkpt>
      <trkpt lat="37.420879" lon="-122.168955">
        <ele>37.9</ele>
        <time>2015-05-29T19:35:54Z</time>
      </trkpt>
      <trkpt lat="37.420857" lon="-122.169016">
        <ele>38</ele>
        <time>2015-05-29T19:35:56Z</time>
      </trkpt>
      <trkpt lat="37.420846" lon="-122.169049">
        <ele>38</ele>
        <time>2015-05-29T19:35:57Z</time>
      </trkpt>
      <trkpt lat="37.420833" lon="-122.169081">
        <ele>38.1</ele>
        <time>2015-05-29T19:35:58Z</time>
      </trkpt>
      <trkpt lat="37.420804" lon="-122.169133">
        <ele>38.1</ele>
        <time>2015-05-29T19:36:00Z</time>
      </trkpt>
      <trkpt lat="37.420779" lon="-122.169163">
        <ele>38.2</ele>
        <time>2015-05-29T19:36:03Z</time>
      </trkpt>
      <trkpt lat="37.420751" lon="-122.169203">
        <ele>40.2</ele>
        <time>2015-05-29T19:36:04Z</time>
      </trkpt>
      <trkpt lat="37.42072" lon="-122.169231">
        <ele>38</ele>
        <time>2015-05-29T19:36:06Z</time>
      </trkpt>
      <trkpt lat="37.420683" lon="-122.169246">
        <ele>38.2</ele>
        <time>2015-05-29T19:36:08Z</time>
      </trkpt>
      <trkpt lat="37.420643" lon="-122.169266">
        <ele>38.2</ele>
        <time>2015-05-29T19:36:10Z</time>
      </trkpt>
      <trkpt lat="37.420616" lon="-122.169284">
        <ele>38.2</ele>
        <time>2015-05-29T19:36:12Z</time>
      </trkpt>
      <trkpt lat="37.420591" lon="-122.16931">
        <ele>38.3</ele>
        <time>2015-05-29T19:36:14Z</time>
      </trkpt>
      <trkpt lat="37.420561" lon="-122.169351">
        <ele>38.5</ele>
        <time>2015-05-29T19:36:16Z</time>
      </trkpt>
      <trkpt lat="37.420543" lon="-122.16938">
        <ele>38.5</ele>
        <time>2015-05-29T19:36:17Z</time>
      </trkpt>
      <trkpt lat="37.420525" lon="-122.16941">
        <ele>38.5</ele>
        <time>2015-05-29T19:36:18Z</time>
      </trkpt>
      <trkpt lat="37.420504" lon="-122.169438">
        <ele>38.5</ele>
        <time>2015-05-29T19:36:19Z</time>
      </trkpt>
      <trkpt lat="37.420484" lon="-122.169462">
        <ele>38.6</ele>
        <time>2015-05-29T19:36:20Z</time>
      </trkpt>
      <trkpt lat="37.420455" lon="-122.169491">
        <ele>38.7</ele>
        <time>2015-05-29T19:36:22Z</time>
      </trkpt>
      <trkpt lat="37.420429" lon="-122.169526">
        <ele>39</ele>
        <time>2015-05-29T19:36:24Z</time>
      </trkpt>
      <trkpt lat="37.420407" lon="-122.169566">
        <ele>39.2</ele>
        <time>2015-05-29T19:36:26Z</time>
      </trkpt>
      <trkpt lat="37.420378" lon="-122.169602">
        <ele>39.4</ele>
        <time>2015-05-29T19:36:28Z</time>
      </trkpt>
      <trkpt lat="37.420344" lon="-122.169633">
        <ele>39.6</ele>
        <time>2015-05-29T19:36:30Z</time>
      </trkpt>
      <trkpt lat="37.420323" lon="-122.169669">
        <ele>39.7</ele>
        <time>2015-05-29T19:36:32Z</time>
      </trkpt>
      <trkpt lat="37.42029" lon="-122.169719">
        <ele>39.8</ele>
        <time>2015-05-29T19:36:34Z</time>
      </trkpt>
      <trkpt lat="37.420258" lon="-122.169765">
        <ele>39.8</ele>
        <time>2015-05-29T19:36:36Z</time>
      </trkpt>
      <trkpt lat="37.420226" lon="-122.169805">
        <ele>39.9</ele>
        <time>2015-05-29T19:36:38Z</time>
      </trkpt>
      <trkpt lat="37.420185" lon="-122.169842">
        <ele>39.6</ele>
        <time>2015-05-29T19:36:40Z</time>
      </trkpt>
      <trkpt lat="37.420145" lon="-122.169889">
        <ele>39.3</ele>
        <time>2015-05-29T19:36:42Z</time>
      </trkpt>
      <trkpt lat="37.42011" lon="-122.169935">
        <ele>39.2</ele>
        <time>2015-05-29T19:36:44Z</time>
      </trkpt>
      <trkpt lat="37.420079" lon="-122.169967">
        <ele>39.1</ele>
        <time>2015-05-29T19:36:46Z</time>
      </trkpt>
      <trkpt lat="37.420054" lon="-122.170009">
        <ele>39.4</ele>
        <time>2015-05-29T19:36:48Z</time>
      </trkpt>
      <trkpt lat="37.420021" lon="-122.170047">
        <ele>39.5</ele>
        <time>2015-05-29T19:36:50Z</time>
      </trkpt>
      <trkpt lat="37.419993" lon="-122.170074">
        <ele>39.4</ele>
        <time>2015-05-29T19:36:52Z</time>
      </trkpt>
      <trkpt lat="37.419964" lon="-122.170094">
        <ele>39.2</ele>
        <time>2015-05-29T19:36:54Z</time>
      </trkpt>
      <trkpt lat="37.41994" lon="-122.170127">
        <ele>39.2</ele>
        <time>2015-05-29T19:36:56Z</time>
      </trkpt>
      <trkpt lat="37.419913" lon="-122.170164">
        <ele>39.3</ele>
        <time>2015-05-29T19:36:58Z</time>
      </trkpt>
      <trkpt lat="37.419886" lon="-122.170216">
        <ele>39.7</ele>
        <time>2015-05-29T19:37:00Z</time>
      </trkpt>
      <trkpt lat="37.419869" lon="-122.170269">
        <ele>40</ele>
        <time>2015-05-29T19:37:02Z</time>
      </trkpt>
      <trkpt lat="37.419852" lon="-122.170317">
        <ele>40.3</ele>
        <time>2015-05-29T19:37:04Z</time>
      </trkpt>
      <trkpt lat="37.419834" lon="-122.170346">
        <ele>40.4</ele>
        <time>2015-05-29T19:37:05Z</time>
      </trkpt>
      <trkpt lat="37.419813" lon="-122.170374">
        <ele>40.5</ele>
        <time>2015-05-29T19:37:06Z</time>
      </trkpt>
      <trkpt lat="37.419782" lon="-122.170405">
        <ele>40.4</ele>
        <time>2015-05-29T19:37:08Z</time>
      </trkpt>
      <trkpt lat="37.419743" lon="-122.170432">
        <ele>39.8</ele>
        <time>2015-05-29T19:37:10Z</time>
      </trkpt>
      <trkpt lat="37.419713" lon="-122.170467">
        <ele>39.5</ele>
        <time>2015-05-29T19:37:12Z</time>
      </trkpt>
      <trkpt lat="37.419691" lon="-122.170522">
        <ele>39.5</ele>
        <time>2015-05-29T19:37:14Z</time>
      </trkpt>
      <trkpt lat="37.419673" lon="-122.170573">
        <ele>39.6</ele>
        <time>2015-05-29T19:37:16Z</time>
      </trkpt>
      <trkpt lat="37.419649" lon="-122.170619">
        <ele>39.8</ele>
        <time>2015-05-29T19:37:18Z</time>
      </trkpt>
      <trkpt lat="37.419618" lon="-122.170656">
        <ele>39.8</ele>
        <time>2015-05-29T19:37:20Z</time>
      </trkpt>
      <trkpt lat="37.419585" lon="-122.170681">
        <ele>40</ele>
        <time>2015-05-29T19:37:22Z</time>
      </trkpt>
      <trkpt lat="37.419554" lon="-122.170707">
        <ele>40.2</ele>
        <time>2015-05-29T19:37:24Z</time>
      </trkpt>
      <trkpt lat="37.419528" lon="-122.170754">
        <ele>40.3</ele>
        <time>2015-05-29T19:37:26Z</time>
      </trkpt>
      <trkpt lat="37.419509" lon="-122.1708">
        <ele>40.5</ele>
        <time>2015-05-29T19:37:28Z</time>
      </trkpt>
      <trkpt lat="37.419487" lon="-122.170842">
        <ele>40.6</ele>
        <time>2015-05-29T19:37:30Z</time>
      </trkpt>
      <trkpt lat="37.419464" lon="-122.170889">
        <ele>40.8</ele>
        <time>2015-05-29T19:37:32Z</time>
      </trkpt>
      <trkpt lat="37.419446" lon="-122.170932">
        <ele>40.9</ele>
        <time>2015-05-29T19:37:34Z</time>
      </trkpt>
      <trkpt lat="37.41943" lon="-122.170964">
        <ele>41.1</ele>
        <time>2015-05-29T19:37:36Z</time>
      </trkpt>
      <trkpt lat="37.419412" lon="-122.170999">
        <ele>41.2</ele>
        <time>2015-05-29T19:37:38Z</time>
      </trkpt>
      <trkpt lat="37.419404" lon="-122.171042">
        <ele>41.2</ele>
        <time>2015-05-29T19:37:40Z</time>
      </trkpt>
      <trkpt lat="37.419387" lon="-122.171092">
        <ele>41.4</ele>
        <time>2015-05-29T19:37:42Z</time>
      </trkpt>
      <trkpt lat="37.419372" lon="-122.171143">
        <ele>41.5</ele>
        <time>2015-05-29T19:37:44Z</time>
      </trkpt>
      <trkpt lat="37.419373" lon="-122.171193">
        <ele>41.7</ele>
        <time>2015-05-29T19:37:46Z</time>
      </trkpt>
      <trkpt lat="37.419373" lon="-122.171262">
        <ele>41.8</ele>
        <time>2015-05-29T19:37:48Z</time>
      </trkpt>
      <trkpt lat="37.419371" lon="-122.171297">
        <ele>41.8</ele>
        <time>2015-05-29T19:37:49Z</time>
      </trkpt>
      <trkpt lat="37.419369" lon="-122.171331">
        <ele>41.9</ele>
        <time>2015-05-29T19:37:50Z</time>
      </trkpt>
      <trkpt lat="37.419366" lon="-122.171366">
        <ele>42</ele>
        <time>2015-05-29T19:37:51Z</time>
      </trkpt>
      <trkpt lat="37.419365" lon="-122.1714">
        <ele>42</ele>
        <time>2015-05-29T19:37:52Z</time>
      </trkpt>
      <trkpt lat="37.419362" lon="-122.171458">
        <ele>42</ele>
        <time>2015-05-29T19:37:54Z</time>
      </trkpt>
      <trkpt lat="37.419359" lon="-122.171511">
        <ele>42.1</ele>
        <time>2015-05-29T19:37:56Z</time>
      </trkpt>
      <trkpt lat="37.419343" lon="-122.17156">
        <ele>42.2</ele>
        <time>2015-05-29T19:37:58Z</time>
      </trkpt>
      <trkpt lat="37.419331" lon="-122.171608">
        <ele>42.4</ele>
        <time>2015-05-29T19:38:00Z</time>
      </trkpt>
      <trkpt lat="37.419316" lon="-122.171658">
        <ele>42.6</ele>
        <time>2015-05-29T19:38:02Z</time>
      </trkpt>
      <trkpt lat="37.419299" lon="-122.171703">
        <ele>42.8</ele>
        <time>2015-05-29T19:38:04Z</time>
      </trkpt>
      <trkpt lat="37.419286" lon="-122.171757">
        <ele>43</ele>
        <time>2015-05-29T19:38:06Z</time>
      </trkpt>
      <trkpt lat="37.419276" lon="-122.171803">
        <ele>43.2</ele>
        <time>2015-05-29T19:38:08Z</time>
      </trkpt>
      <trkpt lat="37.419259" lon="-122.17185">
        <ele>43.3</ele>
        <time>2015-05-29T19:38:10Z</time>
      </trkpt>
      <trkpt lat="37.419239" lon="-122.171901">
        <ele>43.6</ele>
        <time>2015-05-29T19:38:12Z</time>
      </trkpt>
      <trkpt lat="37.419233" lon="-122.171948">
        <ele>43.6</ele>
        <time>2015-05-29T19:38:14Z</time>
      </trkpt>
      <trkpt lat="37.419225" lon="-122.171994">
        <ele>43.7</ele>
        <time>2015-05-29T19:38:16Z</time>
      </trkpt>
      <trkpt lat="37.419219" lon="-122.172036">
        <ele>43.8</ele>
        <time>2015-05-29T19:38:18Z</time>
      </trkpt>
      <trkpt lat="37.419218" lon="-122.172075">
        <ele>43.8</ele>
        <time>2015-05-29T19:38:20Z</time>
      </trkpt>
      <trkpt lat="37.419209" lon="-122.172127">
        <ele>44</ele>
        <time>2015-05-29T19:38:22Z</time>
      </trkpt>
      <trkpt lat="37.419196" lon="-122.172172">
        <ele>44.1</ele>
        <time>2015-05-29T19:38:24Z</time>
      </trkpt>
      <trkpt lat="37.419186" lon="-122.172231">
        <ele>44.3</ele>
        <time>2015-05-29T19:38:26Z</time>
      </trkpt>
      <trkpt lat="37.419186" lon="-122.172295">
        <ele>44.4</ele>
        <time>2015-05-29T19:38:28Z</time>
      </trkpt>
      <trkpt lat="37.419191" lon="-122.172355">
        <ele>44.4</ele>
        <time>2015-05-29T19:38:30Z</time>
      </trkpt>
      <trkpt lat="37.419197" lon="-122.172406">
        <ele>44.4</ele>
        <time>2015-05-29T19:38:32Z</time>
      </trkpt>
      <trkpt lat="37.419198" lon="-122.172448">
        <ele>44.4</ele>
        <time>2015-05-29T19:38:34Z</time>
      </trkpt>
      <trkpt lat="37.419201" lon="-122.172497">
        <ele>44.4</ele>
        <time>2015-05-29T19:38:36Z</time>
      </trkpt>
      <trkpt lat="37.419207" lon="-122.172543">
        <ele>44.5</ele>
        <time>2015-05-29T19:38:38Z</time>
      </trkpt>
      <trkpt lat="37.419208" lon="-122.172592">
        <ele>44.5</ele>
        <time>2015-05-29T19:38:40Z</time>
      </trkpt>
      <trkpt lat="37.419207" lon="-122.172639">
        <ele>44.6</ele>
        <time>2015-05-29T19:38:42Z</time>
      </trkpt>
      <trkpt lat="37.419204" lon="-122.172678">
        <ele>44.7</ele>
        <time>2015-05-29T19:38:44Z</time>
      </trkpt>
      <trkpt lat="37.419191" lon="-122.172723">
        <ele>44.7</ele>
        <time>2015-05-29T19:38:46Z</time>
      </trkpt>
      <trkpt lat="37.419177" lon="-122.172769">
        <ele>44.9</ele>
        <time>2015-05-29T19:38:48Z</time>
      </trkpt>
      <trkpt lat="37.419162" lon="-122.17281">
        <ele>45.1</ele>
        <time>2015-05-29T19:38:50Z</time>
      </trkpt>
      <trkpt lat="37.419155" lon="-122.172854">
        <ele>45.1</ele>
        <time>2015-05-29T19:38:52Z</time>
      </trkpt>
      <trkpt lat="37.419154" lon="-122.172905">
        <ele>45.1</ele>
        <time>2015-05-29T19:38:54Z</time>
      </trkpt>
      <trkpt lat="37.419153" lon="-122.172949">
        <ele>45.3</ele>
        <time>2015-05-29T19:38:56Z</time>
      </trkpt>
      <trkpt lat="37.419142" lon="-122.172995">
        <ele>45.4</ele>
        <time>2015-05-29T19:38:58Z</time>
      </trkpt>
      <trkpt lat="37.419137" lon="-122.173047">
        <ele>45.5</ele>
        <time>2015-05-29T19:39:00Z</time>
      </trkpt>
      <trkpt lat="37.419139" lon="-122.173098">
        <ele>45.5</ele>
        <time>2015-05-29T19:39:02Z</time>
      </trkpt>
      <trkpt lat="37.419146" lon="-122.173147">
        <ele>45.6</ele>
        <time>2015-05-29T19:39:04Z</time>
      </trkpt>
      <trkpt lat="37.419157" lon="-122.173211">
        <ele>45.8</ele>
        <time>2015-05-29T19:39:06Z</time>
      </trkpt>
      <trkpt lat="37.419169" lon="-122.173269">
        <ele>46.1</ele>
        <time>2015-05-29T19:39:08Z</time>
      </trkpt>
      <trkpt lat="37.419175" lon="-122.173317">
        <ele>46.3</ele>
        <time>2015-05-29T19:39:10Z</time>
      </trkpt>
      <trkpt lat="37.419167" lon="-122.1734">
        <ele>46.5</ele>
        <time>2015-05-29T19:39:13Z</time>
      </trkpt>
      <trkpt lat="37.419162" lon="-122.173435">
        <ele>46.5</ele>
        <time>2015-05-29T19:39:16Z</time>
      </trkpt>
      <trkpt lat="37.419157" lon="-122.173469">
        <ele>46.5</ele>
        <time>2015-05-29T19:39:17Z</time>
      </trkpt>
      <trkpt lat="37.419141" lon="-122.173526">
        <ele>46.5</ele>
        <time>2015-05-29T19:39:19Z</time>
      </trkpt>
      <trkpt lat="37.419116" lon="-122.173567">
        <ele>46.5</ele>
        <time>2015-05-29T19:39:21Z</time>
      </trkpt>
      <trkpt lat="37.419076" lon="-122.173588">
        <ele>46.5</ele>
        <time>2015-05-29T19:39:23Z</time>
      </trkpt>
      <trkpt lat="37.419031" lon="-122.173597">
        <ele>46.6</ele>
        <time>2015-05-29T19:39:25Z</time>
      </trkpt>
      <trkpt lat="37.418996" lon="-122.173605">
        <ele>46.5</ele>
        <time>2015-05-29T19:39:27Z</time>
      </trkpt>
      <trkpt lat="37.418962" lon="-122.173616">
        <ele>46.7</ele>
        <time>2015-05-29T19:39:29Z</time>
      </trkpt>
      <trkpt lat="37.418923" lon="-122.173638">
        <ele>47</ele>
        <time>2015-05-29T19:39:31Z</time>
      </trkpt>
      <trkpt lat="37.418882" lon="-122.173654">
        <ele>47</ele>
        <time>2015-05-29T19:39:33Z</time>
      </trkpt>
      <trkpt lat="37.418839" lon="-122.173665">
        <ele>46.5</ele>
        <time>2015-05-29T19:39:35Z</time>
      </trkpt>
      <trkpt lat="37.418803" lon="-122.173671">
        <ele>46.9</ele>
        <time>2015-05-29T19:39:37Z</time>
      </trkpt>
      <trkpt lat="37.418771" lon="-122.173688">
        <ele>46.9</ele>
        <time>2015-05-29T19:39:39Z</time>
      </trkpt>
      <trkpt lat="37.418733" lon="-122.173703">
        <ele>46.9</ele>
        <time>2015-05-29T19:39:41Z</time>
      </trkpt>
      <trkpt lat="37.418697" lon="-122.17371">
        <ele>46.8</ele>
        <time>2015-05-29T19:39:43Z</time>
      </trkpt>
      <trkpt lat="37.418659" lon="-122.173721">
        <ele>47.1</ele>
        <time>2015-05-29T19:39:45Z</time>
      </trkpt>
      <trkpt lat="37.418612" lon="-122.173733">
        <ele>47.1</ele>
        <time>2015-05-29T19:39:47Z</time>
      </trkpt>
      <trkpt lat="37.418584" lon="-122.173742">
        <ele>47.1</ele>
        <time>2015-05-29T19:39:48Z</time>
      </trkpt>
      <trkpt lat="37.418546" lon="-122.173751">
        <ele>47.2</ele>
        <time>2015-05-29T19:39:50Z</time>
      </trkpt>
      <trkpt lat="37.418504" lon="-122.173765">
        <ele>47.3</ele>
        <time>2015-05-29T19:39:52Z</time>
      </trkpt>
      <trkpt lat="37.418474" lon="-122.173767">
        <ele>47.3</ele>
        <time>2015-05-29T19:39:54Z</time>
      </trkpt>
      <trkpt lat="37.418438" lon="-122.173767">
        <ele>47.4</ele>
        <time>2015-05-29T19:39:56Z</time>
      </trkpt>
      <trkpt lat="37.418399" lon="-122.173773">
        <ele>47.5</ele>
        <time>2015-05-29T19:39:58Z</time>
      </trkpt>
      <trkpt lat="37.418362" lon="-122.173787">
        <ele>47.6</ele>
        <time>2015-05-29T19:40:00Z</time>
      </trkpt>
      <trkpt lat="37.418317" lon="-122.173802">
        <ele>47.7</ele>
        <time>2015-05-29T19:40:02Z</time>
      </trkpt>
      <trkpt lat="37.418274" lon="-122.173815">
        <ele>47.8</ele>
        <time>2015-05-29T19:40:04Z</time>
      </trkpt>
      <trkpt lat="37.418232" lon="-122.173837">
        <ele>47.9</ele>
        <time>2015-05-29T19:40:06Z</time>
      </trkpt>
      <trkpt lat="37.418193" lon="-122.173855">
        <ele>47.9</ele>
        <time>2015-05-29T19:40:08Z</time>
      </trkpt>
      <trkpt lat="37.418156" lon="-122.173864">
        <ele>47.9</ele>
        <time>2015-05-29T19:40:10Z</time>
      </trkpt>
      <trkpt lat="37.418116" lon="-122.173876">
        <ele>48</ele>
        <time>2015-05-29T19:40:12Z</time>
      </trkpt>
      <trkpt lat="37.418074" lon="-122.173894">
        <ele>48.1</ele>
        <time>2015-05-29T19:40:14Z</time>
      </trkpt>
      <trkpt lat="37.418049" lon="-122.173908">
        <ele>48.1</ele>
        <time>2015-05-29T19:40:15Z</time>
      </trkpt>
      <trkpt lat="37.418" lon="-122.173942">
        <ele>48.2</ele>
        <time>2015-05-29T19:40:17Z</time>
      </trkpt>
      <trkpt lat="37.417968" lon="-122.173964">
        <ele>48.2</ele>
        <time>2015-05-29T19:40:19Z</time>
      </trkpt>
      <trkpt lat="37.417935" lon="-122.173987">
        <ele>48.3</ele>
        <time>2015-05-29T19:40:21Z</time>
      </trkpt>
      <trkpt lat="37.417893" lon="-122.174007">
        <ele>48.3</ele>
        <time>2015-05-29T19:40:24Z</time>
      </trkpt>
      <trkpt lat="37.417855" lon="-122.174026">
        <ele>48.3</ele>
        <time>2015-05-29T19:40:25Z</time>
      </trkpt>
      <trkpt lat="37.417823" lon="-122.17405">
        <ele>48.5</ele>
        <time>2015-05-29T19:40:27Z</time>
      </trkpt>
      <trkpt lat="37.417785" lon="-122.174086">
        <ele>48.6</ele>
        <time>2015-05-29T19:40:29Z</time>
      </trkpt>
      <trkpt lat="37.417749" lon="-122.17411">
        <ele>48.8</ele>
        <time>2015-05-29T19:40:31Z</time>
      </trkpt>
      <trkpt lat="37.417708" lon="-122.174127">
        <ele>48.8</ele>
        <time>2015-05-29T19:40:33Z</time>
      </trkpt>
      <trkpt lat="37.417663" lon="-122.174145">
        <ele>48.9</ele>
        <time>2015-05-29T19:40:35Z</time>
      </trkpt>
      <trkpt lat="37.417618" lon="-122.174157">
        <ele>49.1</ele>
        <time>2015-05-29T19:40:37Z</time>
      </trkpt>
      <trkpt lat="37.417581" lon="-122.174159">
        <ele>49.3</ele>
        <time>2015-05-29T19:40:39Z</time>
      </trkpt>
      <trkpt lat="37.417544" lon="-122.174155">
        <ele>49.4</ele>
        <time>2015-05-29T19:40:41Z</time>
      </trkpt>
      <trkpt lat="37.417508" lon="-122.174162">
        <ele>49.6</ele>
        <time>2015-05-29T19:40:43Z</time>
      </trkpt>
      <trkpt lat="37.417465" lon="-122.174177">
        <ele>49.9</ele>
        <time>2015-05-29T19:40:45Z</time>
      </trkpt>
      <trkpt lat="37.417439" lon="-122.174157">
        <ele>50</ele>
        <time>2015-05-29T19:40:47Z</time>
      </trkpt>
      <trkpt lat="37.41742" lon="-122.174121">
        <ele>50</ele>
        <time>2015-05-29T19:40:49Z</time>
      </trkpt>
      <trkpt lat="37.417388" lon="-122.174109">
        <ele>50.2</ele>
        <time>2015-05-29T19:40:51Z</time>
      </trkpt>
      <trkpt lat="37.417343" lon="-122.174124">
        <ele>50.5</ele>
        <time>2015-05-29T19:40:53Z</time>
      </trkpt>
      <trkpt lat="37.417316" lon="-122.174133">
        <ele>50.8</ele>
        <time>2015-05-29T19:40:54Z</time>
      </trkpt>
      <trkpt lat="37.417272" lon="-122.174141">
        <ele>51.4</ele>
        <time>2015-05-29T19:40:56Z</time>
      </trkpt>
      <trkpt lat="37.417242" lon="-122.174128">
        <ele>51.9</ele>
        <time>2015-05-29T19:40:58Z</time>
      </trkpt>
      <trkpt lat="37.417211" lon="-122.174098">
        <ele>52.2</ele>
        <time>2015-05-29T19:41:00Z</time>
      </trkpt>
      <trkpt lat="37.417188" lon="-122.174068">
        <ele>52.3</ele>
        <time>2015-05-29T19:41:02Z</time>
      </trkpt>
      <trkpt lat="37.417163" lon="-122.174034">
        <ele>52.4</ele>
        <time>2015-05-29T19:41:04Z</time>
      </trkpt>
      <trkpt lat="37.417133" lon="-122.173989">
        <ele>52.5</ele>
        <time>2015-05-29T19:41:06Z</time>
      </trkpt>
      <trkpt lat="37.417105" lon="-122.17395">
        <ele>52.8</ele>
        <time>2015-05-29T19:41:08Z</time>
      </trkpt>
      <trkpt lat="37.417076" lon="-122.17391">
        <ele>53</ele>
        <time>2015-05-29T19:41:10Z</time>
      </trkpt>
      <trkpt lat="37.417047" lon="-122.173865">
        <ele>53.3</ele>
        <time>2015-05-29T19:41:13Z</time>
      </trkpt>
      <trkpt lat="37.417015" lon="-122.173819">
        <ele>53.5</ele>
        <time>2015-05-29T19:41:15Z</time>
      </trkpt>
      <trkpt lat="37.41698" lon="-122.173785">
        <ele>53.8</ele>
        <time>2015-05-29T19:41:17Z</time>
      </trkpt>
      <trkpt lat="37.416944" lon="-122.173751">
        <ele>54.4</ele>
        <time>2015-05-29T19:41:19Z</time>
      </trkpt>
      <trkpt lat="37.416907" lon="-122.173706">
        <ele>54.7</ele>
        <time>2015-05-29T19:41:21Z</time>
      </trkpt>
      <trkpt lat="37.41688" lon="-122.173679">
        <ele>54.9</ele>
        <time>2015-05-29T19:41:23Z</time>
      </trkpt>
      <trkpt lat="37.416853" lon="-122.173658">
        <ele>55</ele>
        <time>2015-05-29T19:41:25Z</time>
      </trkpt>
      <trkpt lat="37.416823" lon="-122.173623">
        <ele>55.3</ele>
        <time>2015-05-29T19:41:27Z</time>
      </trkpt>
      <trkpt lat="37.416786" lon="-122.17358">
        <ele>55.5</ele>
        <time>2015-05-29T19:41:29Z</time>
      </trkpt>
      <trkpt lat="37.416766" lon="-122.173556">
        <ele>55.7</ele>
        <time>2015-05-29T19:41:30Z</time>
      </trkpt>
      <trkpt lat="37.416725" lon="-122.173511">
        <ele>56</ele>
        <time>2015-05-29T19:41:32Z</time>
      </trkpt>
      <trkpt lat="37.416701" lon="-122.173489">
        <ele>56.1</ele>
        <time>2015-05-29T19:41:33Z</time>
      </trkpt>
      <trkpt lat="37.416673" lon="-122.173468">
        <ele>56.3</ele>
        <time>2015-05-29T19:41:34Z</time>
      </trkpt>
      <trkpt lat="37.416647" lon="-122.173448">
        <ele>56.5</ele>
        <time>2015-05-29T19:41:35Z</time>
      </trkpt>
      <trkpt lat="37.416594" lon="-122.173386">
        <ele>56.9</ele>
        <time>2015-05-29T19:41:38Z</time>
      </trkpt>
      <trkpt lat="37.416577" lon="-122.17336">
        <ele>57</ele>
        <time>2015-05-29T19:41:39Z</time>
      </trkpt>
      <trkpt lat="37.41656" lon="-122.173333">
        <ele>57.1</ele>
        <time>2015-05-29T19:41:40Z</time>
      </trkpt>
      <trkpt lat="37.416541" lon="-122.173306">
        <ele>57.3</ele>
        <time>2015-05-29T19:41:41Z</time>
      </trkpt>
      <trkpt lat="37.416519" lon="-122.17328">
        <ele>57.4</ele>
        <time>2015-05-29T19:41:42Z</time>
      </trkpt>
      <trkpt lat="37.41648" lon="-122.173245">
        <ele>57.5</ele>
        <time>2015-05-29T19:41:44Z</time>
      </trkpt>
      <trkpt lat="37.416453" lon="-122.173214">
        <ele>57.7</ele>
        <time>2015-05-29T19:41:46Z</time>
      </trkpt>
      <trkpt lat="37.416436" lon="-122.173175">
        <ele>57.8</ele>
        <time>2015-05-29T19:41:48Z</time>
      </trkpt>
      <trkpt lat="37.416418" lon="-122.173136">
        <ele>57.9</ele>
        <time>2015-05-29T19:41:50Z</time>
      </trkpt>
      <trkpt lat="37.416387" lon="-122.173092">
        <ele>58</ele>
        <time>2015-05-29T19:41:52Z</time>
      </trkpt>
      <trkpt lat="37.41637" lon="-122.173062">
        <ele>58</ele>
        <time>2015-05-29T19:41:54Z</time>
      </trkpt>
      <trkpt lat="37.416346" lon="-122.17302">
        <ele>58.2</ele>
        <time>2015-05-29T19:41:56Z</time>
      </trkpt>
      <trkpt lat="37.41632" lon="-122.172991">
        <ele>58.2</ele>
        <time>2015-05-29T19:41:58Z</time>
      </trkpt>
      <trkpt lat="37.416291" lon="-122.172956">
        <ele>58.3</ele>
        <time>2015-05-29T19:42:00Z</time>
      </trkpt>
      <trkpt lat="37.416271" lon="-122.172925">
        <ele>58.3</ele>
        <time>2015-05-29T19:42:02Z</time>
      </trkpt>
      <trkpt lat="37.416236" lon="-122.172877">
        <ele>58.3</ele>
        <time>2015-05-29T19:42:04Z</time>
      </trkpt>
      <trkpt lat="37.416215" lon="-122.172839">
        <ele>58.3</ele>
        <time>2015-05-29T19:42:06Z</time>
      </trkpt>
      <trkpt lat="37.416198" lon="-122.172798">
        <ele>58.3</ele>
        <time>2015-05-29T19:42:08Z</time>
      </trkpt>
      <trkpt lat="37.416177" lon="-122.172764">
        <ele>58.3</ele>
        <time>2015-05-29T19:42:10Z</time>
      </trkpt>
      <trkpt lat="37.416159" lon="-122.172724">
        <ele>58.2</ele>
        <time>2015-05-29T19:42:12Z</time>
      </trkpt>
      <trkpt lat="37.416135" lon="-122.172682">
        <ele>58.2</ele>
        <time>2015-05-29T19:42:14Z</time>
      </trkpt>
      <trkpt lat="37.416116" lon="-122.172644">
        <ele>58.2</ele>
        <time>2015-05-29T19:42:16Z</time>
      </trkpt>
      <trkpt lat="37.4161" lon="-122.172605">
        <ele>58.1</ele>
        <time>2015-05-29T19:42:18Z</time>
      </trkpt>
      <trkpt lat="37.416093" lon="-122.172568">
        <ele>58.1</ele>
        <time>2015-05-29T19:42:20Z</time>
      </trkpt>
      <trkpt lat="37.416073" lon="-122.172532">
        <ele>58</ele>
        <time>2015-05-29T19:42:22Z</time>
      </trkpt>
      <trkpt lat="37.416045" lon="-122.172495">
        <ele>58</ele>
        <time>2015-05-29T19:42:24Z</time>
      </trkpt>
      <trkpt lat="37.416025" lon="-122.17247">
        <ele>57.9</ele>
        <time>2015-05-29T19:42:25Z</time>
      </trkpt>
      <trkpt lat="37.415988" lon="-122.172427">
        <ele>57.8</ele>
        <time>2015-05-29T19:42:27Z</time>
      </trkpt>
      <trkpt lat="37.41595" lon="-122.172382">
        <ele>57.5</ele>
        <time>2015-05-29T19:42:29Z</time>
      </trkpt>
      <trkpt lat="37.415919" lon="-122.172346">
        <ele>57.3</ele>
        <time>2015-05-29T19:42:31Z</time>
      </trkpt>
      <trkpt lat="37.415888" lon="-122.172304">
        <ele>57.3</ele>
        <time>2015-05-29T19:42:33Z</time>
      </trkpt>
      <trkpt lat="37.415856" lon="-122.17226">
        <ele>57.3</ele>
        <time>2015-05-29T19:42:35Z</time>
      </trkpt>
      <trkpt lat="37.415828" lon="-122.172224">
        <ele>57.1</ele>
        <time>2015-05-29T19:42:37Z</time>
      </trkpt>
      <trkpt lat="37.415785" lon="-122.172188">
        <ele>57.2</ele>
        <time>2015-05-29T19:42:39Z</time>
      </trkpt>
      <trkpt lat="37.415749" lon="-122.172156">
        <ele>57.1</ele>
        <time>2015-05-29T19:42:41Z</time>
      </trkpt>
      <trkpt lat="37.415724" lon="-122.172117">
        <ele>56.8</ele>
        <time>2015-05-29T19:42:43Z</time>
      </trkpt>
      <trkpt lat="37.415704" lon="-122.172074">
        <ele>56.5</ele>
        <time>2015-05-29T19:42:45Z</time>
      </trkpt>
      <trkpt lat="37.415691" lon="-122.172032">
        <ele>56.2</ele>
        <time>2015-05-29T19:42:47Z</time>
      </trkpt>
      <trkpt lat="37.415681" lon="-122.171989">
        <ele>56</ele>
        <time>2015-05-29T19:42:49Z</time>
      </trkpt>
      <trkpt lat="37.415663" lon="-122.171956">
        <ele>56.2</ele>
        <time>2015-05-29T19:42:51Z</time>
      </trkpt>
      <trkpt lat="37.415634" lon="-122.171911">
        <ele>56.4</ele>
        <time>2015-05-29T19:42:53Z</time>
      </trkpt>
      <trkpt lat="37.415602" lon="-122.17188">
        <ele>56.5</ele>
        <time>2015-05-29T19:42:55Z</time>
      </trkpt>
      <trkpt lat="37.415575" lon="-122.171859">
        <ele>56.5</ele>
        <time>2015-05-29T19:42:57Z</time>
      </trkpt>
      <trkpt lat="37.415548" lon="-122.171826">
        <ele>56.5</ele>
        <time>2015-05-29T19:42:59Z</time>
      </trkpt>
      <trkpt lat="37.415523" lon="-122.171786">
        <ele>56.4</ele>
        <time>2015-05-29T19:43:01Z</time>
      </trkpt>
      <trkpt lat="37.4155" lon="-122.171748">
        <ele>56.2</ele>
        <time>2015-05-29T19:43:03Z</time>
      </trkpt>
      <trkpt lat="37.415478" lon="-122.171717">
        <ele>56.2</ele>
        <time>2015-05-29T19:43:05Z</time>
      </trkpt>
      <trkpt lat="37.415451" lon="-122.171678">
        <ele>56.1</ele>
        <time>2015-05-29T19:43:07Z</time>
      </trkpt>
      <trkpt lat="37.415421" lon="-122.17164">
        <ele>56.1</ele>
        <time>2015-05-29T19:43:09Z</time>
      </trkpt>
      <trkpt lat="37.415397" lon="-122.171599">
        <ele>56.2</ele>
        <time>2015-05-29T19:43:11Z</time>
      </trkpt>
      <trkpt lat="37.415364" lon="-122.171548">
        <ele>56.1</ele>
        <time>2015-05-29T19:43:13Z</time>
      </trkpt>
      <trkpt lat="37.415343" lon="-122.171524">
        <ele>56.1</ele>
        <time>2015-05-29T19:43:14Z</time>
      </trkpt>
      <trkpt lat="37.415321" lon="-122.171498">
        <ele>56.2</ele>
        <time>2015-05-29T19:43:15Z</time>
      </trkpt>
      <trkpt lat="37.415288" lon="-122.171455">
        <ele>56.3</ele>
        <time>2015-05-29T19:43:17Z</time>
      </trkpt>
      <trkpt lat="37.415258" lon="-122.171413">
        <ele>56.4</ele>
        <time>2015-05-29T19:43:19Z</time>
      </trkpt>
      <trkpt lat="37.415229" lon="-122.17137">
        <ele>56.4</ele>
        <time>2015-05-29T19:43:21Z</time>
      </trkpt>
      <trkpt lat="37.415201" lon="-122.171335">
        <ele>56.4</ele>
        <time>2015-05-29T19:43:23Z</time>
      </trkpt>
      <trkpt lat="37.415164" lon="-122.17129">
        <ele>56.5</ele>
        <time>2015-05-29T19:43:25Z</time>
      </trkpt>
      <trkpt lat="37.41514" lon="-122.17126">
        <ele>56.5</ele>
        <time>2015-05-29T19:43:27Z</time>
      </trkpt>
      <trkpt lat="37.41511" lon="-122.171224">
        <ele>56.5</ele>
        <time>2015-05-29T19:43:29Z</time>
      </trkpt>
      <trkpt lat="37.415078" lon="-122.171181">
        <ele>56.6</ele>
        <time>2015-05-29T19:43:31Z</time>
      </trkpt>
      <trkpt lat="37.415038" lon="-122.171135">
        <ele>56.6</ele>
        <time>2015-05-29T19:43:33Z</time>
      </trkpt>
      <trkpt lat="37.415016" lon="-122.171112">
        <ele>56.6</ele>
        <time>2015-05-29T19:43:34Z</time>
      </trkpt>
      <trkpt lat="37.414981" lon="-122.171072">
        <ele>56.7</ele>
        <time>2015-05-29T19:43:36Z</time>
      </trkpt>
      <trkpt lat="37.414958" lon="-122.171035">
        <ele>56.7</ele>
        <time>2015-05-29T19:43:38Z</time>
      </trkpt>
      <trkpt lat="37.414934" lon="-122.170991">
        <ele>56.7</ele>
        <time>2015-05-29T19:43:40Z</time>
      </trkpt>
      <trkpt lat="37.414908" lon="-122.170959">
        <ele>56.8</ele>
        <time>2015-05-29T19:43:42Z</time>
      </trkpt>
      <trkpt lat="37.414873" lon="-122.170926">
        <ele>56.9</ele>
        <time>2015-05-29T19:43:44Z</time>
      </trkpt>
      <trkpt lat="37.414845" lon="-122.170884">
        <ele>56.9</ele>
        <time>2015-05-29T19:43:46Z</time>
      </trkpt>
      <trkpt lat="37.414822" lon="-122.170841">
        <ele>56.9</ele>
        <time>2015-05-29T19:43:48Z</time>
      </trkpt>
      <trkpt lat="37.414802" lon="-122.170817">
        <ele>56.9</ele>
        <time>2015-05-29T19:43:49Z</time>
      </trkpt>
      <trkpt lat="37.414773" lon="-122.170772">
        <ele>57.1</ele>
        <time>2015-05-29T19:43:51Z</time>
      </trkpt>
      <trkpt lat="37.414751" lon="-122.170733">
        <ele>57.2</ele>
        <time>2015-05-29T19:43:53Z</time>
      </trkpt>
      <trkpt lat="37.414729" lon="-122.170695">
        <ele>57.2</ele>
        <time>2015-05-29T19:43:55Z</time>
      </trkpt>
      <trkpt lat="37.414709" lon="-122.170661">
        <ele>57.2</ele>
        <time>2015-05-29T19:43:57Z</time>
      </trkpt>
      <trkpt lat="37.414685" lon="-122.170613">
        <ele>57.4</ele>
        <time>2015-05-29T19:44:00Z</time>
      </trkpt>
      <trkpt lat="37.414656" lon="-122.170563">
        <ele>57.5</ele>
        <time>2015-05-29T19:44:02Z</time>
      </trkpt>
      <trkpt lat="37.414623" lon="-122.170519">
        <ele>57.6</ele>
        <time>2015-05-29T19:44:04Z</time>
      </trkpt>
      <trkpt lat="37.414596" lon="-122.170482">
        <ele>57.8</ele>
        <time>2015-05-29T19:44:06Z</time>
      </trkpt>
      <trkpt lat="37.414571" lon="-122.170457">
        <ele>57.9</ele>
        <time>2015-05-29T19:44:08Z</time>
      </trkpt>
      <trkpt lat="37.414551" lon="-122.170431">
        <ele>58</ele>
        <time>2015-05-29T19:44:10Z</time>
      </trkpt>
      <trkpt lat="37.414528" lon="-122.170384">
        <ele>58.2</ele>
        <time>2015-05-29T19:44:12Z</time>
      </trkpt>
      <trkpt lat="37.414511" lon="-122.170353">
        <ele>58.3</ele>
        <time>2015-05-29T19:44:13Z</time>
      </trkpt>
      <trkpt lat="37.414494" lon="-122.170323">
        <ele>58.4</ele>
        <time>2015-05-29T19:44:14Z</time>
      </trkpt>
      <trkpt lat="37.414477" lon="-122.170295">
        <ele>58.6</ele>
        <time>2015-05-29T19:44:15Z</time>
      </trkpt>
      <trkpt lat="37.414447" lon="-122.170246">
        <ele>58.9</ele>
        <time>2015-05-29T19:44:17Z</time>
      </trkpt>
      <trkpt lat="37.41443" lon="-122.170219">
        <ele>59</ele>
        <time>2015-05-29T19:44:18Z</time>
      </trkpt>
      <trkpt lat="37.414403" lon="-122.170168">
        <ele>59.4</ele>
        <time>2015-05-29T19:44:20Z</time>
      </trkpt>
      <trkpt lat="37.414376" lon="-122.170112">
        <ele>59.7</ele>
        <time>2015-05-29T19:44:22Z</time>
      </trkpt>
      <trkpt lat="37.414347" lon="-122.170064">
        <ele>60</ele>
        <time>2015-05-29T19:44:24Z</time>
      </trkpt>
      <trkpt lat="37.414325" lon="-122.170031">
        <ele>60.2</ele>
        <time>2015-05-29T19:44:26Z</time>
      </trkpt>
      <trkpt lat="37.414302" lon="-122.169992">
        <ele>60.4</ele>
        <time>2015-05-29T19:44:28Z</time>
      </trkpt>
      <trkpt lat="37.414253" lon="-122.169924">
        <ele>61</ele>
        <time>2015-05-29T19:44:31Z</time>
      </trkpt>
      <trkpt lat="37.41424" lon="-122.169905">
        <ele>61.1</ele>
        <time>2015-05-29T19:44:32Z</time>
      </trkpt>
      <trkpt lat="37.414206" lon="-122.169858">
        <ele>61.6</ele>
        <time>2015-05-29T19:44:34Z</time>
      </trkpt>
      <trkpt lat="37.414173" lon="-122.169815">
        <ele>62</ele>
        <time>2015-05-29T19:44:36Z</time>
      </trkpt>
      <trkpt lat="37.414141" lon="-122.169767">
        <ele>62.4</ele>
        <time>2015-05-29T19:44:38Z</time>
      </trkpt>
      <trkpt lat="37.414106" lon="-122.169725">
        <ele>62.9</ele>
        <time>2015-05-29T19:44:40Z</time>
      </trkpt>
      <trkpt lat="37.414076" lon="-122.169683">
        <ele>63.2</ele>
        <time>2015-05-29T19:44:42Z</time>
      </trkpt>
      <trkpt lat="37.414054" lon="-122.169641">
        <ele>63.5</ele>
        <time>2015-05-29T19:44:44Z</time>
      </trkpt>
      <trkpt lat="37.414026" lon="-122.169593">
        <ele>63.8</ele>
        <time>2015-05-29T19:44:46Z</time>
      </trkpt>
      <trkpt lat="37.413995" lon="-122.169556">
        <ele>64</ele>
        <time>2015-05-29T19:44:48Z</time>
      </trkpt>
      <trkpt lat="37.413964" lon="-122.16951">
        <ele>64.3</ele>
        <time>2015-05-29T19:44:50Z</time>
      </trkpt>
      <trkpt lat="37.413932" lon="-122.169471">
        <ele>64.6</ele>
        <time>2015-05-29T19:44:52Z</time>
      </trkpt>
      <trkpt lat="37.413905" lon="-122.169439">
        <ele>64.6</ele>
        <time>2015-05-29T19:44:54Z</time>
      </trkpt>
      <trkpt lat="37.41387" lon="-122.169393">
        <ele>64.7</ele>
        <time>2015-05-29T19:44:56Z</time>
      </trkpt>
      <trkpt lat="37.413851" lon="-122.169365">
        <ele>64.8</ele>
        <time>2015-05-29T19:44:57Z</time>
      </trkpt>
      <trkpt lat="37.41382" lon="-122.169321">
        <ele>64.8</ele>
        <time>2015-05-29T19:44:59Z</time>
      </trkpt>
      <trkpt lat="37.413793" lon="-122.169282">
        <ele>64.8</ele>
        <time>2015-05-29T19:45:01Z</time>
      </trkpt>
      <trkpt lat="37.413774" lon="-122.169251">
        <ele>64.7</ele>
        <time>2015-05-29T19:45:03Z</time>
      </trkpt>
      <trkpt lat="37.413756" lon="-122.169209">
        <ele>64.6</ele>
        <time>2015-05-29T19:45:05Z</time>
      </trkpt>
      <trkpt lat="37.413734" lon="-122.169166">
        <ele>64.5</ele>
        <time>2015-05-29T19:45:07Z</time>
      </trkpt>
      <trkpt lat="37.413706" lon="-122.169138">
        <ele>64.4</ele>
        <time>2015-05-29T19:45:09Z</time>
      </trkpt>
      <trkpt lat="37.413679" lon="-122.169111">
        <ele>64.2</ele>
        <time>2015-05-29T19:45:11Z</time>
      </trkpt>
      <trkpt lat="37.413642" lon="-122.169069">
        <ele>64</ele>
        <time>2015-05-29T19:45:13Z</time>
      </trkpt>
      <trkpt lat="37.413611" lon="-122.169023">
        <ele>63.7</ele>
        <time>2015-05-29T19:45:15Z</time>
      </trkpt>
      <trkpt lat="37.413601" lon="-122.168982">
        <ele>63.5</ele>
        <time>2015-05-29T19:45:17Z</time>
      </trkpt>
      <trkpt lat="37.413586" lon="-122.168926">
        <ele>63.2</ele>
        <time>2015-05-29T19:45:19Z</time>
      </trkpt>
      <trkpt lat="37.41357" lon="-122.168868">
        <ele>62.9</ele>
        <time>2015-05-29T19:45:21Z</time>
      </trkpt>
      <trkpt lat="37.413549" lon="-122.168811">
        <ele>62.6</ele>
        <time>2015-05-29T19:45:23Z</time>
      </trkpt>
      <trkpt lat="37.413524" lon="-122.16876">
        <ele>62.3</ele>
        <time>2015-05-29T19:45:25Z</time>
      </trkpt>
      <trkpt lat="37.4135" lon="-122.168705">
        <ele>62</ele>
        <time>2015-05-29T19:45:27Z</time>
      </trkpt>
      <trkpt lat="37.413487" lon="-122.168673">
        <ele>61.8</ele>
        <time>2015-05-29T19:45:28Z</time>
      </trkpt>
      <trkpt lat="37.413474" lon="-122.168638">
        <ele>61.6</ele>
        <time>2015-05-29T19:45:29Z</time>
      </trkpt>
      <trkpt lat="37.413456" lon="-122.168581">
        <ele>61.5</ele>
        <time>2015-05-29T19:45:31Z</time>
      </trkpt>
      <trkpt lat="37.413442" lon="-122.168532">
        <ele>61.3</ele>
        <time>2015-05-29T19:45:33Z</time>
      </trkpt>
      <trkpt lat="37.413429" lon="-122.168476">
        <ele>61.1</ele>
        <time>2015-05-29T19:45:35Z</time>
      </trkpt>
      <trkpt lat="37.41341" lon="-122.168426">
        <ele>61</ele>
        <time>2015-05-29T19:45:37Z</time>
      </trkpt>
      <trkpt lat="37.413393" lon="-122.168381">
        <ele>60.8</ele>
        <time>2015-05-29T19:45:39Z</time>
      </trkpt>
      <trkpt lat="37.413377" lon="-122.168333">
        <ele>60.7</ele>
        <time>2015-05-29T19:45:41Z</time>
      </trkpt>
      <trkpt lat="37.413358" lon="-122.168281">
        <ele>60.5</ele>
        <time>2015-05-29T19:45:43Z</time>
      </trkpt>
      <trkpt lat="37.413341" lon="-122.168233">
        <ele>60.4</ele>
        <time>2015-05-29T19:45:45Z</time>
      </trkpt>
      <trkpt lat="37.413321" lon="-122.168187">
        <ele>60.3</ele>
        <time>2015-05-29T19:45:47Z</time>
      </trkpt>
      <trkpt lat="37.413301" lon="-122.168139">
        <ele>60.2</ele>
        <time>2015-05-29T19:45:49Z</time>
      </trkpt>
      <trkpt lat="37.413283" lon="-122.168085">
        <ele>60.1</ele>
        <time>2015-05-29T19:45:51Z</time>
      </trkpt>
      <trkpt lat="37.413274" lon="-122.168028">
        <ele>59.9</ele>
        <time>2015-05-29T19:45:53Z</time>
      </trkpt>
      <trkpt lat="37.41326" lon="-122.167975">
        <ele>59.8</ele>
        <time>2015-05-29T19:45:55Z</time>
      </trkpt>
      <trkpt lat="37.413248" lon="-122.16792">
        <ele>59.7</ele>
        <time>2015-05-29T19:45:57Z</time>
      </trkpt>
      <trkpt lat="37.413229" lon="-122.167871">
        <ele>59.6</ele>
        <time>2015-05-29T19:45:59Z</time>
      </trkpt>
      <trkpt lat="37.413207" lon="-122.167831">
        <ele>59.5</ele>
        <time>2015-05-29T19:46:01Z</time>
      </trkpt>
      <trkpt lat="37.413184" lon="-122.16778">
        <ele>59.5</ele>
        <time>2015-05-29T19:46:03Z</time>
      </trkpt>
      <trkpt lat="37.413153" lon="-122.167734">
        <ele>59.4</ele>
        <time>2015-05-29T19:46:05Z</time>
      </trkpt>
      <trkpt lat="37.413125" lon="-122.167693">
        <ele>59.4</ele>
        <time>2015-05-29T19:46:07Z</time>
      </trkpt>
      <trkpt lat="37.413106" lon="-122.167649">
        <ele>59.3</ele>
        <time>2015-05-29T19:46:09Z</time>
      </trkpt>
      <trkpt lat="37.41308" lon="-122.167605">
        <ele>59.2</ele>
        <time>2015-05-29T19:46:11Z</time>
      </trkpt>
      <trkpt lat="37.413051" lon="-122.167569">
        <ele>59.2</ele>
        <time>2015-05-29T19:46:13Z</time>
      </trkpt>
      <trkpt lat="37.413029" lon="-122.167511">
        <ele>59.1</ele>
        <time>2015-05-29T19:46:15Z</time>
      </trkpt>
      <trkpt lat="37.413021" lon="-122.167449">
        <ele>59</ele>
        <time>2015-05-29T19:46:17Z</time>
      </trkpt>
      <trkpt lat="37.413015" lon="-122.167396">
        <ele>58.9</ele>
        <time>2015-05-29T19:46:19Z</time>
      </trkpt>
      <trkpt lat="37.413012" lon="-122.167338">
        <ele>58.9</ele>
        <time>2015-05-29T19:46:21Z</time>
      </trkpt>
      <trkpt lat="37.413011" lon="-122.167288">
        <ele>58.8</ele>
        <time>2015-05-29T19:46:23Z</time>
      </trkpt>
      <trkpt lat="37.413014" lon="-122.167233">
        <ele>58.7</ele>
        <time>2015-05-29T19:46:25Z</time>
      </trkpt>
      <trkpt lat="37.413007" lon="-122.167168">
        <ele>58.6</ele>
        <time>2015-05-29T19:46:27Z</time>
      </trkpt>
      <trkpt lat="37.412999" lon="-122.167131">
        <ele>58.5</ele>
        <time>2015-05-29T19:46:28Z</time>
      </trkpt>
      <trkpt lat="37.412991" lon="-122.167099">
        <ele>58.5</ele>
        <time>2015-05-29T19:46:29Z</time>
      </trkpt>
      <trkpt lat="37.412992" lon="-122.16704">
        <ele>58.4</ele>
        <time>2015-05-29T19:46:31Z</time>
      </trkpt>
      <trkpt lat="37.413002" lon="-122.166984">
        <ele>58.2</ele>
        <time>2015-05-29T19:46:33Z</time>
      </trkpt>
      <trkpt lat="37.413005" lon="-122.166925">
        <ele>58.1</ele>
        <time>2015-05-29T19:46:35Z</time>
      </trkpt>
      <trkpt lat="37.412998" lon="-122.16687">
        <ele>58.1</ele>
        <time>2015-05-29T19:46:37Z</time>
      </trkpt>
      <trkpt lat="37.412988" lon="-122.166838">
        <ele>58.1</ele>
        <time>2015-05-29T19:46:38Z</time>
      </trkpt>
      <trkpt lat="37.412973" lon="-122.166809">
        <ele>58.1</ele>
        <time>2015-05-29T19:46:39Z</time>
      </trkpt>
      <trkpt lat="37.412961" lon="-122.166776">
        <ele>58</ele>
        <time>2015-05-29T19:46:40Z</time>
      </trkpt>
      <trkpt lat="37.412943" lon="-122.166716">
        <ele>58</ele>
        <time>2015-05-29T19:46:42Z</time>
      </trkpt>
      <trkpt lat="37.412924" lon="-122.166667">
        <ele>57.9</ele>
        <time>2015-05-29T19:46:44Z</time>
      </trkpt>
      <trkpt lat="37.41291" lon="-122.166619">
        <ele>57.9</ele>
        <time>2015-05-29T19:46:46Z</time>
      </trkpt>
      <trkpt lat="37.412911" lon="-122.16657">
        <ele>57.8</ele>
        <time>2015-05-29T19:46:48Z</time>
      </trkpt>
      <trkpt lat="37.412921" lon="-122.166513">
        <ele>57.8</ele>
        <time>2015-05-29T19:46:50Z</time>
      </trkpt>
      <trkpt lat="37.412939" lon="-122.166471">
        <ele>57.6</ele>
        <time>2015-05-29T19:46:52Z</time>
      </trkpt>
      <trkpt lat="37.412944" lon="-122.166436">
        <ele>57.5</ele>
        <time>2015-05-29T19:46:54Z</time>
      </trkpt>
      <trkpt lat="37.412935" lon="-122.1664">
        <ele>57.5</ele>
        <time>2015-05-29T19:46:56Z</time>
      </trkpt>
      <trkpt lat="37.412926" lon="-122.16635">
        <ele>57.6</ele>
        <time>2015-05-29T19:46:58Z</time>
      </trkpt>
      <trkpt lat="37.41292" lon="-122.166312">
        <ele>57.6</ele>
        <time>2015-05-29T19:47:00Z</time>
      </trkpt>
      <trkpt lat="37.412917" lon="-122.166257">
        <ele>57.5</ele>
        <time>2015-05-29T19:47:02Z</time>
      </trkpt>
      <trkpt lat="37.412906" lon="-122.166193">
        <ele>57.5</ele>
        <time>2015-05-29T19:47:04Z</time>
      </trkpt>
      <trkpt lat="37.412891" lon="-122.16616">
        <ele>57.5</ele>
        <time>2015-05-29T19:47:05Z</time>
      </trkpt>
      <trkpt lat="37.412876" lon="-122.166129">
        <ele>57.5</ele>
        <time>2015-05-29T19:47:06Z</time>
      </trkpt>
      <trkpt lat="37.412856" lon="-122.16607">
        <ele>57.6</ele>
        <time>2015-05-29T19:47:08Z</time>
      </trkpt>
      <trkpt lat="37.412844" lon="-122.166011">
        <ele>57.4</ele>
        <time>2015-05-29T19:47:10Z</time>
      </trkpt>
      <trkpt lat="37.412823" lon="-122.165959">
        <ele>57.4</ele>
        <time>2015-05-29T19:47:12Z</time>
      </trkpt>
      <trkpt lat="37.412804" lon="-122.165909">
        <ele>57.3</ele>
        <time>2015-05-29T19:47:14Z</time>
      </trkpt>
      <trkpt lat="37.412788" lon="-122.165851">
        <ele>57.3</ele>
        <time>2015-05-29T19:47:16Z</time>
      </trkpt>
      <trkpt lat="37.412784" lon="-122.165801">
        <ele>57.2</ele>
        <time>2015-05-29T19:47:18Z</time>
      </trkpt>
      <trkpt lat="37.412778" lon="-122.165743">
        <ele>57.1</ele>
        <time>2015-05-29T19:47:20Z</time>
      </trkpt>
      <trkpt lat="37.412766" lon="-122.165691">
        <ele>57.1</ele>
        <time>2015-05-29T19:47:22Z</time>
      </trkpt>
      <trkpt lat="37.412748" lon="-122.165649">
        <ele>57</ele>
        <time>2015-05-29T19:47:24Z</time>
      </trkpt>
      <trkpt lat="37.41273" lon="-122.165604">
        <ele>57</ele>
        <time>2015-05-29T19:47:26Z</time>
      </trkpt>
      <trkpt lat="37.412694" lon="-122.165558">
        <ele>56.9</ele>
        <time>2015-05-29T19:47:28Z</time>
      </trkpt>
      <trkpt lat="37.412672" lon="-122.165537">
        <ele>56.8</ele>
        <time>2015-05-29T19:47:29Z</time>
      </trkpt>
      <trkpt lat="37.41264" lon="-122.165492">
        <ele>56.7</ele>
        <time>2015-05-29T19:47:31Z</time>
      </trkpt>
      <trkpt lat="37.412622" lon="-122.165439">
        <ele>56.5</ele>
        <time>2015-05-29T19:47:33Z</time>
      </trkpt>
      <trkpt lat="37.412615" lon="-122.165389">
        <ele>56.5</ele>
        <time>2015-05-29T19:47:35Z</time>
      </trkpt>
      <trkpt lat="37.412611" lon="-122.165335">
        <ele>56.5</ele>
        <time>2015-05-29T19:47:37Z</time>
      </trkpt>
      <trkpt lat="37.412603" lon="-122.16528">
        <ele>56.5</ele>
        <time>2015-05-29T19:47:39Z</time>
      </trkpt>
      <trkpt lat="37.412593" lon="-122.16523">
        <ele>56.4</ele>
        <time>2015-05-29T19:47:41Z</time>
      </trkpt>
      <trkpt lat="37.41258" lon="-122.165175">
        <ele>56.4</ele>
        <time>2015-05-29T19:47:43Z</time>
      </trkpt>
      <trkpt lat="37.412568" lon="-122.165129">
        <ele>56.3</ele>
        <time>2015-05-29T19:47:45Z</time>
      </trkpt>
      <trkpt lat="37.412546" lon="-122.165066">
        <ele>56.2</ele>
        <time>2015-05-29T19:47:47Z</time>
      </trkpt>
      <trkpt lat="37.412533" lon="-122.165026">
        <ele>56.2</ele>
        <time>2015-05-29T19:47:49Z</time>
      </trkpt>
      <trkpt lat="37.412522" lon="-122.164984">
        <ele>56.2</ele>
        <time>2015-05-29T19:47:51Z</time>
      </trkpt>
      <trkpt lat="37.412509" lon="-122.164931">
        <ele>56.1</ele>
        <time>2015-05-29T19:47:53Z</time>
      </trkpt>
      <trkpt lat="37.412498" lon="-122.164867">
        <ele>56.1</ele>
        <time>2015-05-29T19:47:55Z</time>
      </trkpt>
      <trkpt lat="37.412491" lon="-122.164811">
        <ele>56</ele>
        <time>2015-05-29T19:47:57Z</time>
      </trkpt>
      <trkpt lat="37.412474" lon="-122.164762">
        <ele>55.9</ele>
        <time>2015-05-29T19:47:59Z</time>
      </trkpt>
      <trkpt lat="37.412459" lon="-122.164713">
        <ele>55.9</ele>
        <time>2015-05-29T19:48:01Z</time>
      </trkpt>
      <trkpt lat="37.412447" lon="-122.164666">
        <ele>55.8</ele>
        <time>2015-05-29T19:48:03Z</time>
      </trkpt>
      <trkpt lat="37.412435" lon="-122.164626">
        <ele>55.8</ele>
        <time>2015-05-29T19:48:05Z</time>
      </trkpt>
      <trkpt lat="37.412415" lon="-122.164576">
        <ele>55.8</ele>
        <time>2015-05-29T19:48:07Z</time>
      </trkpt>
      <trkpt lat="37.412392" lon="-122.164527">
        <ele>55.8</ele>
        <time>2015-05-29T19:48:09Z</time>
      </trkpt>
      <trkpt lat="37.412371" lon="-122.164484">
        <ele>55.7</ele>
        <time>2015-05-29T19:48:11Z</time>
      </trkpt>
      <trkpt lat="37.412347" lon="-122.164434">
        <ele>55.6</ele>
        <time>2015-05-29T19:48:13Z</time>
      </trkpt>
      <trkpt lat="37.412326" lon="-122.164388">
        <ele>55.6</ele>
        <time>2015-05-29T19:48:15Z</time>
      </trkpt>
      <trkpt lat="37.41231" lon="-122.164343">
        <ele>55.4</ele>
        <time>2015-05-29T19:48:17Z</time>
      </trkpt>
      <trkpt lat="37.412296" lon="-122.164302">
        <ele>55.4</ele>
        <time>2015-05-29T19:48:19Z</time>
      </trkpt>
      <trkpt lat="37.412271" lon="-122.164244">
        <ele>55.3</ele>
        <time>2015-05-29T19:48:21Z</time>
      </trkpt>
      <trkpt lat="37.412251" lon="-122.164196">
        <ele>55.2</ele>
        <time>2015-05-29T19:48:23Z</time>
      </trkpt>
      <trkpt lat="37.412243" lon="-122.164157">
        <ele>55.2</ele>
        <time>2015-05-29T19:48:25Z</time>
      </trkpt>
      <trkpt lat="37.412229" lon="-122.16411">
        <ele>55.1</ele>
        <time>2015-05-29T19:48:27Z</time>
      </trkpt>
      <trkpt lat="37.412212" lon="-122.164061">
        <ele>55</ele>
        <time>2015-05-29T19:48:29Z</time>
      </trkpt>
      <trkpt lat="37.412196" lon="-122.164011">
        <ele>55</ele>
        <time>2015-05-29T19:48:31Z</time>
      </trkpt>
      <trkpt lat="37.412168" lon="-122.163955">
        <ele>54.9</ele>
        <time>2015-05-29T19:48:33Z</time>
      </trkpt>
      <trkpt lat="37.412145" lon="-122.163928">
        <ele>54.8</ele>
        <time>2015-05-29T19:48:34Z</time>
      </trkpt>
      <trkpt lat="37.412118" lon="-122.163899">
        <ele>54.7</ele>
        <time>2015-05-29T19:48:35Z</time>
      </trkpt>
      <trkpt lat="37.412089" lon="-122.163868">
        <ele>54.6</ele>
        <time>2015-05-29T19:48:36Z</time>
      </trkpt>
      <trkpt lat="37.412067" lon="-122.163826">
        <ele>54.5</ele>
        <time>2015-05-29T19:48:38Z</time>
      </trkpt>
      <trkpt lat="37.412059" lon="-122.163784">
        <ele>54.5</ele>
        <time>2015-05-29T19:48:40Z</time>
      </trkpt>
      <trkpt lat="37.412046" lon="-122.163739">
        <ele>54.4</ele>
        <time>2015-05-29T19:48:42Z</time>
      </trkpt>
      <trkpt lat="37.412019" lon="-122.163693">
        <ele>54.3</ele>
        <time>2015-05-29T19:48:44Z</time>
      </trkpt>
      <trkpt lat="37.412003" lon="-122.163647">
        <ele>54.3</ele>
        <time>2015-05-29T19:48:46Z</time>
      </trkpt>
      <trkpt lat="37.411987" lon="-122.163602">
        <ele>54.2</ele>
        <time>2015-05-29T19:48:49Z</time>
      </trkpt>
      <trkpt lat="37.411959" lon="-122.163555">
        <ele>54.1</ele>
        <time>2015-05-29T19:48:50Z</time>
      </trkpt>
      <trkpt lat="37.411942" lon="-122.163517">
        <ele>54</ele>
        <time>2015-05-29T19:48:52Z</time>
      </trkpt>
      <trkpt lat="37.411918" lon="-122.163464">
        <ele>54</ele>
        <time>2015-05-29T19:48:54Z</time>
      </trkpt>
      <trkpt lat="37.4119" lon="-122.163418">
        <ele>54</ele>
        <time>2015-05-29T19:48:56Z</time>
      </trkpt>
      <trkpt lat="37.411882" lon="-122.163366">
        <ele>54</ele>
        <time>2015-05-29T19:48:58Z</time>
      </trkpt>
      <trkpt lat="37.411856" lon="-122.163328">
        <ele>54</ele>
        <time>2015-05-29T19:49:00Z</time>
      </trkpt>
      <trkpt lat="37.411841" lon="-122.163294">
        <ele>53.9</ele>
        <time>2015-05-29T19:49:02Z</time>
      </trkpt>
      <trkpt lat="37.41182" lon="-122.163246">
        <ele>53.9</ele>
        <time>2015-05-29T19:49:04Z</time>
      </trkpt>
      <trkpt lat="37.411793" lon="-122.163195">
        <ele>53.8</ele>
        <time>2015-05-29T19:49:06Z</time>
      </trkpt>
      <trkpt lat="37.411771" lon="-122.16315">
        <ele>53.9</ele>
        <time>2015-05-29T19:49:08Z</time>
      </trkpt>
      <trkpt lat="37.411755" lon="-122.163118">
        <ele>53.8</ele>
        <time>2015-05-29T19:49:10Z</time>
      </trkpt>
      <trkpt lat="37.41174" lon="-122.163074">
        <ele>53.6</ele>
        <time>2015-05-29T19:49:13Z</time>
      </trkpt>
      <trkpt lat="37.411724" lon="-122.163042">
        <ele>53.6</ele>
        <time>2015-05-29T19:49:15Z</time>
      </trkpt>
      <trkpt lat="37.411701" lon="-122.163004">
        <ele>53.6</ele>
        <time>2015-05-29T19:49:17Z</time>
      </trkpt>
      <trkpt lat="37.411684" lon="-122.162971">
        <ele>53.6</ele>
        <time>2015-05-29T19:49:19Z</time>
      </trkpt>
      <trkpt lat="37.41166" lon="-122.162931">
        <ele>53.4</ele>
        <time>2015-05-29T19:49:21Z</time>
      </trkpt>
      <trkpt lat="37.41163" lon="-122.162894">
        <ele>53.6</ele>
        <time>2015-05-29T19:49:23Z</time>
      </trkpt>
      <trkpt lat="37.411602" lon="-122.162858">
        <ele>53.6</ele>
        <time>2015-05-29T19:49:25Z</time>
      </trkpt>
      <trkpt lat="37.411578" lon="-122.162814">
        <ele>53.6</ele>
        <time>2015-05-29T19:49:27Z</time>
      </trkpt>
      <trkpt lat="37.411551" lon="-122.162771">
        <ele>53.6</ele>
        <time>2015-05-29T19:49:29Z</time>
      </trkpt>
      <trkpt lat="37.411515" lon="-122.162732">
        <ele>53.7</ele>
        <time>2015-05-29T19:49:31Z</time>
      </trkpt>
      <trkpt lat="37.411482" lon="-122.162692">
        <ele>53.6</ele>
        <time>2015-05-29T19:49:33Z</time>
      </trkpt>
      <trkpt lat="37.411454" lon="-122.162646">
        <ele>53.6</ele>
        <time>2015-05-29T19:49:35Z</time>
      </trkpt>
      <trkpt lat="37.411436" lon="-122.162621">
        <ele>53.6</ele>
        <time>2015-05-29T19:49:36Z</time>
      </trkpt>
      <trkpt lat="37.411404" lon="-122.16258">
        <ele>53.6</ele>
        <time>2015-05-29T19:49:39Z</time>
      </trkpt>
      <trkpt lat="37.411383" lon="-122.16254">
        <ele>53.4</ele>
        <time>2015-05-29T19:49:40Z</time>
      </trkpt>
      <trkpt lat="37.411359" lon="-122.1625">
        <ele>53.4</ele>
        <time>2015-05-29T19:49:42Z</time>
      </trkpt>
      <trkpt lat="37.41134" lon="-122.162472">
        <ele>53.4</ele>
        <time>2015-05-29T19:49:43Z</time>
      </trkpt>
      <trkpt lat="37.411314" lon="-122.162433">
        <ele>53.3</ele>
        <time>2015-05-29T19:49:45Z</time>
      </trkpt>
      <trkpt lat="37.411291" lon="-122.162395">
        <ele>53.2</ele>
        <time>2015-05-29T19:49:47Z</time>
      </trkpt>
      <trkpt lat="37.411258" lon="-122.162354">
        <ele>53.3</ele>
        <time>2015-05-29T19:49:49Z</time>
      </trkpt>
      <trkpt lat="37.411228" lon="-122.162312">
        <ele>53.3</ele>
        <time>2015-05-29T19:49:51Z</time>
      </trkpt>
      <trkpt lat="37.411204" lon="-122.162273">
        <ele>53.3</ele>
        <time>2015-05-29T19:49:53Z</time>
      </trkpt>
      <trkpt lat="37.411169" lon="-122.162221">
        <ele>53.2</ele>
        <time>2015-05-29T19:49:55Z</time>
      </trkpt>
      <trkpt lat="37.411138" lon="-122.162175">
        <ele>53.2</ele>
        <time>2015-05-29T19:49:57Z</time>
      </trkpt>
      <trkpt lat="37.411105" lon="-122.162137">
        <ele>53.2</ele>
        <time>2015-05-29T19:49:59Z</time>
      </trkpt>
      <trkpt lat="37.411067" lon="-122.162102">
        <ele>53.3</ele>
        <time>2015-05-29T19:50:01Z</time>
      </trkpt>
      <trkpt lat="37.411046" lon="-122.162079">
        <ele>53.4</ele>
        <time>2015-05-29T19:50:02Z</time>
      </trkpt>
      <trkpt lat="37.411025" lon="-122.162054">
        <ele>53.3</ele>
        <time>2015-05-29T19:50:03Z</time>
      </trkpt>
      <trkpt lat="37.410989" lon="-122.162011">
        <ele>53.3</ele>
        <time>2015-05-29T19:50:05Z</time>
      </trkpt>
      <trkpt lat="37.410957" lon="-122.161971">
        <ele>53.3</ele>
        <time>2015-05-29T19:50:07Z</time>
      </trkpt>
      <trkpt lat="37.410923" lon="-122.161927">
        <ele>53.3</ele>
        <time>2015-05-29T19:50:09Z</time>
      </trkpt>
      <trkpt lat="37.410893" lon="-122.161883">
        <ele>53.3</ele>
        <time>2015-05-29T19:50:11Z</time>
      </trkpt>
      <trkpt lat="37.410863" lon="-122.161841">
        <ele>53.3</ele>
        <time>2015-05-29T19:50:13Z</time>
      </trkpt>
      <trkpt lat="37.410837" lon="-122.161804">
        <ele>53.3</ele>
        <time>2015-05-29T19:50:15Z</time>
      </trkpt>
      <trkpt lat="37.410802" lon="-122.16176">
        <ele>53.3</ele>
        <time>2015-05-29T19:50:17Z</time>
      </trkpt>
      <trkpt lat="37.410782" lon="-122.161735">
        <ele>53.3</ele>
        <time>2015-05-29T19:50:18Z</time>
      </trkpt>
      <trkpt lat="37.410763" lon="-122.161709">
        <ele>53.2</ele>
        <time>2015-05-29T19:50:19Z</time>
      </trkpt>
      <trkpt lat="37.410733" lon="-122.161662">
        <ele>53.2</ele>
        <time>2015-05-29T19:50:21Z</time>
      </trkpt>
      <trkpt lat="37.410698" lon="-122.161611">
        <ele>53.2</ele>
        <time>2015-05-29T19:50:23Z</time>
      </trkpt>
      <trkpt lat="37.410664" lon="-122.161562">
        <ele>53.1</ele>
        <time>2015-05-29T19:50:25Z</time>
      </trkpt>
      <trkpt lat="37.410638" lon="-122.161519">
        <ele>53.1</ele>
        <time>2015-05-29T19:50:27Z</time>
      </trkpt>
      <trkpt lat="37.410636" lon="-122.161482">
        <ele>53</ele>
        <time>2015-05-29T19:50:29Z</time>
      </trkpt>
      <trkpt lat="37.410627" lon="-122.161439">
        <ele>52.8</ele>
        <time>2015-05-29T19:50:31Z</time>
      </trkpt>
      <trkpt lat="37.410599" lon="-122.161391">
        <ele>52.8</ele>
        <time>2015-05-29T19:50:33Z</time>
      </trkpt>
      <trkpt lat="37.410554" lon="-122.161333">
        <ele>52.6</ele>
        <time>2015-05-29T19:50:35Z</time>
      </trkpt>
      <trkpt lat="37.410529" lon="-122.161304">
        <ele>52.6</ele>
        <time>2015-05-29T19:50:36Z</time>
      </trkpt>
      <trkpt lat="37.410504" lon="-122.161279">
        <ele>52.6</ele>
        <time>2015-05-29T19:50:37Z</time>
      </trkpt>
      <trkpt lat="37.410472" lon="-122.161245">
        <ele>52.9</ele>
        <time>2015-05-29T19:50:39Z</time>
      </trkpt>
      <trkpt lat="37.410445" lon="-122.161212">
        <ele>52.9</ele>
        <time>2015-05-29T19:50:41Z</time>
      </trkpt>
      <trkpt lat="37.410419" lon="-122.161176">
        <ele>52.9</ele>
        <time>2015-05-29T19:50:43Z</time>
      </trkpt>
      <trkpt lat="37.410394" lon="-122.161138">
        <ele>53</ele>
        <time>2015-05-29T19:50:45Z</time>
      </trkpt>
      <trkpt lat="37.410379" lon="-122.161082">
        <ele>52.9</ele>
        <time>2015-05-29T19:50:47Z</time>
      </trkpt>
      <trkpt lat="37.410376" lon="-122.161025">
        <ele>52.6</ele>
        <time>2015-05-29T19:50:49Z</time>
      </trkpt>
      <trkpt lat="37.410386" lon="-122.160964">
        <ele>52.4</ele>
        <time>2015-05-29T19:50:51Z</time>
      </trkpt>
      <trkpt lat="37.410413" lon="-122.160914">
        <ele>52</ele>
        <time>2015-05-29T19:50:53Z</time>
      </trkpt>
      <trkpt lat="37.410433" lon="-122.160889">
        <ele>52</ele>
        <time>2015-05-29T19:50:54Z</time>
      </trkpt>
      <trkpt lat="37.410478" lon="-122.160856">
        <ele>51.9</ele>
        <time>2015-05-29T19:50:56Z</time>
      </trkpt>
      <trkpt lat="37.410522" lon="-122.160838">
        <ele>51.5</ele>
        <time>2015-05-29T19:50:58Z</time>
      </trkpt>
      <trkpt lat="37.410565" lon="-122.160815">
        <ele>51</ele>
        <time>2015-05-29T19:51:00Z</time>
      </trkpt>
      <trkpt lat="37.410589" lon="-122.160772">
        <ele>51.1</ele>
        <time>2015-05-29T19:51:02Z</time>
      </trkpt>
      <trkpt lat="37.410591" lon="-122.16071">
        <ele>51.2</ele>
        <time>2015-05-29T19:51:04Z</time>
      </trkpt>
      <trkpt lat="37.410572" lon="-122.160655">
        <ele>51.3</ele>
        <time>2015-05-29T19:51:06Z</time>
      </trkpt>
      <trkpt lat="37.410561" lon="-122.160623">
        <ele>51.2</ele>
        <time>2015-05-29T19:51:07Z</time>
      </trkpt>
      <trkpt lat="37.410551" lon="-122.160569">
        <ele>50.9</ele>
        <time>2015-05-29T19:51:09Z</time>
      </trkpt>
      <trkpt lat="37.410552" lon="-122.160528">
        <ele>50.8</ele>
        <time>2015-05-29T19:51:12Z</time>
      </trkpt>
      <trkpt lat="37.410561" lon="-122.160496">
        <ele>50.8</ele>
        <time>2015-05-29T19:51:18Z</time>
      </trkpt>
      <trkpt lat="37.410597" lon="-122.160497">
        <ele>50.6</ele>
        <time>2015-05-29T19:51:28Z</time>
      </trkpt>
    </trkseg>
  </trk>
</gpx>